<?xml version="1.0" encoding="UTF-8" standalone="no" ?>
<gpx xmlns="http://www.topografix.com/GPX/1/1" xmlns:xsi="http://www.w3.org/2001/XMLSchema-instance" xsi:schemaLocation="http://www.topografix.com/GPX/1/1 http://www.topografix.com/GPX/1/1/gpx.xsd" version="1.1" creator="VisuGPX - https://www.visugpx.com">
  <metadata>
    <name>Besac récup 50km</name>
  </metadata>
  <trk>
    <name><![CDATA[BPJEPS_11mars-23533077]]></name>
    <extensions>
      <line xmlns="http://www.topografix.com/GPX/gpx_style/0/2">
        <color>0000FF</color>
        <width>4</width>
      </line>
    </extensions>
    <trkseg>
      <trkpt lat="47.25053" lon="5.99901">
        <ele>296</ele>
        <time>2026-03-11T10:21:27Z</time>
      </trkpt>
      <trkpt lat="47.25056" lon="5.99897">
        <ele>295</ele>
        <time>2026-03-11T10:21:28Z</time>
      </trkpt>
      <trkpt lat="47.25065" lon="5.99912">
        <ele>296</ele>
        <time>2026-03-11T10:21:30Z</time>
      </trkpt>
      <trkpt lat="47.25075" lon="5.99927">
        <ele>295</ele>
        <time>2026-03-11T10:21:33Z</time>
      </trkpt>
      <trkpt lat="47.25085" lon="5.99942">
        <ele>295</ele>
        <time>2026-03-11T10:21:35Z</time>
      </trkpt>
      <trkpt lat="47.25104" lon="5.99972">
        <ele>297</ele>
        <time>2026-03-11T10:21:40Z</time>
      </trkpt>
      <trkpt lat="47.25114" lon="5.99988">
        <ele>297</ele>
        <time>2026-03-11T10:21:43Z</time>
      </trkpt>
      <trkpt lat="47.2512" lon="5.99996">
        <ele>297</ele>
        <time>2026-03-11T10:21:44Z</time>
      </trkpt>
      <trkpt lat="47.25111" lon="6.00009">
        <ele>298</ele>
        <time>2026-03-11T10:21:46Z</time>
      </trkpt>
      <trkpt lat="47.25101" lon="6.0002">
        <ele>299</ele>
        <time>2026-03-11T10:21:49Z</time>
      </trkpt>
      <trkpt lat="47.25095" lon="6.00025">
        <ele>300</ele>
        <time>2026-03-11T10:21:50Z</time>
      </trkpt>
      <trkpt lat="47.25081" lon="6.00037">
        <ele>301</ele>
        <time>2026-03-11T10:21:53Z</time>
      </trkpt>
      <trkpt lat="47.25077" lon="6.00042">
        <ele>302</ele>
        <time>2026-03-11T10:21:54Z</time>
      </trkpt>
      <trkpt lat="47.25063" lon="6.00062">
        <ele>303</ele>
        <time>2026-03-11T10:21:57Z</time>
      </trkpt>
      <trkpt lat="47.25045" lon="6.00084">
        <ele>305</ele>
        <time>2026-03-11T10:22:01Z</time>
      </trkpt>
      <trkpt lat="47.25029" lon="6.00101">
        <ele>306</ele>
        <time>2026-03-11T10:22:05Z</time>
      </trkpt>
      <trkpt lat="47.25014" lon="6.00119">
        <ele>307</ele>
        <time>2026-03-11T10:22:08Z</time>
      </trkpt>
      <trkpt lat="47.24945" lon="6.0024">
        <ele>309</ele>
        <time>2026-03-11T10:22:27Z</time>
      </trkpt>
      <trkpt lat="47.24938" lon="6.00245">
        <ele>309</ele>
        <time>2026-03-11T10:22:29Z</time>
      </trkpt>
      <trkpt lat="47.24934" lon="6.00254">
        <ele>309</ele>
        <time>2026-03-11T10:22:30Z</time>
      </trkpt>
      <trkpt lat="47.24929" lon="6.00268">
        <ele>309</ele>
        <time>2026-03-11T10:22:32Z</time>
      </trkpt>
      <trkpt lat="47.24925" lon="6.00279">
        <ele>309</ele>
        <time>2026-03-11T10:22:34Z</time>
      </trkpt>
      <trkpt lat="47.24882" lon="6.00364">
        <ele>304</ele>
        <time>2026-03-11T10:22:46Z</time>
      </trkpt>
      <trkpt lat="47.24869" lon="6.00393">
        <ele>303</ele>
        <time>2026-03-11T10:22:51Z</time>
      </trkpt>
      <trkpt lat="47.24843" lon="6.00444">
        <ele>301</ele>
        <time>2026-03-11T10:22:58Z</time>
      </trkpt>
      <trkpt lat="47.24841" lon="6.00448">
        <ele>301</ele>
        <time>2026-03-11T10:22:59Z</time>
      </trkpt>
      <trkpt lat="47.24836" lon="6.00459">
        <ele>301</ele>
        <time>2026-03-11T10:23:00Z</time>
      </trkpt>
      <trkpt lat="47.24821" lon="6.00492">
        <ele>299</ele>
        <time>2026-03-11T10:23:05Z</time>
      </trkpt>
      <trkpt lat="47.24804" lon="6.00528">
        <ele>298</ele>
        <time>2026-03-11T10:23:11Z</time>
      </trkpt>
      <trkpt lat="47.2479" lon="6.0056">
        <ele>297</ele>
        <time>2026-03-11T10:23:15Z</time>
      </trkpt>
      <trkpt lat="47.24775" lon="6.00592">
        <ele>295</ele>
        <time>2026-03-11T10:23:20Z</time>
      </trkpt>
      <trkpt lat="47.24764" lon="6.00618">
        <ele>294</ele>
        <time>2026-03-11T10:23:24Z</time>
      </trkpt>
      <trkpt lat="47.24733" lon="6.00683">
        <ele>291</ele>
        <time>2026-03-11T10:23:33Z</time>
      </trkpt>
      <trkpt lat="47.24724" lon="6.00702">
        <ele>291</ele>
        <time>2026-03-11T10:23:36Z</time>
      </trkpt>
      <trkpt lat="47.24712" lon="6.00733">
        <ele>291</ele>
        <time>2026-03-11T10:23:40Z</time>
      </trkpt>
      <trkpt lat="47.24674" lon="6.00806">
        <ele>290</ele>
        <time>2026-03-11T10:23:51Z</time>
      </trkpt>
      <trkpt lat="47.24653" lon="6.00839">
        <ele>290</ele>
        <time>2026-03-11T10:23:57Z</time>
      </trkpt>
      <trkpt lat="47.24647" lon="6.00848">
        <ele>290</ele>
        <time>2026-03-11T10:23:58Z</time>
      </trkpt>
      <trkpt lat="47.24645" lon="6.00851">
        <ele>290</ele>
        <time>2026-03-11T10:23:59Z</time>
      </trkpt>
      <trkpt lat="47.24609" lon="6.00905">
        <ele>290</ele>
        <time>2026-03-11T10:24:08Z</time>
      </trkpt>
      <trkpt lat="47.24604" lon="6.00913">
        <ele>290</ele>
        <time>2026-03-11T10:24:09Z</time>
      </trkpt>
      <trkpt lat="47.24574" lon="6.00958">
        <ele>288</ele>
        <time>2026-03-11T10:24:17Z</time>
      </trkpt>
      <trkpt lat="47.24568" lon="6.00966">
        <ele>288</ele>
        <time>2026-03-11T10:24:18Z</time>
      </trkpt>
      <trkpt lat="47.24549" lon="6.00995">
        <ele>286</ele>
        <time>2026-03-11T10:24:23Z</time>
      </trkpt>
      <trkpt lat="47.24538" lon="6.01012">
        <ele>285</ele>
        <time>2026-03-11T10:24:26Z</time>
      </trkpt>
      <trkpt lat="47.24531" lon="6.01024">
        <ele>284</ele>
        <time>2026-03-11T10:24:28Z</time>
      </trkpt>
      <trkpt lat="47.24519" lon="6.01042">
        <ele>283</ele>
        <time>2026-03-11T10:24:31Z</time>
      </trkpt>
      <trkpt lat="47.24521" lon="6.01045">
        <ele>283</ele>
        <time>2026-03-11T10:24:32Z</time>
      </trkpt>
      <trkpt lat="47.24519" lon="6.01042">
        <ele>283</ele>
        <time>2026-03-11T10:24:32Z</time>
      </trkpt>
      <trkpt lat="47.24514" lon="6.0105">
        <ele>283</ele>
        <time>2026-03-11T10:24:33Z</time>
      </trkpt>
      <trkpt lat="47.24451" lon="6.01147">
        <ele>283</ele>
        <time>2026-03-11T10:24:50Z</time>
      </trkpt>
      <trkpt lat="47.2445" lon="6.01149">
        <ele>283</ele>
        <time>2026-03-11T10:24:50Z</time>
      </trkpt>
      <trkpt lat="47.24443" lon="6.01159">
        <ele>283</ele>
        <time>2026-03-11T10:24:52Z</time>
      </trkpt>
      <trkpt lat="47.24438" lon="6.01168">
        <ele>283</ele>
        <time>2026-03-11T10:24:53Z</time>
      </trkpt>
      <trkpt lat="47.24423" lon="6.01183">
        <ele>283</ele>
        <time>2026-03-11T10:24:56Z</time>
      </trkpt>
      <trkpt lat="47.2442" lon="6.01187">
        <ele>283</ele>
        <time>2026-03-11T10:24:57Z</time>
      </trkpt>
      <trkpt lat="47.24409" lon="6.01205">
        <ele>283</ele>
        <time>2026-03-11T10:25:00Z</time>
      </trkpt>
      <trkpt lat="47.24401" lon="6.0124">
        <ele>284</ele>
        <time>2026-03-11T10:25:04Z</time>
      </trkpt>
      <trkpt lat="47.24386" lon="6.01299">
        <ele>285</ele>
        <time>2026-03-11T10:25:12Z</time>
      </trkpt>
      <trkpt lat="47.24385" lon="6.01308">
        <ele>285</ele>
        <time>2026-03-11T10:25:13Z</time>
      </trkpt>
      <trkpt lat="47.24387" lon="6.01319">
        <ele>285</ele>
        <time>2026-03-11T10:25:14Z</time>
      </trkpt>
      <trkpt lat="47.24377" lon="6.01327">
        <ele>285</ele>
        <time>2026-03-11T10:25:16Z</time>
      </trkpt>
      <trkpt lat="47.24375" lon="6.01331">
        <ele>285</ele>
        <time>2026-03-11T10:25:17Z</time>
      </trkpt>
      <trkpt lat="47.24345" lon="6.01369">
        <ele>283</ele>
        <time>2026-03-11T10:25:24Z</time>
      </trkpt>
      <trkpt lat="47.24299" lon="6.01426">
        <ele>283</ele>
        <time>2026-03-11T10:25:35Z</time>
      </trkpt>
      <trkpt lat="47.24268" lon="6.01451">
        <ele>282</ele>
        <time>2026-03-11T10:25:41Z</time>
      </trkpt>
      <trkpt lat="47.24239" lon="6.01477">
        <ele>281</ele>
        <time>2026-03-11T10:25:47Z</time>
      </trkpt>
      <trkpt lat="47.24232" lon="6.01484">
        <ele>280</ele>
        <time>2026-03-11T10:25:49Z</time>
      </trkpt>
      <trkpt lat="47.24226" lon="6.01469">
        <ele>280</ele>
        <time>2026-03-11T10:25:51Z</time>
      </trkpt>
      <trkpt lat="47.24222" lon="6.01459">
        <ele>281</ele>
        <time>2026-03-11T10:25:52Z</time>
      </trkpt>
      <trkpt lat="47.24214" lon="6.01451">
        <ele>281</ele>
        <time>2026-03-11T10:25:54Z</time>
      </trkpt>
      <trkpt lat="47.24209" lon="6.0145">
        <ele>281</ele>
        <time>2026-03-11T10:25:55Z</time>
      </trkpt>
      <trkpt lat="47.242" lon="6.01449">
        <ele>281</ele>
        <time>2026-03-11T10:25:56Z</time>
      </trkpt>
      <trkpt lat="47.24191" lon="6.01449">
        <ele>280</ele>
        <time>2026-03-11T10:25:58Z</time>
      </trkpt>
      <trkpt lat="47.24182" lon="6.01449">
        <ele>280</ele>
        <time>2026-03-11T10:26:00Z</time>
      </trkpt>
      <trkpt lat="47.24152" lon="6.01434">
        <ele>280</ele>
        <time>2026-03-11T10:26:05Z</time>
      </trkpt>
      <trkpt lat="47.24149" lon="6.01433">
        <ele>280</ele>
        <time>2026-03-11T10:26:06Z</time>
      </trkpt>
      <trkpt lat="47.24132" lon="6.01425">
        <ele>279</ele>
        <time>2026-03-11T10:26:09Z</time>
      </trkpt>
      <trkpt lat="47.24101" lon="6.0141">
        <ele>278</ele>
        <time>2026-03-11T10:26:15Z</time>
      </trkpt>
      <trkpt lat="47.24094" lon="6.01406">
        <ele>278</ele>
        <time>2026-03-11T10:26:16Z</time>
      </trkpt>
      <trkpt lat="47.24071" lon="6.01392">
        <ele>277</ele>
        <time>2026-03-11T10:26:20Z</time>
      </trkpt>
      <trkpt lat="47.24048" lon="6.01373">
        <ele>276</ele>
        <time>2026-03-11T10:26:25Z</time>
      </trkpt>
      <trkpt lat="47.2404" lon="6.01369">
        <ele>276</ele>
        <time>2026-03-11T10:26:27Z</time>
      </trkpt>
      <trkpt lat="47.24034" lon="6.01366">
        <ele>275</ele>
        <time>2026-03-11T10:26:28Z</time>
      </trkpt>
      <trkpt lat="47.24031" lon="6.01365">
        <ele>275</ele>
        <time>2026-03-11T10:26:28Z</time>
      </trkpt>
      <trkpt lat="47.2403" lon="6.01352">
        <ele>276</ele>
        <time>2026-03-11T10:26:30Z</time>
      </trkpt>
      <trkpt lat="47.24027" lon="6.01343">
        <ele>276</ele>
        <time>2026-03-11T10:26:31Z</time>
      </trkpt>
      <trkpt lat="47.24009" lon="6.01317">
        <ele>276</ele>
        <time>2026-03-11T10:26:36Z</time>
      </trkpt>
      <trkpt lat="47.24001" lon="6.01308">
        <ele>276</ele>
        <time>2026-03-11T10:26:37Z</time>
      </trkpt>
      <trkpt lat="47.23999" lon="6.01305">
        <ele>276</ele>
        <time>2026-03-11T10:26:38Z</time>
      </trkpt>
      <trkpt lat="47.23971" lon="6.01269">
        <ele>277</ele>
        <time>2026-03-11T10:26:45Z</time>
      </trkpt>
      <trkpt lat="47.23973" lon="6.01265">
        <ele>277</ele>
        <time>2026-03-11T10:26:45Z</time>
      </trkpt>
      <trkpt lat="47.23971" lon="6.01269">
        <ele>277</ele>
        <time>2026-03-11T10:26:46Z</time>
      </trkpt>
      <trkpt lat="47.23965" lon="6.01263">
        <ele>277</ele>
        <time>2026-03-11T10:26:47Z</time>
      </trkpt>
      <trkpt lat="47.23947" lon="6.01241">
        <ele>277</ele>
        <time>2026-03-11T10:26:51Z</time>
      </trkpt>
      <trkpt lat="47.23944" lon="6.01238">
        <ele>277</ele>
        <time>2026-03-11T10:26:52Z</time>
      </trkpt>
      <trkpt lat="47.23925" lon="6.01214">
        <ele>277</ele>
        <time>2026-03-11T10:26:56Z</time>
      </trkpt>
      <trkpt lat="47.23915" lon="6.01194">
        <ele>278</ele>
        <time>2026-03-11T10:26:59Z</time>
      </trkpt>
      <trkpt lat="47.23911" lon="6.01187">
        <ele>278</ele>
        <time>2026-03-11T10:27:00Z</time>
      </trkpt>
      <trkpt lat="47.23915" lon="6.01183">
        <ele>278</ele>
        <time>2026-03-11T10:27:01Z</time>
      </trkpt>
      <trkpt lat="47.23923" lon="6.01169">
        <ele>278</ele>
        <time>2026-03-11T10:27:03Z</time>
      </trkpt>
      <trkpt lat="47.23964" lon="6.01097">
        <ele>279</ele>
        <time>2026-03-11T10:27:15Z</time>
      </trkpt>
      <trkpt lat="47.2399" lon="6.01049">
        <ele>280</ele>
        <time>2026-03-11T10:27:22Z</time>
      </trkpt>
      <trkpt lat="47.23996" lon="6.01038">
        <ele>281</ele>
        <time>2026-03-11T10:27:24Z</time>
      </trkpt>
      <trkpt lat="47.24014" lon="6.00984">
        <ele>281</ele>
        <time>2026-03-11T10:27:31Z</time>
      </trkpt>
      <trkpt lat="47.2403" lon="6.00936">
        <ele>282</ele>
        <time>2026-03-11T10:27:38Z</time>
      </trkpt>
      <trkpt lat="47.24032" lon="6.00927">
        <ele>282</ele>
        <time>2026-03-11T10:27:39Z</time>
      </trkpt>
      <trkpt lat="47.24051" lon="6.00874">
        <ele>282</ele>
        <time>2026-03-11T10:27:46Z</time>
      </trkpt>
      <trkpt lat="47.24067" lon="6.00828">
        <ele>281</ele>
        <time>2026-03-11T10:27:52Z</time>
      </trkpt>
      <trkpt lat="47.24078" lon="6.00795">
        <ele>281</ele>
        <time>2026-03-11T10:27:57Z</time>
      </trkpt>
      <trkpt lat="47.24081" lon="6.00787">
        <ele>281</ele>
        <time>2026-03-11T10:27:58Z</time>
      </trkpt>
      <trkpt lat="47.24085" lon="6.00775">
        <ele>281</ele>
        <time>2026-03-11T10:27:59Z</time>
      </trkpt>
      <trkpt lat="47.24104" lon="6.00724">
        <ele>281</ele>
        <time>2026-03-11T10:28:06Z</time>
      </trkpt>
      <trkpt lat="47.24116" lon="6.00689">
        <ele>281</ele>
        <time>2026-03-11T10:28:11Z</time>
      </trkpt>
      <trkpt lat="47.24117" lon="6.00687">
        <ele>281</ele>
        <time>2026-03-11T10:28:11Z</time>
      </trkpt>
      <trkpt lat="47.24119" lon="6.00684">
        <ele>281</ele>
        <time>2026-03-11T10:28:12Z</time>
      </trkpt>
      <trkpt lat="47.24122" lon="6.00682">
        <ele>281</ele>
        <time>2026-03-11T10:28:13Z</time>
      </trkpt>
      <trkpt lat="47.24154" lon="6.00747">
        <ele>281</ele>
        <time>2026-03-11T10:28:22Z</time>
      </trkpt>
      <trkpt lat="47.2416" lon="6.00759">
        <ele>281</ele>
        <time>2026-03-11T10:28:24Z</time>
      </trkpt>
      <trkpt lat="47.24171" lon="6.00782">
        <ele>281</ele>
        <time>2026-03-11T10:28:27Z</time>
      </trkpt>
      <trkpt lat="47.24182" lon="6.00805">
        <ele>281</ele>
        <time>2026-03-11T10:28:31Z</time>
      </trkpt>
      <trkpt lat="47.24205" lon="6.00853">
        <ele>282</ele>
        <time>2026-03-11T10:28:38Z</time>
      </trkpt>
      <trkpt lat="47.2421" lon="6.00873">
        <ele>282</ele>
        <time>2026-03-11T10:28:41Z</time>
      </trkpt>
      <trkpt lat="47.24214" lon="6.00879">
        <ele>282</ele>
        <time>2026-03-11T10:28:42Z</time>
      </trkpt>
      <trkpt lat="47.24212" lon="6.00884">
        <ele>282</ele>
        <time>2026-03-11T10:28:42Z</time>
      </trkpt>
      <trkpt lat="47.24212" lon="6.00889">
        <ele>282</ele>
        <time>2026-03-11T10:28:43Z</time>
      </trkpt>
      <trkpt lat="47.24212" lon="6.00894">
        <ele>282</ele>
        <time>2026-03-11T10:28:43Z</time>
      </trkpt>
      <trkpt lat="47.24213" lon="6.00899">
        <ele>282</ele>
        <time>2026-03-11T10:28:44Z</time>
      </trkpt>
      <trkpt lat="47.24215" lon="6.00903">
        <ele>282</ele>
        <time>2026-03-11T10:28:45Z</time>
      </trkpt>
      <trkpt lat="47.24219" lon="6.00907">
        <ele>282</ele>
        <time>2026-03-11T10:28:46Z</time>
      </trkpt>
      <trkpt lat="47.24222" lon="6.00909">
        <ele>282</ele>
        <time>2026-03-11T10:28:46Z</time>
      </trkpt>
      <trkpt lat="47.24229" lon="6.0091">
        <ele>282</ele>
        <time>2026-03-11T10:28:47Z</time>
      </trkpt>
      <trkpt lat="47.24233" lon="6.00907">
        <ele>282</ele>
        <time>2026-03-11T10:28:48Z</time>
      </trkpt>
      <trkpt lat="47.24236" lon="6.00904">
        <ele>282</ele>
        <time>2026-03-11T10:28:49Z</time>
      </trkpt>
      <trkpt lat="47.2424" lon="6.00903">
        <ele>282</ele>
        <time>2026-03-11T10:28:50Z</time>
      </trkpt>
      <trkpt lat="47.24242" lon="6.0092">
        <ele>282</ele>
        <time>2026-03-11T10:28:52Z</time>
      </trkpt>
      <trkpt lat="47.24245" lon="6.00899">
        <ele>282</ele>
        <time>2026-03-11T10:28:54Z</time>
      </trkpt>
      <trkpt lat="47.24246" lon="6.00887">
        <ele>282</ele>
        <time>2026-03-11T10:28:56Z</time>
      </trkpt>
      <trkpt lat="47.24245" lon="6.00871">
        <ele>282</ele>
        <time>2026-03-11T10:28:58Z</time>
      </trkpt>
      <trkpt lat="47.24249" lon="6.0086">
        <ele>281</ele>
        <time>2026-03-11T10:28:59Z</time>
      </trkpt>
      <trkpt lat="47.24272" lon="6.00822">
        <ele>281</ele>
        <time>2026-03-11T10:29:05Z</time>
      </trkpt>
      <trkpt lat="47.24278" lon="6.00807">
        <ele>281</ele>
        <time>2026-03-11T10:29:07Z</time>
      </trkpt>
      <trkpt lat="47.24283" lon="6.00797">
        <ele>281</ele>
        <time>2026-03-11T10:29:09Z</time>
      </trkpt>
      <trkpt lat="47.24289" lon="6.00796">
        <ele>281</ele>
        <time>2026-03-11T10:29:10Z</time>
      </trkpt>
      <trkpt lat="47.24293" lon="6.00792">
        <ele>280</ele>
        <time>2026-03-11T10:29:11Z</time>
      </trkpt>
      <trkpt lat="47.24298" lon="6.00785">
        <ele>281</ele>
        <time>2026-03-11T10:29:12Z</time>
      </trkpt>
      <trkpt lat="47.243" lon="6.00781">
        <ele>281</ele>
        <time>2026-03-11T10:29:13Z</time>
      </trkpt>
      <trkpt lat="47.24301" lon="6.00776">
        <ele>281</ele>
        <time>2026-03-11T10:29:13Z</time>
      </trkpt>
      <trkpt lat="47.24301" lon="6.00771">
        <ele>281</ele>
        <time>2026-03-11T10:29:14Z</time>
      </trkpt>
      <trkpt lat="47.24307" lon="6.0076">
        <ele>281</ele>
        <time>2026-03-11T10:29:16Z</time>
      </trkpt>
      <trkpt lat="47.24332" lon="6.00718">
        <ele>281</ele>
        <time>2026-03-11T10:29:22Z</time>
      </trkpt>
      <trkpt lat="47.24359" lon="6.00678">
        <ele>280</ele>
        <time>2026-03-11T10:29:29Z</time>
      </trkpt>
      <trkpt lat="47.24364" lon="6.00671">
        <ele>280</ele>
        <time>2026-03-11T10:29:30Z</time>
      </trkpt>
      <trkpt lat="47.24371" lon="6.00661">
        <ele>280</ele>
        <time>2026-03-11T10:29:32Z</time>
      </trkpt>
      <trkpt lat="47.24384" lon="6.00633">
        <ele>280</ele>
        <time>2026-03-11T10:29:36Z</time>
      </trkpt>
      <trkpt lat="47.24391" lon="6.00602">
        <ele>280</ele>
        <time>2026-03-11T10:29:40Z</time>
      </trkpt>
      <trkpt lat="47.24393" lon="6.00585">
        <ele>280</ele>
        <time>2026-03-11T10:29:42Z</time>
      </trkpt>
      <trkpt lat="47.24395" lon="6.00575">
        <ele>281</ele>
        <time>2026-03-11T10:29:44Z</time>
      </trkpt>
      <trkpt lat="47.24402" lon="6.00527">
        <ele>281</ele>
        <time>2026-03-11T10:29:49Z</time>
      </trkpt>
      <trkpt lat="47.24406" lon="6.00519">
        <ele>282</ele>
        <time>2026-03-11T10:29:51Z</time>
      </trkpt>
      <trkpt lat="47.2441" lon="6.00507">
        <ele>282</ele>
        <time>2026-03-11T10:29:52Z</time>
      </trkpt>
      <trkpt lat="47.24426" lon="6.0047">
        <ele>282</ele>
        <time>2026-03-11T10:29:58Z</time>
      </trkpt>
      <trkpt lat="47.2443" lon="6.0046">
        <ele>282</ele>
        <time>2026-03-11T10:29:59Z</time>
      </trkpt>
      <trkpt lat="47.24436" lon="6.00446">
        <ele>282</ele>
        <time>2026-03-11T10:30:01Z</time>
      </trkpt>
      <trkpt lat="47.24444" lon="6.00433">
        <ele>283</ele>
        <time>2026-03-11T10:30:03Z</time>
      </trkpt>
      <trkpt lat="47.24475" lon="6.00373">
        <ele>284</ele>
        <time>2026-03-11T10:30:12Z</time>
      </trkpt>
      <trkpt lat="47.24508" lon="6.00308">
        <ele>284</ele>
        <time>2026-03-11T10:30:22Z</time>
      </trkpt>
      <trkpt lat="47.24513" lon="6.00299">
        <ele>284</ele>
        <time>2026-03-11T10:30:23Z</time>
      </trkpt>
      <trkpt lat="47.24519" lon="6.00288">
        <ele>284</ele>
        <time>2026-03-11T10:30:25Z</time>
      </trkpt>
      <trkpt lat="47.24537" lon="6.00244">
        <ele>283</ele>
        <time>2026-03-11T10:30:31Z</time>
      </trkpt>
      <trkpt lat="47.24549" lon="6.00212">
        <ele>283</ele>
        <time>2026-03-11T10:30:36Z</time>
      </trkpt>
      <trkpt lat="47.24551" lon="6.00182">
        <ele>282</ele>
        <time>2026-03-11T10:30:39Z</time>
      </trkpt>
      <trkpt lat="47.24565" lon="6.00154">
        <ele>283</ele>
        <time>2026-03-11T10:30:44Z</time>
      </trkpt>
      <trkpt lat="47.24573" lon="6.0013">
        <ele>284</ele>
        <time>2026-03-11T10:30:47Z</time>
      </trkpt>
      <trkpt lat="47.24587" lon="6.001">
        <ele>285</ele>
        <time>2026-03-11T10:30:51Z</time>
      </trkpt>
      <trkpt lat="47.24591" lon="6.0009">
        <ele>285</ele>
        <time>2026-03-11T10:30:53Z</time>
      </trkpt>
      <trkpt lat="47.24604" lon="6.00048">
        <ele>286</ele>
        <time>2026-03-11T10:30:58Z</time>
      </trkpt>
      <trkpt lat="47.24607" lon="6.0004">
        <ele>286</ele>
        <time>2026-03-11T10:30:59Z</time>
      </trkpt>
      <trkpt lat="47.24609" lon="6.00025">
        <ele>286</ele>
        <time>2026-03-11T10:31:01Z</time>
      </trkpt>
      <trkpt lat="47.24614" lon="5.99956">
        <ele>287</ele>
        <time>2026-03-11T10:31:10Z</time>
      </trkpt>
      <trkpt lat="47.24617" lon="5.99917">
        <ele>287</ele>
        <time>2026-03-11T10:31:14Z</time>
      </trkpt>
      <trkpt lat="47.24618" lon="5.99904">
        <ele>287</ele>
        <time>2026-03-11T10:31:16Z</time>
      </trkpt>
      <trkpt lat="47.24619" lon="5.99892">
        <ele>287</ele>
        <time>2026-03-11T10:31:17Z</time>
      </trkpt>
      <trkpt lat="47.24623" lon="5.99835">
        <ele>288</ele>
        <time>2026-03-11T10:31:24Z</time>
      </trkpt>
      <trkpt lat="47.24628" lon="5.99817">
        <ele>287</ele>
        <time>2026-03-11T10:31:27Z</time>
      </trkpt>
      <trkpt lat="47.24632" lon="5.99805">
        <ele>287</ele>
        <time>2026-03-11T10:31:28Z</time>
      </trkpt>
      <trkpt lat="47.24638" lon="5.99792">
        <ele>287</ele>
        <time>2026-03-11T10:31:30Z</time>
      </trkpt>
      <trkpt lat="47.24643" lon="5.99779">
        <ele>286</ele>
        <time>2026-03-11T10:31:32Z</time>
      </trkpt>
      <trkpt lat="47.24656" lon="5.99752">
        <ele>285</ele>
        <time>2026-03-11T10:31:36Z</time>
      </trkpt>
      <trkpt lat="47.24664" lon="5.99727">
        <ele>284</ele>
        <time>2026-03-11T10:31:39Z</time>
      </trkpt>
      <trkpt lat="47.24671" lon="5.99698">
        <ele>284</ele>
        <time>2026-03-11T10:31:43Z</time>
      </trkpt>
      <trkpt lat="47.24673" lon="5.99688">
        <ele>284</ele>
        <time>2026-03-11T10:31:44Z</time>
      </trkpt>
      <trkpt lat="47.24674" lon="5.99672">
        <ele>284</ele>
        <time>2026-03-11T10:31:46Z</time>
      </trkpt>
      <trkpt lat="47.24676" lon="5.99659">
        <ele>284</ele>
        <time>2026-03-11T10:31:48Z</time>
      </trkpt>
      <trkpt lat="47.24681" lon="5.99612">
        <ele>285</ele>
        <time>2026-03-11T10:31:53Z</time>
      </trkpt>
      <trkpt lat="47.24683" lon="5.99592">
        <ele>286</ele>
        <time>2026-03-11T10:31:56Z</time>
      </trkpt>
      <trkpt lat="47.24687" lon="5.99547">
        <ele>287</ele>
        <time>2026-03-11T10:32:01Z</time>
      </trkpt>
      <trkpt lat="47.24689" lon="5.99517">
        <ele>287</ele>
        <time>2026-03-11T10:32:05Z</time>
      </trkpt>
      <trkpt lat="47.24692" lon="5.99492">
        <ele>288</ele>
        <time>2026-03-11T10:32:08Z</time>
      </trkpt>
      <trkpt lat="47.24693" lon="5.99476">
        <ele>288</ele>
        <time>2026-03-11T10:32:10Z</time>
      </trkpt>
      <trkpt lat="47.24694" lon="5.99464">
        <ele>288</ele>
        <time>2026-03-11T10:32:12Z</time>
      </trkpt>
      <trkpt lat="47.247" lon="5.99418">
        <ele>290</ele>
        <time>2026-03-11T10:32:17Z</time>
      </trkpt>
      <trkpt lat="47.24704" lon="5.99397">
        <ele>290</ele>
        <time>2026-03-11T10:32:20Z</time>
      </trkpt>
      <trkpt lat="47.24708" lon="5.9938">
        <ele>290</ele>
        <time>2026-03-11T10:32:22Z</time>
      </trkpt>
      <trkpt lat="47.24714" lon="5.99348">
        <ele>291</ele>
        <time>2026-03-11T10:32:26Z</time>
      </trkpt>
      <trkpt lat="47.24717" lon="5.9934">
        <ele>291</ele>
        <time>2026-03-11T10:32:27Z</time>
      </trkpt>
      <trkpt lat="47.2472" lon="5.99327">
        <ele>291</ele>
        <time>2026-03-11T10:32:29Z</time>
      </trkpt>
      <trkpt lat="47.2472" lon="5.99327">
        <ele>291</ele>
        <time>2026-03-11T10:32:29Z</time>
      </trkpt>
      <trkpt lat="47.24724" lon="5.99311">
        <ele>291</ele>
        <time>2026-03-11T10:32:31Z</time>
      </trkpt>
      <trkpt lat="47.24724" lon="5.99307">
        <ele>291</ele>
        <time>2026-03-11T10:32:31Z</time>
      </trkpt>
      <trkpt lat="47.24734" lon="5.99259">
        <ele>291</ele>
        <time>2026-03-11T10:32:37Z</time>
      </trkpt>
      <trkpt lat="47.24737" lon="5.9925">
        <ele>291</ele>
        <time>2026-03-11T10:32:39Z</time>
      </trkpt>
      <trkpt lat="47.24739" lon="5.99232">
        <ele>292</ele>
        <time>2026-03-11T10:32:41Z</time>
      </trkpt>
      <trkpt lat="47.24752" lon="5.99141">
        <ele>298</ele>
        <time>2026-03-11T10:32:52Z</time>
      </trkpt>
      <trkpt lat="47.24762" lon="5.99068">
        <ele>305</ele>
        <time>2026-03-11T10:33:01Z</time>
      </trkpt>
      <trkpt lat="47.24768" lon="5.99025">
        <ele>307</ele>
        <time>2026-03-11T10:33:06Z</time>
      </trkpt>
      <trkpt lat="47.2477" lon="5.99013">
        <ele>308</ele>
        <time>2026-03-11T10:33:08Z</time>
      </trkpt>
      <trkpt lat="47.24777" lon="5.98964">
        <ele>309</ele>
        <time>2026-03-11T10:33:14Z</time>
      </trkpt>
      <trkpt lat="47.24782" lon="5.9894">
        <ele>309</ele>
        <time>2026-03-11T10:33:17Z</time>
      </trkpt>
      <trkpt lat="47.24791" lon="5.989">
        <ele>308</ele>
        <time>2026-03-11T10:33:22Z</time>
      </trkpt>
      <trkpt lat="47.24796" lon="5.98881">
        <ele>307</ele>
        <time>2026-03-11T10:33:24Z</time>
      </trkpt>
      <trkpt lat="47.24799" lon="5.98864">
        <ele>306</ele>
        <time>2026-03-11T10:33:27Z</time>
      </trkpt>
      <trkpt lat="47.24809" lon="5.98823">
        <ele>304</ele>
        <time>2026-03-11T10:33:32Z</time>
      </trkpt>
      <trkpt lat="47.24818" lon="5.98789">
        <ele>302</ele>
        <time>2026-03-11T10:33:36Z</time>
      </trkpt>
      <trkpt lat="47.24823" lon="5.98763">
        <ele>300</ele>
        <time>2026-03-11T10:33:39Z</time>
      </trkpt>
      <trkpt lat="47.24829" lon="5.98734">
        <ele>299</ele>
        <time>2026-03-11T10:33:43Z</time>
      </trkpt>
      <trkpt lat="47.24837" lon="5.98701">
        <ele>297</ele>
        <time>2026-03-11T10:33:47Z</time>
      </trkpt>
      <trkpt lat="47.24856" lon="5.98618">
        <ele>293</ele>
        <time>2026-03-11T10:33:58Z</time>
      </trkpt>
      <trkpt lat="47.2486" lon="5.98606">
        <ele>292</ele>
        <time>2026-03-11T10:34:00Z</time>
      </trkpt>
      <trkpt lat="47.24879" lon="5.98538">
        <ele>288</ele>
        <time>2026-03-11T10:34:08Z</time>
      </trkpt>
      <trkpt lat="47.24885" lon="5.98516">
        <ele>287</ele>
        <time>2026-03-11T10:34:11Z</time>
      </trkpt>
      <trkpt lat="47.24887" lon="5.98507">
        <ele>286</ele>
        <time>2026-03-11T10:34:12Z</time>
      </trkpt>
      <trkpt lat="47.24891" lon="5.98493">
        <ele>286</ele>
        <time>2026-03-11T10:34:14Z</time>
      </trkpt>
      <trkpt lat="47.24896" lon="5.98481">
        <ele>285</ele>
        <time>2026-03-11T10:34:16Z</time>
      </trkpt>
      <trkpt lat="47.24903" lon="5.9847">
        <ele>285</ele>
        <time>2026-03-11T10:34:18Z</time>
      </trkpt>
      <trkpt lat="47.24908" lon="5.98469">
        <ele>284</ele>
        <time>2026-03-11T10:34:19Z</time>
      </trkpt>
      <trkpt lat="47.24913" lon="5.98465">
        <ele>284</ele>
        <time>2026-03-11T10:34:20Z</time>
      </trkpt>
      <trkpt lat="47.24916" lon="5.9846">
        <ele>284</ele>
        <time>2026-03-11T10:34:21Z</time>
      </trkpt>
      <trkpt lat="47.24918" lon="5.98453">
        <ele>284</ele>
        <time>2026-03-11T10:34:21Z</time>
      </trkpt>
      <trkpt lat="47.24919" lon="5.98447">
        <ele>284</ele>
        <time>2026-03-11T10:34:22Z</time>
      </trkpt>
      <trkpt lat="47.24918" lon="5.98442">
        <ele>284</ele>
        <time>2026-03-11T10:34:23Z</time>
      </trkpt>
      <trkpt lat="47.24916" lon="5.98433">
        <ele>283</ele>
        <time>2026-03-11T10:34:24Z</time>
      </trkpt>
      <trkpt lat="47.24914" lon="5.98408">
        <ele>283</ele>
        <time>2026-03-11T10:34:27Z</time>
      </trkpt>
      <trkpt lat="47.24923" lon="5.98371">
        <ele>284</ele>
        <time>2026-03-11T10:34:32Z</time>
      </trkpt>
      <trkpt lat="47.24928" lon="5.98363">
        <ele>285</ele>
        <time>2026-03-11T10:34:33Z</time>
      </trkpt>
      <trkpt lat="47.24937" lon="5.98352">
        <ele>285</ele>
        <time>2026-03-11T10:34:35Z</time>
      </trkpt>
      <trkpt lat="47.2494" lon="5.98352">
        <ele>285</ele>
        <time>2026-03-11T10:34:36Z</time>
      </trkpt>
      <trkpt lat="47.24945" lon="5.98348">
        <ele>286</ele>
        <time>2026-03-11T10:34:37Z</time>
      </trkpt>
      <trkpt lat="47.24949" lon="5.98343">
        <ele>286</ele>
        <time>2026-03-11T10:34:38Z</time>
      </trkpt>
      <trkpt lat="47.24951" lon="5.98336">
        <ele>287</ele>
        <time>2026-03-11T10:34:39Z</time>
      </trkpt>
      <trkpt lat="47.24952" lon="5.98328">
        <ele>287</ele>
        <time>2026-03-11T10:34:40Z</time>
      </trkpt>
      <trkpt lat="47.24951" lon="5.98325">
        <ele>287</ele>
        <time>2026-03-11T10:34:40Z</time>
      </trkpt>
      <trkpt lat="47.2495" lon="5.98318">
        <ele>288</ele>
        <time>2026-03-11T10:34:41Z</time>
      </trkpt>
      <trkpt lat="47.24947" lon="5.98312">
        <ele>289</ele>
        <time>2026-03-11T10:34:42Z</time>
      </trkpt>
      <trkpt lat="47.24946" lon="5.98304">
        <ele>289</ele>
        <time>2026-03-11T10:34:43Z</time>
      </trkpt>
      <trkpt lat="47.24946" lon="5.98296">
        <ele>290</ele>
        <time>2026-03-11T10:34:44Z</time>
      </trkpt>
      <trkpt lat="47.2495" lon="5.9827">
        <ele>293</ele>
        <time>2026-03-11T10:34:47Z</time>
      </trkpt>
      <trkpt lat="47.24958" lon="5.98238">
        <ele>296</ele>
        <time>2026-03-11T10:34:51Z</time>
      </trkpt>
      <trkpt lat="47.24961" lon="5.98224">
        <ele>298</ele>
        <time>2026-03-11T10:34:53Z</time>
      </trkpt>
      <trkpt lat="47.24965" lon="5.98196">
        <ele>300</ele>
        <time>2026-03-11T10:34:56Z</time>
      </trkpt>
      <trkpt lat="47.24966" lon="5.98176">
        <ele>302</ele>
        <time>2026-03-11T10:34:59Z</time>
      </trkpt>
      <trkpt lat="47.24966" lon="5.98131">
        <ele>307</ele>
        <time>2026-03-11T10:35:04Z</time>
      </trkpt>
      <trkpt lat="47.24957" lon="5.98074">
        <ele>312</ele>
        <time>2026-03-11T10:35:11Z</time>
      </trkpt>
      <trkpt lat="47.24955" lon="5.98056">
        <ele>312</ele>
        <time>2026-03-11T10:35:13Z</time>
      </trkpt>
      <trkpt lat="47.24954" lon="5.98027">
        <ele>314</ele>
        <time>2026-03-11T10:35:17Z</time>
      </trkpt>
      <trkpt lat="47.24954" lon="5.97995">
        <ele>315</ele>
        <time>2026-03-11T10:35:21Z</time>
      </trkpt>
      <trkpt lat="47.24961" lon="5.97923">
        <ele>315</ele>
        <time>2026-03-11T10:35:30Z</time>
      </trkpt>
      <trkpt lat="47.2497" lon="5.97834">
        <ele>313</ele>
        <time>2026-03-11T10:35:40Z</time>
      </trkpt>
      <trkpt lat="47.24975" lon="5.97792">
        <ele>313</ele>
        <time>2026-03-11T10:35:46Z</time>
      </trkpt>
      <trkpt lat="47.24979" lon="5.97768">
        <ele>313</ele>
        <time>2026-03-11T10:35:49Z</time>
      </trkpt>
      <trkpt lat="47.24985" lon="5.97744">
        <ele>313</ele>
        <time>2026-03-11T10:35:52Z</time>
      </trkpt>
      <trkpt lat="47.25" lon="5.97695">
        <ele>314</ele>
        <time>2026-03-11T10:35:58Z</time>
      </trkpt>
      <trkpt lat="47.25016" lon="5.97646">
        <ele>315</ele>
        <time>2026-03-11T10:36:05Z</time>
      </trkpt>
      <trkpt lat="47.25021" lon="5.97632">
        <ele>316</ele>
        <time>2026-03-11T10:36:07Z</time>
      </trkpt>
      <trkpt lat="47.25026" lon="5.97616">
        <ele>316</ele>
        <time>2026-03-11T10:36:09Z</time>
      </trkpt>
      <trkpt lat="47.25045" lon="5.97563">
        <ele>315</ele>
        <time>2026-03-11T10:36:16Z</time>
      </trkpt>
      <trkpt lat="47.25075" lon="5.97511">
        <ele>314</ele>
        <time>2026-03-11T10:36:24Z</time>
      </trkpt>
      <trkpt lat="47.25085" lon="5.97489">
        <ele>313</ele>
        <time>2026-03-11T10:36:27Z</time>
      </trkpt>
      <trkpt lat="47.25108" lon="5.97428">
        <ele>312</ele>
        <time>2026-03-11T10:36:36Z</time>
      </trkpt>
      <trkpt lat="47.25124" lon="5.97378">
        <ele>312</ele>
        <time>2026-03-11T10:36:42Z</time>
      </trkpt>
      <trkpt lat="47.25194" lon="5.97152">
        <ele>300</ele>
        <time>2026-03-11T10:37:12Z</time>
      </trkpt>
      <trkpt lat="47.25211" lon="5.97093">
        <ele>296</ele>
        <time>2026-03-11T10:37:20Z</time>
      </trkpt>
      <trkpt lat="47.25215" lon="5.97081">
        <ele>296</ele>
        <time>2026-03-11T10:37:22Z</time>
      </trkpt>
      <trkpt lat="47.25237" lon="5.97006">
        <ele>290</ele>
        <time>2026-03-11T10:37:32Z</time>
      </trkpt>
      <trkpt lat="47.25274" lon="5.96877">
        <ele>284</ele>
        <time>2026-03-11T10:37:49Z</time>
      </trkpt>
      <trkpt lat="47.25299" lon="5.96781">
        <ele>281</ele>
        <time>2026-03-11T10:38:01Z</time>
      </trkpt>
      <trkpt lat="47.25304" lon="5.96758">
        <ele>280</ele>
        <time>2026-03-11T10:38:04Z</time>
      </trkpt>
      <trkpt lat="47.25305" lon="5.96735">
        <ele>279</ele>
        <time>2026-03-11T10:38:07Z</time>
      </trkpt>
      <trkpt lat="47.253" lon="5.96633">
        <ele>277</ele>
        <time>2026-03-11T10:38:19Z</time>
      </trkpt>
      <trkpt lat="47.25295" lon="5.96566">
        <ele>278</ele>
        <time>2026-03-11T10:38:27Z</time>
      </trkpt>
      <trkpt lat="47.25289" lon="5.96505">
        <ele>281</ele>
        <time>2026-03-11T10:38:35Z</time>
      </trkpt>
      <trkpt lat="47.25277" lon="5.96394">
        <ele>284</ele>
        <time>2026-03-11T10:38:48Z</time>
      </trkpt>
      <trkpt lat="47.25271" lon="5.96364">
        <ele>284</ele>
        <time>2026-03-11T10:38:52Z</time>
      </trkpt>
      <trkpt lat="47.25264" lon="5.9636">
        <ele>284</ele>
        <time>2026-03-11T10:38:53Z</time>
      </trkpt>
      <trkpt lat="47.25257" lon="5.96357">
        <ele>284</ele>
        <time>2026-03-11T10:38:55Z</time>
      </trkpt>
      <trkpt lat="47.25248" lon="5.96357">
        <ele>284</ele>
        <time>2026-03-11T10:38:56Z</time>
      </trkpt>
      <trkpt lat="47.25239" lon="5.96355">
        <ele>284</ele>
        <time>2026-03-11T10:38:58Z</time>
      </trkpt>
      <trkpt lat="47.25235" lon="5.96351">
        <ele>284</ele>
        <time>2026-03-11T10:38:59Z</time>
      </trkpt>
      <trkpt lat="47.25231" lon="5.96346">
        <ele>284</ele>
        <time>2026-03-11T10:39:00Z</time>
      </trkpt>
      <trkpt lat="47.25229" lon="5.96335">
        <ele>284</ele>
        <time>2026-03-11T10:39:01Z</time>
      </trkpt>
      <trkpt lat="47.25233" lon="5.96302">
        <ele>285</ele>
        <time>2026-03-11T10:39:05Z</time>
      </trkpt>
      <trkpt lat="47.25235" lon="5.96282">
        <ele>285</ele>
        <time>2026-03-11T10:39:08Z</time>
      </trkpt>
      <trkpt lat="47.25236" lon="5.96246">
        <ele>286</ele>
        <time>2026-03-11T10:39:12Z</time>
      </trkpt>
      <trkpt lat="47.25236" lon="5.96202">
        <ele>288</ele>
        <time>2026-03-11T10:39:17Z</time>
      </trkpt>
      <trkpt lat="47.25234" lon="5.96154">
        <ele>290</ele>
        <time>2026-03-11T10:39:23Z</time>
      </trkpt>
      <trkpt lat="47.25234" lon="5.96126">
        <ele>291</ele>
        <time>2026-03-11T10:39:26Z</time>
      </trkpt>
      <trkpt lat="47.25237" lon="5.96098">
        <ele>291</ele>
        <time>2026-03-11T10:39:30Z</time>
      </trkpt>
      <trkpt lat="47.25241" lon="5.96078">
        <ele>291</ele>
        <time>2026-03-11T10:39:32Z</time>
      </trkpt>
      <trkpt lat="47.2525" lon="5.96056">
        <ele>292</ele>
        <time>2026-03-11T10:39:35Z</time>
      </trkpt>
      <trkpt lat="47.25255" lon="5.9605">
        <ele>292</ele>
        <time>2026-03-11T10:39:37Z</time>
      </trkpt>
      <trkpt lat="47.25266" lon="5.96054">
        <ele>291</ele>
        <time>2026-03-11T10:39:39Z</time>
      </trkpt>
      <trkpt lat="47.25283" lon="5.96053">
        <ele>291</ele>
        <time>2026-03-11T10:39:42Z</time>
      </trkpt>
      <trkpt lat="47.25289" lon="5.96047">
        <ele>291</ele>
        <time>2026-03-11T10:39:43Z</time>
      </trkpt>
      <trkpt lat="47.25302" lon="5.96031">
        <ele>291</ele>
        <time>2026-03-11T10:39:46Z</time>
      </trkpt>
      <trkpt lat="47.25298" lon="5.96015">
        <ele>291</ele>
        <time>2026-03-11T10:39:48Z</time>
      </trkpt>
      <trkpt lat="47.25301" lon="5.96007">
        <ele>291</ele>
        <time>2026-03-11T10:39:49Z</time>
      </trkpt>
      <trkpt lat="47.25303" lon="5.95999">
        <ele>291</ele>
        <time>2026-03-11T10:39:50Z</time>
      </trkpt>
      <trkpt lat="47.25305" lon="5.95988">
        <ele>291</ele>
        <time>2026-03-11T10:39:51Z</time>
      </trkpt>
      <trkpt lat="47.25305" lon="5.95978">
        <ele>291</ele>
        <time>2026-03-11T10:39:53Z</time>
      </trkpt>
      <trkpt lat="47.25303" lon="5.95968">
        <ele>291</ele>
        <time>2026-03-11T10:39:54Z</time>
      </trkpt>
      <trkpt lat="47.25302" lon="5.95962">
        <ele>291</ele>
        <time>2026-03-11T10:39:55Z</time>
      </trkpt>
      <trkpt lat="47.25299" lon="5.95951">
        <ele>291</ele>
        <time>2026-03-11T10:39:56Z</time>
      </trkpt>
      <trkpt lat="47.25296" lon="5.95945">
        <ele>291</ele>
        <time>2026-03-11T10:39:57Z</time>
      </trkpt>
      <trkpt lat="47.25293" lon="5.95941">
        <ele>291</ele>
        <time>2026-03-11T10:39:58Z</time>
      </trkpt>
      <trkpt lat="47.25286" lon="5.95932">
        <ele>290</ele>
        <time>2026-03-11T10:39:59Z</time>
      </trkpt>
      <trkpt lat="47.25285" lon="5.95925">
        <ele>290</ele>
        <time>2026-03-11T10:40:00Z</time>
      </trkpt>
      <trkpt lat="47.25283" lon="5.9591">
        <ele>290</ele>
        <time>2026-03-11T10:40:02Z</time>
      </trkpt>
      <trkpt lat="47.25292" lon="5.95913">
        <ele>291</ele>
        <time>2026-03-11T10:40:04Z</time>
      </trkpt>
      <trkpt lat="47.25296" lon="5.95876">
        <ele>291</ele>
        <time>2026-03-11T10:40:08Z</time>
      </trkpt>
      <trkpt lat="47.25292" lon="5.95866">
        <ele>291</ele>
        <time>2026-03-11T10:40:10Z</time>
      </trkpt>
      <trkpt lat="47.25287" lon="5.95858">
        <ele>291</ele>
        <time>2026-03-11T10:40:11Z</time>
      </trkpt>
      <trkpt lat="47.2529" lon="5.95824">
        <ele>291</ele>
        <time>2026-03-11T10:40:15Z</time>
      </trkpt>
      <trkpt lat="47.2529" lon="5.95804">
        <ele>291</ele>
        <time>2026-03-11T10:40:18Z</time>
      </trkpt>
      <trkpt lat="47.25317" lon="5.95593">
        <ele>293</ele>
        <time>2026-03-11T10:40:43Z</time>
      </trkpt>
      <trkpt lat="47.25329" lon="5.95509">
        <ele>296</ele>
        <time>2026-03-11T10:40:54Z</time>
      </trkpt>
      <trkpt lat="47.2535" lon="5.95389">
        <ele>296</ele>
        <time>2026-03-11T10:41:09Z</time>
      </trkpt>
      <trkpt lat="47.25353" lon="5.95359">
        <ele>296</ele>
        <time>2026-03-11T10:41:12Z</time>
      </trkpt>
      <trkpt lat="47.25354" lon="5.95306">
        <ele>296</ele>
        <time>2026-03-11T10:41:19Z</time>
      </trkpt>
      <trkpt lat="47.25353" lon="5.9526">
        <ele>297</ele>
        <time>2026-03-11T10:41:24Z</time>
      </trkpt>
      <trkpt lat="47.2535" lon="5.95223">
        <ele>298</ele>
        <time>2026-03-11T10:41:29Z</time>
      </trkpt>
      <trkpt lat="47.25348" lon="5.95202">
        <ele>299</ele>
        <time>2026-03-11T10:41:32Z</time>
      </trkpt>
      <trkpt lat="47.25337" lon="5.9511">
        <ele>301</ele>
        <time>2026-03-11T10:41:43Z</time>
      </trkpt>
      <trkpt lat="47.25335" lon="5.95087">
        <ele>301</ele>
        <time>2026-03-11T10:41:46Z</time>
      </trkpt>
      <trkpt lat="47.25337" lon="5.95061">
        <ele>301</ele>
        <time>2026-03-11T10:41:49Z</time>
      </trkpt>
      <trkpt lat="47.25337" lon="5.95047">
        <ele>300</ele>
        <time>2026-03-11T10:41:50Z</time>
      </trkpt>
      <trkpt lat="47.25339" lon="5.95032">
        <ele>300</ele>
        <time>2026-03-11T10:41:52Z</time>
      </trkpt>
      <trkpt lat="47.25342" lon="5.95019">
        <ele>300</ele>
        <time>2026-03-11T10:41:54Z</time>
      </trkpt>
      <trkpt lat="47.25348" lon="5.95">
        <ele>300</ele>
        <time>2026-03-11T10:41:56Z</time>
      </trkpt>
      <trkpt lat="47.25355" lon="5.94981">
        <ele>300</ele>
        <time>2026-03-11T10:41:59Z</time>
      </trkpt>
      <trkpt lat="47.25348" lon="5.94973">
        <ele>300</ele>
        <time>2026-03-11T10:42:01Z</time>
      </trkpt>
      <trkpt lat="47.25345" lon="5.94964">
        <ele>299</ele>
        <time>2026-03-11T10:42:02Z</time>
      </trkpt>
      <trkpt lat="47.25342" lon="5.94948">
        <ele>299</ele>
        <time>2026-03-11T10:42:04Z</time>
      </trkpt>
      <trkpt lat="47.2534" lon="5.94937">
        <ele>299</ele>
        <time>2026-03-11T10:42:05Z</time>
      </trkpt>
      <trkpt lat="47.25339" lon="5.94928">
        <ele>299</ele>
        <time>2026-03-11T10:42:06Z</time>
      </trkpt>
      <trkpt lat="47.2534" lon="5.94908">
        <ele>300</ele>
        <time>2026-03-11T10:42:09Z</time>
      </trkpt>
      <trkpt lat="47.25342" lon="5.94892">
        <ele>300</ele>
        <time>2026-03-11T10:42:11Z</time>
      </trkpt>
      <trkpt lat="47.25344" lon="5.94876">
        <ele>301</ele>
        <time>2026-03-11T10:42:13Z</time>
      </trkpt>
      <trkpt lat="47.25346" lon="5.94858">
        <ele>302</ele>
        <time>2026-03-11T10:42:15Z</time>
      </trkpt>
      <trkpt lat="47.25346" lon="5.94845">
        <ele>302</ele>
        <time>2026-03-11T10:42:16Z</time>
      </trkpt>
      <trkpt lat="47.25345" lon="5.94832">
        <ele>303</ele>
        <time>2026-03-11T10:42:18Z</time>
      </trkpt>
      <trkpt lat="47.25342" lon="5.9482">
        <ele>303</ele>
        <time>2026-03-11T10:42:20Z</time>
      </trkpt>
      <trkpt lat="47.25338" lon="5.94809">
        <ele>303</ele>
        <time>2026-03-11T10:42:21Z</time>
      </trkpt>
      <trkpt lat="47.25333" lon="5.94798">
        <ele>303</ele>
        <time>2026-03-11T10:42:23Z</time>
      </trkpt>
      <trkpt lat="47.25313" lon="5.94766">
        <ele>303</ele>
        <time>2026-03-11T10:42:28Z</time>
      </trkpt>
      <trkpt lat="47.25272" lon="5.94708">
        <ele>300</ele>
        <time>2026-03-11T10:42:38Z</time>
      </trkpt>
      <trkpt lat="47.25027" lon="5.94345">
        <ele>295</ele>
        <time>2026-03-11T10:43:40Z</time>
      </trkpt>
      <trkpt lat="47.25013" lon="5.9432">
        <ele>295</ele>
        <time>2026-03-11T10:43:44Z</time>
      </trkpt>
      <trkpt lat="47.24989" lon="5.9426">
        <ele>297</ele>
        <time>2026-03-11T10:43:52Z</time>
      </trkpt>
      <trkpt lat="47.2496" lon="5.9417">
        <ele>298</ele>
        <time>2026-03-11T10:44:04Z</time>
      </trkpt>
      <trkpt lat="47.2494" lon="5.93984">
        <ele>294</ele>
        <time>2026-03-11T10:44:27Z</time>
      </trkpt>
      <trkpt lat="47.24939" lon="5.93974">
        <ele>294</ele>
        <time>2026-03-11T10:44:28Z</time>
      </trkpt>
      <trkpt lat="47.24938" lon="5.93963">
        <ele>294</ele>
        <time>2026-03-11T10:44:30Z</time>
      </trkpt>
      <trkpt lat="47.24929" lon="5.93908">
        <ele>293</ele>
        <time>2026-03-11T10:44:36Z</time>
      </trkpt>
      <trkpt lat="47.24927" lon="5.93903">
        <ele>294</ele>
        <time>2026-03-11T10:44:37Z</time>
      </trkpt>
      <trkpt lat="47.24899" lon="5.93816">
        <ele>297</ele>
        <time>2026-03-11T10:44:49Z</time>
      </trkpt>
      <trkpt lat="47.24883" lon="5.93736">
        <ele>301</ele>
        <time>2026-03-11T10:44:59Z</time>
      </trkpt>
      <trkpt lat="47.24872" lon="5.93689">
        <ele>303</ele>
        <time>2026-03-11T10:45:05Z</time>
      </trkpt>
      <trkpt lat="47.2486" lon="5.93651">
        <ele>304</ele>
        <time>2026-03-11T10:45:10Z</time>
      </trkpt>
      <trkpt lat="47.24836" lon="5.93601">
        <ele>305</ele>
        <time>2026-03-11T10:45:17Z</time>
      </trkpt>
      <trkpt lat="47.24797" lon="5.93537">
        <ele>305</ele>
        <time>2026-03-11T10:45:28Z</time>
      </trkpt>
      <trkpt lat="47.24769" lon="5.93483">
        <ele>307</ele>
        <time>2026-03-11T10:45:36Z</time>
      </trkpt>
      <trkpt lat="47.24758" lon="5.93453">
        <ele>308</ele>
        <time>2026-03-11T10:45:40Z</time>
      </trkpt>
      <trkpt lat="47.24748" lon="5.93411">
        <ele>310</ele>
        <time>2026-03-11T10:45:45Z</time>
      </trkpt>
      <trkpt lat="47.24728" lon="5.93371">
        <ele>307</ele>
        <time>2026-03-11T10:45:51Z</time>
      </trkpt>
      <trkpt lat="47.24681" lon="5.93313">
        <ele>306</ele>
        <time>2026-03-11T10:46:02Z</time>
      </trkpt>
      <trkpt lat="47.24624" lon="5.93251">
        <ele>306</ele>
        <time>2026-03-11T10:46:15Z</time>
      </trkpt>
      <trkpt lat="47.24597" lon="5.93225">
        <ele>307</ele>
        <time>2026-03-11T10:46:21Z</time>
      </trkpt>
      <trkpt lat="47.24545" lon="5.93171">
        <ele>307</ele>
        <time>2026-03-11T10:46:32Z</time>
      </trkpt>
      <trkpt lat="47.24536" lon="5.93162">
        <ele>307</ele>
        <time>2026-03-11T10:46:34Z</time>
      </trkpt>
      <trkpt lat="47.24505" lon="5.93116">
        <ele>305</ele>
        <time>2026-03-11T10:46:42Z</time>
      </trkpt>
      <trkpt lat="47.24501" lon="5.93107">
        <ele>305</ele>
        <time>2026-03-11T10:46:43Z</time>
      </trkpt>
      <trkpt lat="47.24486" lon="5.9308">
        <ele>303</ele>
        <time>2026-03-11T10:46:47Z</time>
      </trkpt>
      <trkpt lat="47.24481" lon="5.93071">
        <ele>303</ele>
        <time>2026-03-11T10:46:49Z</time>
      </trkpt>
      <trkpt lat="47.24468" lon="5.93036">
        <ele>301</ele>
        <time>2026-03-11T10:46:53Z</time>
      </trkpt>
      <trkpt lat="47.2446" lon="5.9301">
        <ele>301</ele>
        <time>2026-03-11T10:46:57Z</time>
      </trkpt>
      <trkpt lat="47.24456" lon="5.92996">
        <ele>301</ele>
        <time>2026-03-11T10:46:59Z</time>
      </trkpt>
      <trkpt lat="47.24451" lon="5.92981">
        <ele>301</ele>
        <time>2026-03-11T10:47:01Z</time>
      </trkpt>
      <trkpt lat="47.2442" lon="5.92891">
        <ele>305</ele>
        <time>2026-03-11T10:47:13Z</time>
      </trkpt>
      <trkpt lat="47.24382" lon="5.92831">
        <ele>303</ele>
        <time>2026-03-11T10:47:23Z</time>
      </trkpt>
      <trkpt lat="47.2437" lon="5.92816">
        <ele>303</ele>
        <time>2026-03-11T10:47:26Z</time>
      </trkpt>
      <trkpt lat="47.24349" lon="5.92792">
        <ele>304</ele>
        <time>2026-03-11T10:47:30Z</time>
      </trkpt>
      <trkpt lat="47.2433" lon="5.92775">
        <ele>305</ele>
        <time>2026-03-11T10:47:34Z</time>
      </trkpt>
      <trkpt lat="47.24307" lon="5.92755">
        <ele>304</ele>
        <time>2026-03-11T10:47:39Z</time>
      </trkpt>
      <trkpt lat="47.2427" lon="5.92736">
        <ele>304</ele>
        <time>2026-03-11T10:47:46Z</time>
      </trkpt>
      <trkpt lat="47.24253" lon="5.92729">
        <ele>304</ele>
        <time>2026-03-11T10:47:49Z</time>
      </trkpt>
      <trkpt lat="47.24237" lon="5.92723">
        <ele>305</ele>
        <time>2026-03-11T10:47:52Z</time>
      </trkpt>
      <trkpt lat="47.24222" lon="5.92719">
        <ele>305</ele>
        <time>2026-03-11T10:47:55Z</time>
      </trkpt>
      <trkpt lat="47.24194" lon="5.92713">
        <ele>306</ele>
        <time>2026-03-11T10:48:00Z</time>
      </trkpt>
      <trkpt lat="47.24187" lon="5.92713">
        <ele>306</ele>
        <time>2026-03-11T10:48:01Z</time>
      </trkpt>
      <trkpt lat="47.24178" lon="5.92714">
        <ele>306</ele>
        <time>2026-03-11T10:48:03Z</time>
      </trkpt>
      <trkpt lat="47.24156" lon="5.9271">
        <ele>306</ele>
        <time>2026-03-11T10:48:07Z</time>
      </trkpt>
      <trkpt lat="47.24149" lon="5.9271">
        <ele>306</ele>
        <time>2026-03-11T10:48:08Z</time>
      </trkpt>
      <trkpt lat="47.24145" lon="5.92711">
        <ele>306</ele>
        <time>2026-03-11T10:48:09Z</time>
      </trkpt>
      <trkpt lat="47.24139" lon="5.92716">
        <ele>306</ele>
        <time>2026-03-11T10:48:10Z</time>
      </trkpt>
      <trkpt lat="47.24134" lon="5.92726">
        <ele>305</ele>
        <time>2026-03-11T10:48:11Z</time>
      </trkpt>
      <trkpt lat="47.24113" lon="5.92717">
        <ele>305</ele>
        <time>2026-03-11T10:48:15Z</time>
      </trkpt>
      <trkpt lat="47.24102" lon="5.92712">
        <ele>305</ele>
        <time>2026-03-11T10:48:17Z</time>
      </trkpt>
      <trkpt lat="47.24099" lon="5.9271">
        <ele>305</ele>
        <time>2026-03-11T10:48:18Z</time>
      </trkpt>
      <trkpt lat="47.24015" lon="5.92683">
        <ele>304</ele>
        <time>2026-03-11T10:48:33Z</time>
      </trkpt>
      <trkpt lat="47.23984" lon="5.92677">
        <ele>303</ele>
        <time>2026-03-11T10:48:39Z</time>
      </trkpt>
      <trkpt lat="47.23979" lon="5.92675">
        <ele>303</ele>
        <time>2026-03-11T10:48:40Z</time>
      </trkpt>
      <trkpt lat="47.23884" lon="5.92648">
        <ele>304</ele>
        <time>2026-03-11T10:48:57Z</time>
      </trkpt>
      <trkpt lat="47.23852" lon="5.92639">
        <ele>305</ele>
        <time>2026-03-11T10:49:03Z</time>
      </trkpt>
      <trkpt lat="47.2383" lon="5.92633">
        <ele>306</ele>
        <time>2026-03-11T10:49:07Z</time>
      </trkpt>
      <trkpt lat="47.23814" lon="5.92628">
        <ele>306</ele>
        <time>2026-03-11T10:49:10Z</time>
      </trkpt>
      <trkpt lat="47.2378" lon="5.92619">
        <ele>305</ele>
        <time>2026-03-11T10:49:16Z</time>
      </trkpt>
      <trkpt lat="47.23733" lon="5.92606">
        <ele>304</ele>
        <time>2026-03-11T10:49:24Z</time>
      </trkpt>
      <trkpt lat="47.23708" lon="5.92598">
        <ele>304</ele>
        <time>2026-03-11T10:49:29Z</time>
      </trkpt>
      <trkpt lat="47.23687" lon="5.92586">
        <ele>305</ele>
        <time>2026-03-11T10:49:33Z</time>
      </trkpt>
      <trkpt lat="47.23683" lon="5.92582">
        <ele>305</ele>
        <time>2026-03-11T10:49:34Z</time>
      </trkpt>
      <trkpt lat="47.23668" lon="5.92569">
        <ele>305</ele>
        <time>2026-03-11T10:49:37Z</time>
      </trkpt>
      <trkpt lat="47.23651" lon="5.92553">
        <ele>305</ele>
        <time>2026-03-11T10:49:40Z</time>
      </trkpt>
      <trkpt lat="47.23609" lon="5.92516">
        <ele>305</ele>
        <time>2026-03-11T10:49:49Z</time>
      </trkpt>
      <trkpt lat="47.23588" lon="5.92497">
        <ele>306</ele>
        <time>2026-03-11T10:49:53Z</time>
      </trkpt>
      <trkpt lat="47.23553" lon="5.9247">
        <ele>305</ele>
        <time>2026-03-11T10:50:00Z</time>
      </trkpt>
      <trkpt lat="47.23543" lon="5.92468">
        <ele>305</ele>
        <time>2026-03-11T10:50:02Z</time>
      </trkpt>
      <trkpt lat="47.23497" lon="5.92461">
        <ele>305</ele>
        <time>2026-03-11T10:50:10Z</time>
      </trkpt>
      <trkpt lat="47.23445" lon="5.92432">
        <ele>303</ele>
        <time>2026-03-11T10:50:20Z</time>
      </trkpt>
      <trkpt lat="47.23436" lon="5.92429">
        <ele>302</ele>
        <time>2026-03-11T10:50:22Z</time>
      </trkpt>
      <trkpt lat="47.23399" lon="5.92412">
        <ele>300</ele>
        <time>2026-03-11T10:50:29Z</time>
      </trkpt>
      <trkpt lat="47.23381" lon="5.92403">
        <ele>298</ele>
        <time>2026-03-11T10:50:32Z</time>
      </trkpt>
      <trkpt lat="47.23373" lon="5.92399">
        <ele>298</ele>
        <time>2026-03-11T10:50:34Z</time>
      </trkpt>
      <trkpt lat="47.23359" lon="5.92393">
        <ele>297</ele>
        <time>2026-03-11T10:50:36Z</time>
      </trkpt>
      <trkpt lat="47.23338" lon="5.92384">
        <ele>296</ele>
        <time>2026-03-11T10:50:40Z</time>
      </trkpt>
      <trkpt lat="47.23299" lon="5.92362">
        <ele>294</ele>
        <time>2026-03-11T10:50:48Z</time>
      </trkpt>
      <trkpt lat="47.23237" lon="5.92321">
        <ele>293</ele>
        <time>2026-03-11T10:51:00Z</time>
      </trkpt>
      <trkpt lat="47.23219" lon="5.92307">
        <ele>293</ele>
        <time>2026-03-11T10:51:03Z</time>
      </trkpt>
      <trkpt lat="47.23207" lon="5.92295">
        <ele>292</ele>
        <time>2026-03-11T10:51:06Z</time>
      </trkpt>
      <trkpt lat="47.232" lon="5.92278">
        <ele>292</ele>
        <time>2026-03-11T10:51:08Z</time>
      </trkpt>
      <trkpt lat="47.23179" lon="5.92255">
        <ele>291</ele>
        <time>2026-03-11T10:51:13Z</time>
      </trkpt>
      <trkpt lat="47.23143" lon="5.92225">
        <ele>290</ele>
        <time>2026-03-11T10:51:20Z</time>
      </trkpt>
      <trkpt lat="47.23089" lon="5.92194">
        <ele>288</ele>
        <time>2026-03-11T10:51:31Z</time>
      </trkpt>
      <trkpt lat="47.23027" lon="5.92159">
        <ele>283</ele>
        <time>2026-03-11T10:51:43Z</time>
      </trkpt>
      <trkpt lat="47.22988" lon="5.92138">
        <ele>280</ele>
        <time>2026-03-11T10:51:50Z</time>
      </trkpt>
      <trkpt lat="47.22979" lon="5.92129">
        <ele>279</ele>
        <time>2026-03-11T10:51:52Z</time>
      </trkpt>
      <trkpt lat="47.22972" lon="5.92119">
        <ele>278</ele>
        <time>2026-03-11T10:51:54Z</time>
      </trkpt>
      <trkpt lat="47.22962" lon="5.92088">
        <ele>276</ele>
        <time>2026-03-11T10:51:58Z</time>
      </trkpt>
      <trkpt lat="47.22956" lon="5.92075">
        <ele>275</ele>
        <time>2026-03-11T10:52:00Z</time>
      </trkpt>
      <trkpt lat="47.22949" lon="5.92067">
        <ele>275</ele>
        <time>2026-03-11T10:52:01Z</time>
      </trkpt>
      <trkpt lat="47.22943" lon="5.92067">
        <ele>275</ele>
        <time>2026-03-11T10:52:02Z</time>
      </trkpt>
      <trkpt lat="47.22941" lon="5.92031">
        <ele>272</ele>
        <time>2026-03-11T10:52:07Z</time>
      </trkpt>
      <trkpt lat="47.22938" lon="5.92015">
        <ele>271</ele>
        <time>2026-03-11T10:52:09Z</time>
      </trkpt>
      <trkpt lat="47.22933" lon="5.92">
        <ele>270</ele>
        <time>2026-03-11T10:52:11Z</time>
      </trkpt>
      <trkpt lat="47.22923" lon="5.91972">
        <ele>270</ele>
        <time>2026-03-11T10:52:15Z</time>
      </trkpt>
      <trkpt lat="47.22916" lon="5.9196">
        <ele>270</ele>
        <time>2026-03-11T10:52:16Z</time>
      </trkpt>
      <trkpt lat="47.22887" lon="5.91918">
        <ele>270</ele>
        <time>2026-03-11T10:52:24Z</time>
      </trkpt>
      <trkpt lat="47.22869" lon="5.91893">
        <ele>270</ele>
        <time>2026-03-11T10:52:28Z</time>
      </trkpt>
      <trkpt lat="47.22843" lon="5.91856">
        <ele>271</ele>
        <time>2026-03-11T10:52:35Z</time>
      </trkpt>
      <trkpt lat="47.22776" lon="5.91766">
        <ele>264</ele>
        <time>2026-03-11T10:52:51Z</time>
      </trkpt>
      <trkpt lat="47.22761" lon="5.9174">
        <ele>262</ele>
        <time>2026-03-11T10:52:55Z</time>
      </trkpt>
      <trkpt lat="47.22745" lon="5.91706">
        <ele>262</ele>
        <time>2026-03-11T10:53:00Z</time>
      </trkpt>
      <trkpt lat="47.2274" lon="5.91697">
        <ele>262</ele>
        <time>2026-03-11T10:53:01Z</time>
      </trkpt>
      <trkpt lat="47.22729" lon="5.91674">
        <ele>262</ele>
        <time>2026-03-11T10:53:05Z</time>
      </trkpt>
      <trkpt lat="47.22677" lon="5.91566">
        <ele>268</ele>
        <time>2026-03-11T10:53:21Z</time>
      </trkpt>
      <trkpt lat="47.22668" lon="5.91539">
        <ele>269</ele>
        <time>2026-03-11T10:53:24Z</time>
      </trkpt>
      <trkpt lat="47.2266" lon="5.91509">
        <ele>269</ele>
        <time>2026-03-11T10:53:28Z</time>
      </trkpt>
      <trkpt lat="47.22657" lon="5.91493">
        <ele>269</ele>
        <time>2026-03-11T10:53:30Z</time>
      </trkpt>
      <trkpt lat="47.22652" lon="5.91451">
        <ele>268</ele>
        <time>2026-03-11T10:53:35Z</time>
      </trkpt>
      <trkpt lat="47.22629" lon="5.91261">
        <ele>269</ele>
        <time>2026-03-11T10:53:59Z</time>
      </trkpt>
      <trkpt lat="47.22617" lon="5.9127">
        <ele>268</ele>
        <time>2026-03-11T10:54:01Z</time>
      </trkpt>
      <trkpt lat="47.22616" lon="5.91265">
        <ele>268</ele>
        <time>2026-03-11T10:54:02Z</time>
      </trkpt>
      <trkpt lat="47.22616" lon="5.91261">
        <ele>269</ele>
        <time>2026-03-11T10:54:02Z</time>
      </trkpt>
      <trkpt lat="47.22619" lon="5.91252">
        <ele>269</ele>
        <time>2026-03-11T10:54:03Z</time>
      </trkpt>
      <trkpt lat="47.22616" lon="5.91227">
        <ele>269</ele>
        <time>2026-03-11T10:54:06Z</time>
      </trkpt>
      <trkpt lat="47.22604" lon="5.9112">
        <ele>270</ele>
        <time>2026-03-11T10:54:19Z</time>
      </trkpt>
      <trkpt lat="47.22602" lon="5.91116">
        <ele>270</ele>
        <time>2026-03-11T10:54:20Z</time>
      </trkpt>
      <trkpt lat="47.22602" lon="5.91116">
        <ele>270</ele>
        <time>2026-03-11T10:54:20Z</time>
      </trkpt>
      <trkpt lat="47.22601" lon="5.9111">
        <ele>270</ele>
        <time>2026-03-11T10:54:21Z</time>
      </trkpt>
      <trkpt lat="47.226" lon="5.91105">
        <ele>270</ele>
        <time>2026-03-11T10:54:21Z</time>
      </trkpt>
      <trkpt lat="47.226" lon="5.91105">
        <ele>270</ele>
        <time>2026-03-11T10:54:21Z</time>
      </trkpt>
      <trkpt lat="47.22594" lon="5.91054">
        <ele>270</ele>
        <time>2026-03-11T10:54:28Z</time>
      </trkpt>
      <trkpt lat="47.22588" lon="5.90979">
        <ele>270</ele>
        <time>2026-03-11T10:54:37Z</time>
      </trkpt>
      <trkpt lat="47.22583" lon="5.90932">
        <ele>271</ele>
        <time>2026-03-11T10:54:43Z</time>
      </trkpt>
      <trkpt lat="47.22581" lon="5.90914">
        <ele>271</ele>
        <time>2026-03-11T10:54:45Z</time>
      </trkpt>
      <trkpt lat="47.22578" lon="5.90908">
        <ele>271</ele>
        <time>2026-03-11T10:54:46Z</time>
      </trkpt>
      <trkpt lat="47.22578" lon="5.90889">
        <ele>272</ele>
        <time>2026-03-11T10:54:48Z</time>
      </trkpt>
      <trkpt lat="47.22577" lon="5.90878">
        <ele>272</ele>
        <time>2026-03-11T10:54:49Z</time>
      </trkpt>
      <trkpt lat="47.22579" lon="5.90874">
        <ele>272</ele>
        <time>2026-03-11T10:54:50Z</time>
      </trkpt>
      <trkpt lat="47.2258" lon="5.90787">
        <ele>274</ele>
        <time>2026-03-11T10:55:00Z</time>
      </trkpt>
      <trkpt lat="47.22588" lon="5.90582">
        <ele>276</ele>
        <time>2026-03-11T10:55:25Z</time>
      </trkpt>
      <trkpt lat="47.22606" lon="5.90281">
        <ele>278</ele>
        <time>2026-03-11T10:56:02Z</time>
      </trkpt>
      <trkpt lat="47.2261" lon="5.90282">
        <ele>279</ele>
        <time>2026-03-11T10:56:02Z</time>
      </trkpt>
      <trkpt lat="47.2261" lon="5.90273">
        <ele>279</ele>
        <time>2026-03-11T10:56:04Z</time>
      </trkpt>
      <trkpt lat="47.22616" lon="5.90177">
        <ele>277</ele>
        <time>2026-03-11T10:56:15Z</time>
      </trkpt>
      <trkpt lat="47.22617" lon="5.90159">
        <ele>276</ele>
        <time>2026-03-11T10:56:17Z</time>
      </trkpt>
      <trkpt lat="47.22622" lon="5.90077">
        <ele>273</ele>
        <time>2026-03-11T10:56:27Z</time>
      </trkpt>
      <trkpt lat="47.22626" lon="5.90031">
        <ele>274</ele>
        <time>2026-03-11T10:56:33Z</time>
      </trkpt>
      <trkpt lat="47.2263" lon="5.90029">
        <ele>274</ele>
        <time>2026-03-11T10:56:34Z</time>
      </trkpt>
      <trkpt lat="47.22633" lon="5.90025">
        <ele>274</ele>
        <time>2026-03-11T10:56:34Z</time>
      </trkpt>
      <trkpt lat="47.22635" lon="5.90021">
        <ele>274</ele>
        <time>2026-03-11T10:56:35Z</time>
      </trkpt>
      <trkpt lat="47.22635" lon="5.90017">
        <ele>274</ele>
        <time>2026-03-11T10:56:35Z</time>
      </trkpt>
      <trkpt lat="47.22633" lon="5.9001">
        <ele>274</ele>
        <time>2026-03-11T10:56:36Z</time>
      </trkpt>
      <trkpt lat="47.22629" lon="5.90007">
        <ele>274</ele>
        <time>2026-03-11T10:56:37Z</time>
      </trkpt>
      <trkpt lat="47.22626" lon="5.90006">
        <ele>274</ele>
        <time>2026-03-11T10:56:38Z</time>
      </trkpt>
      <trkpt lat="47.2263" lon="5.89947">
        <ele>275</ele>
        <time>2026-03-11T10:56:45Z</time>
      </trkpt>
      <trkpt lat="47.22642" lon="5.89712">
        <ele>278</ele>
        <time>2026-03-11T10:57:13Z</time>
      </trkpt>
      <trkpt lat="47.22646" lon="5.89664">
        <ele>280</ele>
        <time>2026-03-11T10:57:19Z</time>
      </trkpt>
      <trkpt lat="47.22651" lon="5.89581">
        <ele>284</ele>
        <time>2026-03-11T10:57:29Z</time>
      </trkpt>
      <trkpt lat="47.22657" lon="5.89516">
        <ele>286</ele>
        <time>2026-03-11T10:57:37Z</time>
      </trkpt>
      <trkpt lat="47.22661" lon="5.89498">
        <ele>286</ele>
        <time>2026-03-11T10:57:40Z</time>
      </trkpt>
      <trkpt lat="47.2267" lon="5.89458">
        <ele>286</ele>
        <time>2026-03-11T10:57:45Z</time>
      </trkpt>
      <trkpt lat="47.22683" lon="5.89404">
        <ele>287</ele>
        <time>2026-03-11T10:57:52Z</time>
      </trkpt>
      <trkpt lat="47.22694" lon="5.89362">
        <ele>286</ele>
        <time>2026-03-11T10:57:57Z</time>
      </trkpt>
      <trkpt lat="47.22696" lon="5.89349">
        <ele>286</ele>
        <time>2026-03-11T10:57:59Z</time>
      </trkpt>
      <trkpt lat="47.22697" lon="5.89328">
        <ele>285</ele>
        <time>2026-03-11T10:58:01Z</time>
      </trkpt>
      <trkpt lat="47.22695" lon="5.89304">
        <ele>285</ele>
        <time>2026-03-11T10:58:04Z</time>
      </trkpt>
      <trkpt lat="47.22691" lon="5.89284">
        <ele>285</ele>
        <time>2026-03-11T10:58:07Z</time>
      </trkpt>
      <trkpt lat="47.22638" lon="5.89064">
        <ele>279</ele>
        <time>2026-03-11T10:58:35Z</time>
      </trkpt>
      <trkpt lat="47.22632" lon="5.89036">
        <ele>279</ele>
        <time>2026-03-11T10:58:38Z</time>
      </trkpt>
      <trkpt lat="47.22626" lon="5.89002">
        <ele>279</ele>
        <time>2026-03-11T10:58:43Z</time>
      </trkpt>
      <trkpt lat="47.22622" lon="5.88967">
        <ele>280</ele>
        <time>2026-03-11T10:58:47Z</time>
      </trkpt>
      <trkpt lat="47.22616" lon="5.88913">
        <ele>280</ele>
        <time>2026-03-11T10:58:53Z</time>
      </trkpt>
      <trkpt lat="47.22618" lon="5.88897">
        <ele>279</ele>
        <time>2026-03-11T10:58:55Z</time>
      </trkpt>
      <trkpt lat="47.2262" lon="5.88881">
        <ele>279</ele>
        <time>2026-03-11T10:58:57Z</time>
      </trkpt>
      <trkpt lat="47.22624" lon="5.88875">
        <ele>279</ele>
        <time>2026-03-11T10:58:58Z</time>
      </trkpt>
      <trkpt lat="47.22626" lon="5.88871">
        <ele>278</ele>
        <time>2026-03-11T10:58:59Z</time>
      </trkpt>
      <trkpt lat="47.22627" lon="5.8886">
        <ele>278</ele>
        <time>2026-03-11T10:59:00Z</time>
      </trkpt>
      <trkpt lat="47.22626" lon="5.88855">
        <ele>278</ele>
        <time>2026-03-11T10:59:01Z</time>
      </trkpt>
      <trkpt lat="47.22624" lon="5.8885">
        <ele>278</ele>
        <time>2026-03-11T10:59:02Z</time>
      </trkpt>
      <trkpt lat="47.22619" lon="5.88844">
        <ele>278</ele>
        <time>2026-03-11T10:59:03Z</time>
      </trkpt>
      <trkpt lat="47.22616" lon="5.88842">
        <ele>278</ele>
        <time>2026-03-11T10:59:03Z</time>
      </trkpt>
      <trkpt lat="47.22606" lon="5.88817">
        <ele>278</ele>
        <time>2026-03-11T10:59:07Z</time>
      </trkpt>
      <trkpt lat="47.22603" lon="5.88786">
        <ele>276</ele>
        <time>2026-03-11T10:59:11Z</time>
      </trkpt>
      <trkpt lat="47.226" lon="5.88765">
        <ele>275</ele>
        <time>2026-03-11T10:59:13Z</time>
      </trkpt>
      <trkpt lat="47.22596" lon="5.88747">
        <ele>274</ele>
        <time>2026-03-11T10:59:16Z</time>
      </trkpt>
      <trkpt lat="47.22589" lon="5.88714">
        <ele>274</ele>
        <time>2026-03-11T10:59:20Z</time>
      </trkpt>
      <trkpt lat="47.22583" lon="5.88697">
        <ele>274</ele>
        <time>2026-03-11T10:59:22Z</time>
      </trkpt>
      <trkpt lat="47.22578" lon="5.88682">
        <ele>274</ele>
        <time>2026-03-11T10:59:24Z</time>
      </trkpt>
      <trkpt lat="47.22548" lon="5.88616">
        <ele>273</ele>
        <time>2026-03-11T10:59:34Z</time>
      </trkpt>
      <trkpt lat="47.22518" lon="5.88554">
        <ele>270</ele>
        <time>2026-03-11T10:59:43Z</time>
      </trkpt>
      <trkpt lat="47.22492" lon="5.88501">
        <ele>268</ele>
        <time>2026-03-11T10:59:51Z</time>
      </trkpt>
      <trkpt lat="47.22468" lon="5.88458">
        <ele>266</ele>
        <time>2026-03-11T10:59:58Z</time>
      </trkpt>
      <trkpt lat="47.22457" lon="5.88438">
        <ele>265</ele>
        <time>2026-03-11T11:00:01Z</time>
      </trkpt>
      <trkpt lat="47.22445" lon="5.88421">
        <ele>264</ele>
        <time>2026-03-11T11:00:04Z</time>
      </trkpt>
      <trkpt lat="47.22425" lon="5.88396">
        <ele>263</ele>
        <time>2026-03-11T11:00:08Z</time>
      </trkpt>
      <trkpt lat="47.22398" lon="5.88369">
        <ele>262</ele>
        <time>2026-03-11T11:00:14Z</time>
      </trkpt>
      <trkpt lat="47.22315" lon="5.88299">
        <ele>260</ele>
        <time>2026-03-11T11:00:31Z</time>
      </trkpt>
      <trkpt lat="47.22292" lon="5.88275">
        <ele>260</ele>
        <time>2026-03-11T11:00:36Z</time>
      </trkpt>
      <trkpt lat="47.2227" lon="5.88249">
        <ele>258</ele>
        <time>2026-03-11T11:00:41Z</time>
      </trkpt>
      <trkpt lat="47.22252" lon="5.88223">
        <ele>258</ele>
        <time>2026-03-11T11:00:46Z</time>
      </trkpt>
      <trkpt lat="47.22239" lon="5.88198">
        <ele>257</ele>
        <time>2026-03-11T11:00:49Z</time>
      </trkpt>
      <trkpt lat="47.22226" lon="5.88169">
        <ele>256</ele>
        <time>2026-03-11T11:00:54Z</time>
      </trkpt>
      <trkpt lat="47.22219" lon="5.88153">
        <ele>256</ele>
        <time>2026-03-11T11:00:56Z</time>
      </trkpt>
      <trkpt lat="47.22212" lon="5.88131">
        <ele>255</ele>
        <time>2026-03-11T11:00:59Z</time>
      </trkpt>
      <trkpt lat="47.22202" lon="5.88093">
        <ele>254</ele>
        <time>2026-03-11T11:01:04Z</time>
      </trkpt>
      <trkpt lat="47.22198" lon="5.88076">
        <ele>253</ele>
        <time>2026-03-11T11:01:06Z</time>
      </trkpt>
      <trkpt lat="47.22193" lon="5.88043">
        <ele>253</ele>
        <time>2026-03-11T11:01:10Z</time>
      </trkpt>
      <trkpt lat="47.22191" lon="5.88027">
        <ele>253</ele>
        <time>2026-03-11T11:01:12Z</time>
      </trkpt>
      <trkpt lat="47.22189" lon="5.87995">
        <ele>252</ele>
        <time>2026-03-11T11:01:16Z</time>
      </trkpt>
      <trkpt lat="47.22189" lon="5.87955">
        <ele>251</ele>
        <time>2026-03-11T11:01:21Z</time>
      </trkpt>
      <trkpt lat="47.22191" lon="5.87921">
        <ele>250</ele>
        <time>2026-03-11T11:01:25Z</time>
      </trkpt>
      <trkpt lat="47.22193" lon="5.87891">
        <ele>250</ele>
        <time>2026-03-11T11:01:28Z</time>
      </trkpt>
      <trkpt lat="47.22201" lon="5.87842">
        <ele>251</ele>
        <time>2026-03-11T11:01:35Z</time>
      </trkpt>
      <trkpt lat="47.22207" lon="5.87813">
        <ele>251</ele>
        <time>2026-03-11T11:01:38Z</time>
      </trkpt>
      <trkpt lat="47.22216" lon="5.87776">
        <ele>251</ele>
        <time>2026-03-11T11:01:43Z</time>
      </trkpt>
      <trkpt lat="47.22227" lon="5.87741">
        <ele>251</ele>
        <time>2026-03-11T11:01:48Z</time>
      </trkpt>
      <trkpt lat="47.22278" lon="5.87605">
        <ele>250</ele>
        <time>2026-03-11T11:02:06Z</time>
      </trkpt>
      <trkpt lat="47.22297" lon="5.87546">
        <ele>247</ele>
        <time>2026-03-11T11:02:14Z</time>
      </trkpt>
      <trkpt lat="47.22306" lon="5.8751">
        <ele>245</ele>
        <time>2026-03-11T11:02:19Z</time>
      </trkpt>
      <trkpt lat="47.22364" lon="5.87253">
        <ele>232</ele>
        <time>2026-03-11T11:02:52Z</time>
      </trkpt>
      <trkpt lat="47.22376" lon="5.87202">
        <ele>233</ele>
        <time>2026-03-11T11:02:58Z</time>
      </trkpt>
      <trkpt lat="47.22387" lon="5.87165">
        <ele>233</ele>
        <time>2026-03-11T11:03:03Z</time>
      </trkpt>
      <trkpt lat="47.22399" lon="5.87134">
        <ele>234</ele>
        <time>2026-03-11T11:03:07Z</time>
      </trkpt>
      <trkpt lat="47.22441" lon="5.87037">
        <ele>237</ele>
        <time>2026-03-11T11:03:21Z</time>
      </trkpt>
      <trkpt lat="47.22461" lon="5.86988">
        <ele>238</ele>
        <time>2026-03-11T11:03:28Z</time>
      </trkpt>
      <trkpt lat="47.22477" lon="5.86935">
        <ele>236</ele>
        <time>2026-03-11T11:03:35Z</time>
      </trkpt>
      <trkpt lat="47.22521" lon="5.86742">
        <ele>236</ele>
        <time>2026-03-11T11:04:00Z</time>
      </trkpt>
      <trkpt lat="47.22582" lon="5.86498">
        <ele>241</ele>
        <time>2026-03-11T11:04:31Z</time>
      </trkpt>
      <trkpt lat="47.22616" lon="5.86347">
        <ele>245</ele>
        <time>2026-03-11T11:04:50Z</time>
      </trkpt>
      <trkpt lat="47.22624" lon="5.86292">
        <ele>247</ele>
        <time>2026-03-11T11:04:57Z</time>
      </trkpt>
      <trkpt lat="47.22649" lon="5.85991">
        <ele>255</ele>
        <time>2026-03-11T11:05:34Z</time>
      </trkpt>
      <trkpt lat="47.22655" lon="5.85845">
        <ele>251</ele>
        <time>2026-03-11T11:05:52Z</time>
      </trkpt>
      <trkpt lat="47.2266" lon="5.85807">
        <ele>250</ele>
        <time>2026-03-11T11:05:56Z</time>
      </trkpt>
      <trkpt lat="47.22665" lon="5.85784">
        <ele>249</ele>
        <time>2026-03-11T11:05:59Z</time>
      </trkpt>
      <trkpt lat="47.22681" lon="5.85748">
        <ele>248</ele>
        <time>2026-03-11T11:06:04Z</time>
      </trkpt>
      <trkpt lat="47.22705" lon="5.85718">
        <ele>246</ele>
        <time>2026-03-11T11:06:10Z</time>
      </trkpt>
      <trkpt lat="47.22717" lon="5.85703">
        <ele>245</ele>
        <time>2026-03-11T11:06:13Z</time>
      </trkpt>
      <trkpt lat="47.2273" lon="5.85675">
        <ele>243</ele>
        <time>2026-03-11T11:06:17Z</time>
      </trkpt>
      <trkpt lat="47.22741" lon="5.85634">
        <ele>242</ele>
        <time>2026-03-11T11:06:22Z</time>
      </trkpt>
      <trkpt lat="47.22751" lon="5.85491">
        <ele>242</ele>
        <time>2026-03-11T11:06:40Z</time>
      </trkpt>
      <trkpt lat="47.2275" lon="5.85448">
        <ele>240</ele>
        <time>2026-03-11T11:06:45Z</time>
      </trkpt>
      <trkpt lat="47.22746" lon="5.85426">
        <ele>239</ele>
        <time>2026-03-11T11:06:48Z</time>
      </trkpt>
      <trkpt lat="47.22738" lon="5.85372">
        <ele>239</ele>
        <time>2026-03-11T11:06:54Z</time>
      </trkpt>
      <trkpt lat="47.22728" lon="5.85307">
        <ele>239</ele>
        <time>2026-03-11T11:07:02Z</time>
      </trkpt>
      <trkpt lat="47.22727" lon="5.85281">
        <ele>238</ele>
        <time>2026-03-11T11:07:05Z</time>
      </trkpt>
      <trkpt lat="47.22728" lon="5.85259">
        <ele>238</ele>
        <time>2026-03-11T11:07:08Z</time>
      </trkpt>
      <trkpt lat="47.22732" lon="5.85224">
        <ele>237</ele>
        <time>2026-03-11T11:07:12Z</time>
      </trkpt>
      <trkpt lat="47.22734" lon="5.8521">
        <ele>237</ele>
        <time>2026-03-11T11:07:14Z</time>
      </trkpt>
      <trkpt lat="47.22734" lon="5.8518">
        <ele>237</ele>
        <time>2026-03-11T11:07:18Z</time>
      </trkpt>
      <trkpt lat="47.22733" lon="5.85161">
        <ele>236</ele>
        <time>2026-03-11T11:07:20Z</time>
      </trkpt>
      <trkpt lat="47.2273" lon="5.85144">
        <ele>236</ele>
        <time>2026-03-11T11:07:22Z</time>
      </trkpt>
      <trkpt lat="47.22724" lon="5.8512">
        <ele>236</ele>
        <time>2026-03-11T11:07:25Z</time>
      </trkpt>
      <trkpt lat="47.2272" lon="5.85099">
        <ele>235</ele>
        <time>2026-03-11T11:07:28Z</time>
      </trkpt>
      <trkpt lat="47.22711" lon="5.85064">
        <ele>235</ele>
        <time>2026-03-11T11:07:32Z</time>
      </trkpt>
      <trkpt lat="47.22708" lon="5.85054">
        <ele>235</ele>
        <time>2026-03-11T11:07:34Z</time>
      </trkpt>
      <trkpt lat="47.22698" lon="5.85016">
        <ele>234</ele>
        <time>2026-03-11T11:07:39Z</time>
      </trkpt>
      <trkpt lat="47.22684" lon="5.84961">
        <ele>236</ele>
        <time>2026-03-11T11:07:46Z</time>
      </trkpt>
      <trkpt lat="47.22683" lon="5.8495">
        <ele>236</ele>
        <time>2026-03-11T11:07:47Z</time>
      </trkpt>
      <trkpt lat="47.22685" lon="5.84937">
        <ele>237</ele>
        <time>2026-03-11T11:07:49Z</time>
      </trkpt>
      <trkpt lat="47.22698" lon="5.84875">
        <ele>237</ele>
        <time>2026-03-11T11:07:56Z</time>
      </trkpt>
      <trkpt lat="47.22705" lon="5.84852">
        <ele>237</ele>
        <time>2026-03-11T11:08:00Z</time>
      </trkpt>
      <trkpt lat="47.2274" lon="5.84763">
        <ele>235</ele>
        <time>2026-03-11T11:08:12Z</time>
      </trkpt>
      <trkpt lat="47.22781" lon="5.84643">
        <ele>235</ele>
        <time>2026-03-11T11:08:28Z</time>
      </trkpt>
      <trkpt lat="47.22801" lon="5.84578">
        <ele>238</ele>
        <time>2026-03-11T11:08:37Z</time>
      </trkpt>
      <trkpt lat="47.22858" lon="5.84318">
        <ele>241</ele>
        <time>2026-03-11T11:09:10Z</time>
      </trkpt>
      <trkpt lat="47.22875" lon="5.84252">
        <ele>241</ele>
        <time>2026-03-11T11:09:18Z</time>
      </trkpt>
      <trkpt lat="47.22891" lon="5.842">
        <ele>242</ele>
        <time>2026-03-11T11:09:25Z</time>
      </trkpt>
      <trkpt lat="47.22917" lon="5.84143">
        <ele>244</ele>
        <time>2026-03-11T11:09:34Z</time>
      </trkpt>
      <trkpt lat="47.23025" lon="5.83974">
        <ele>239</ele>
        <time>2026-03-11T11:10:02Z</time>
      </trkpt>
      <trkpt lat="47.23052" lon="5.83927">
        <ele>237</ele>
        <time>2026-03-11T11:10:09Z</time>
      </trkpt>
      <trkpt lat="47.23077" lon="5.83871">
        <ele>236</ele>
        <time>2026-03-11T11:10:17Z</time>
      </trkpt>
      <trkpt lat="47.23089" lon="5.83832">
        <ele>236</ele>
        <time>2026-03-11T11:10:22Z</time>
      </trkpt>
      <trkpt lat="47.23099" lon="5.83774">
        <ele>237</ele>
        <time>2026-03-11T11:10:30Z</time>
      </trkpt>
      <trkpt lat="47.23106" lon="5.83715">
        <ele>238</ele>
        <time>2026-03-11T11:10:37Z</time>
      </trkpt>
      <trkpt lat="47.23109" lon="5.8367">
        <ele>238</ele>
        <time>2026-03-11T11:10:42Z</time>
      </trkpt>
      <trkpt lat="47.23107" lon="5.83633">
        <ele>236</ele>
        <time>2026-03-11T11:10:47Z</time>
      </trkpt>
      <trkpt lat="47.23076" lon="5.83426">
        <ele>222</ele>
        <time>2026-03-11T11:11:12Z</time>
      </trkpt>
      <trkpt lat="47.23073" lon="5.8341">
        <ele>222</ele>
        <time>2026-03-11T11:11:14Z</time>
      </trkpt>
      <trkpt lat="47.23036" lon="5.83177">
        <ele>234</ele>
        <time>2026-03-11T11:11:43Z</time>
      </trkpt>
      <trkpt lat="47.23015" lon="5.82987">
        <ele>236</ele>
        <time>2026-03-11T11:12:07Z</time>
      </trkpt>
      <trkpt lat="47.23008" lon="5.82892">
        <ele>236</ele>
        <time>2026-03-11T11:12:18Z</time>
      </trkpt>
      <trkpt lat="47.23" lon="5.82732">
        <ele>235</ele>
        <time>2026-03-11T11:12:37Z</time>
      </trkpt>
      <trkpt lat="47.23" lon="5.82706">
        <ele>234</ele>
        <time>2026-03-11T11:12:41Z</time>
      </trkpt>
      <trkpt lat="47.23" lon="5.827">
        <ele>234</ele>
        <time>2026-03-11T11:12:41Z</time>
      </trkpt>
      <trkpt lat="47.23001" lon="5.82676">
        <ele>233</ele>
        <time>2026-03-11T11:12:44Z</time>
      </trkpt>
      <trkpt lat="47.23007" lon="5.82605">
        <ele>234</ele>
        <time>2026-03-11T11:12:53Z</time>
      </trkpt>
      <trkpt lat="47.23015" lon="5.82548">
        <ele>234</ele>
        <time>2026-03-11T11:13:00Z</time>
      </trkpt>
      <trkpt lat="47.23015" lon="5.82534">
        <ele>234</ele>
        <time>2026-03-11T11:13:02Z</time>
      </trkpt>
      <trkpt lat="47.23006" lon="5.82506">
        <ele>235</ele>
        <time>2026-03-11T11:13:05Z</time>
      </trkpt>
      <trkpt lat="47.22999" lon="5.82506">
        <ele>235</ele>
        <time>2026-03-11T11:13:07Z</time>
      </trkpt>
      <trkpt lat="47.22934" lon="5.82463">
        <ele>236</ele>
        <time>2026-03-11T11:13:19Z</time>
      </trkpt>
      <trkpt lat="47.22917" lon="5.82457">
        <ele>236</ele>
        <time>2026-03-11T11:13:22Z</time>
      </trkpt>
      <trkpt lat="47.22898" lon="5.82454">
        <ele>236</ele>
        <time>2026-03-11T11:13:26Z</time>
      </trkpt>
      <trkpt lat="47.22871" lon="5.82438">
        <ele>237</ele>
        <time>2026-03-11T11:13:31Z</time>
      </trkpt>
      <trkpt lat="47.22821" lon="5.82392">
        <ele>237</ele>
        <time>2026-03-11T11:13:41Z</time>
      </trkpt>
      <trkpt lat="47.22808" lon="5.82384">
        <ele>238</ele>
        <time>2026-03-11T11:13:44Z</time>
      </trkpt>
      <trkpt lat="47.22748" lon="5.82358">
        <ele>238</ele>
        <time>2026-03-11T11:13:55Z</time>
      </trkpt>
      <trkpt lat="47.2271" lon="5.82344">
        <ele>239</ele>
        <time>2026-03-11T11:14:02Z</time>
      </trkpt>
      <trkpt lat="47.22661" lon="5.82332">
        <ele>240</ele>
        <time>2026-03-11T11:14:11Z</time>
      </trkpt>
      <trkpt lat="47.2258" lon="5.82302">
        <ele>242</ele>
        <time>2026-03-11T11:14:26Z</time>
      </trkpt>
      <trkpt lat="47.22553" lon="5.82283">
        <ele>242</ele>
        <time>2026-03-11T11:14:31Z</time>
      </trkpt>
      <trkpt lat="47.22483" lon="5.82237">
        <ele>244</ele>
        <time>2026-03-11T11:14:45Z</time>
      </trkpt>
      <trkpt lat="47.22445" lon="5.82205">
        <ele>245</ele>
        <time>2026-03-11T11:14:52Z</time>
      </trkpt>
      <trkpt lat="47.22342" lon="5.82108">
        <ele>249</ele>
        <time>2026-03-11T11:15:14Z</time>
      </trkpt>
      <trkpt lat="47.22306" lon="5.82078">
        <ele>251</ele>
        <time>2026-03-11T11:15:22Z</time>
      </trkpt>
      <trkpt lat="47.22281" lon="5.82064">
        <ele>251</ele>
        <time>2026-03-11T11:15:26Z</time>
      </trkpt>
      <trkpt lat="47.22238" lon="5.82051">
        <ele>252</ele>
        <time>2026-03-11T11:15:34Z</time>
      </trkpt>
      <trkpt lat="47.22216" lon="5.82036">
        <ele>252</ele>
        <time>2026-03-11T11:15:38Z</time>
      </trkpt>
      <trkpt lat="47.22165" lon="5.81967">
        <ele>251</ele>
        <time>2026-03-11T11:15:51Z</time>
      </trkpt>
      <trkpt lat="47.22063" lon="5.81846">
        <ele>248</ele>
        <time>2026-03-11T11:16:14Z</time>
      </trkpt>
      <trkpt lat="47.22053" lon="5.81834">
        <ele>247</ele>
        <time>2026-03-11T11:16:16Z</time>
      </trkpt>
      <trkpt lat="47.21998" lon="5.8176">
        <ele>242</ele>
        <time>2026-03-11T11:16:30Z</time>
      </trkpt>
      <trkpt lat="47.21973" lon="5.81724">
        <ele>241</ele>
        <time>2026-03-11T11:16:36Z</time>
      </trkpt>
      <trkpt lat="47.21959" lon="5.81711">
        <ele>240</ele>
        <time>2026-03-11T11:16:39Z</time>
      </trkpt>
      <trkpt lat="47.2194" lon="5.817">
        <ele>239</ele>
        <time>2026-03-11T11:16:42Z</time>
      </trkpt>
      <trkpt lat="47.21865" lon="5.81674">
        <ele>240</ele>
        <time>2026-03-11T11:16:56Z</time>
      </trkpt>
      <trkpt lat="47.21772" lon="5.81877">
        <ele>246</ele>
        <time>2026-03-11T11:17:26Z</time>
      </trkpt>
      <trkpt lat="47.21765" lon="5.81891">
        <ele>246</ele>
        <time>2026-03-11T11:17:28Z</time>
      </trkpt>
      <trkpt lat="47.21761" lon="5.81897">
        <ele>246</ele>
        <time>2026-03-11T11:17:29Z</time>
      </trkpt>
      <trkpt lat="47.21755" lon="5.819">
        <ele>246</ele>
        <time>2026-03-11T11:17:30Z</time>
      </trkpt>
      <trkpt lat="47.2173" lon="5.81905">
        <ele>246</ele>
        <time>2026-03-11T11:17:34Z</time>
      </trkpt>
      <trkpt lat="47.21711" lon="5.81911">
        <ele>246</ele>
        <time>2026-03-11T11:17:38Z</time>
      </trkpt>
      <trkpt lat="47.21675" lon="5.81917">
        <ele>246</ele>
        <time>2026-03-11T11:17:44Z</time>
      </trkpt>
      <trkpt lat="47.21659" lon="5.81924">
        <ele>246</ele>
        <time>2026-03-11T11:17:47Z</time>
      </trkpt>
      <trkpt lat="47.21644" lon="5.81948">
        <ele>246</ele>
        <time>2026-03-11T11:17:51Z</time>
      </trkpt>
      <trkpt lat="47.21636" lon="5.81957">
        <ele>246</ele>
        <time>2026-03-11T11:17:53Z</time>
      </trkpt>
      <trkpt lat="47.21607" lon="5.8198">
        <ele>246</ele>
        <time>2026-03-11T11:17:59Z</time>
      </trkpt>
      <trkpt lat="47.21595" lon="5.81995">
        <ele>246</ele>
        <time>2026-03-11T11:18:02Z</time>
      </trkpt>
      <trkpt lat="47.21585" lon="5.8201">
        <ele>246</ele>
        <time>2026-03-11T11:18:04Z</time>
      </trkpt>
      <trkpt lat="47.21562" lon="5.82058">
        <ele>245</ele>
        <time>2026-03-11T11:18:11Z</time>
      </trkpt>
      <trkpt lat="47.21549" lon="5.82076">
        <ele>244</ele>
        <time>2026-03-11T11:18:15Z</time>
      </trkpt>
      <trkpt lat="47.21532" lon="5.82094">
        <ele>244</ele>
        <time>2026-03-11T11:18:18Z</time>
      </trkpt>
      <trkpt lat="47.21512" lon="5.82112">
        <ele>244</ele>
        <time>2026-03-11T11:18:22Z</time>
      </trkpt>
      <trkpt lat="47.21492" lon="5.82124">
        <ele>244</ele>
        <time>2026-03-11T11:18:26Z</time>
      </trkpt>
      <trkpt lat="47.21476" lon="5.82132">
        <ele>245</ele>
        <time>2026-03-11T11:18:29Z</time>
      </trkpt>
      <trkpt lat="47.21454" lon="5.82139">
        <ele>245</ele>
        <time>2026-03-11T11:18:33Z</time>
      </trkpt>
      <trkpt lat="47.21444" lon="5.82141">
        <ele>246</ele>
        <time>2026-03-11T11:18:35Z</time>
      </trkpt>
      <trkpt lat="47.21438" lon="5.82143">
        <ele>246</ele>
        <time>2026-03-11T11:18:36Z</time>
      </trkpt>
      <trkpt lat="47.2143" lon="5.82152">
        <ele>246</ele>
        <time>2026-03-11T11:18:38Z</time>
      </trkpt>
      <trkpt lat="47.21425" lon="5.8216">
        <ele>246</ele>
        <time>2026-03-11T11:18:39Z</time>
      </trkpt>
      <trkpt lat="47.21421" lon="5.82169">
        <ele>246</ele>
        <time>2026-03-11T11:18:41Z</time>
      </trkpt>
      <trkpt lat="47.21418" lon="5.82178">
        <ele>246</ele>
        <time>2026-03-11T11:18:42Z</time>
      </trkpt>
      <trkpt lat="47.21406" lon="5.82243">
        <ele>245</ele>
        <time>2026-03-11T11:18:50Z</time>
      </trkpt>
      <trkpt lat="47.21403" lon="5.82253">
        <ele>245</ele>
        <time>2026-03-11T11:18:51Z</time>
      </trkpt>
      <trkpt lat="47.21384" lon="5.82305">
        <ele>247</ele>
        <time>2026-03-11T11:18:58Z</time>
      </trkpt>
      <trkpt lat="47.2138" lon="5.82315">
        <ele>247</ele>
        <time>2026-03-11T11:19:00Z</time>
      </trkpt>
      <trkpt lat="47.21377" lon="5.8233">
        <ele>248</ele>
        <time>2026-03-11T11:19:02Z</time>
      </trkpt>
      <trkpt lat="47.21368" lon="5.82382">
        <ele>250</ele>
        <time>2026-03-11T11:19:08Z</time>
      </trkpt>
      <trkpt lat="47.21365" lon="5.82391">
        <ele>250</ele>
        <time>2026-03-11T11:19:09Z</time>
      </trkpt>
      <trkpt lat="47.21361" lon="5.82399">
        <ele>251</ele>
        <time>2026-03-11T11:19:11Z</time>
      </trkpt>
      <trkpt lat="47.21357" lon="5.82406">
        <ele>252</ele>
        <time>2026-03-11T11:19:12Z</time>
      </trkpt>
      <trkpt lat="47.21326" lon="5.82441">
        <ele>256</ele>
        <time>2026-03-11T11:19:19Z</time>
      </trkpt>
      <trkpt lat="47.21322" lon="5.82446">
        <ele>257</ele>
        <time>2026-03-11T11:19:20Z</time>
      </trkpt>
      <trkpt lat="47.21317" lon="5.82458">
        <ele>258</ele>
        <time>2026-03-11T11:19:21Z</time>
      </trkpt>
      <trkpt lat="47.21316" lon="5.8247">
        <ele>258</ele>
        <time>2026-03-11T11:19:23Z</time>
      </trkpt>
      <trkpt lat="47.21316" lon="5.82531">
        <ele>262</ele>
        <time>2026-03-11T11:19:30Z</time>
      </trkpt>
      <trkpt lat="47.21317" lon="5.82547">
        <ele>263</ele>
        <time>2026-03-11T11:19:32Z</time>
      </trkpt>
      <trkpt lat="47.21323" lon="5.82575">
        <ele>265</ele>
        <time>2026-03-11T11:19:36Z</time>
      </trkpt>
      <trkpt lat="47.21338" lon="5.82626">
        <ele>267</ele>
        <time>2026-03-11T11:19:42Z</time>
      </trkpt>
      <trkpt lat="47.21339" lon="5.82634">
        <ele>267</ele>
        <time>2026-03-11T11:19:43Z</time>
      </trkpt>
      <trkpt lat="47.2134" lon="5.82641">
        <ele>268</ele>
        <time>2026-03-11T11:19:44Z</time>
      </trkpt>
      <trkpt lat="47.21335" lon="5.8266">
        <ele>269</ele>
        <time>2026-03-11T11:19:47Z</time>
      </trkpt>
      <trkpt lat="47.21299" lon="5.82737">
        <ele>272</ele>
        <time>2026-03-11T11:19:58Z</time>
      </trkpt>
      <trkpt lat="47.21264" lon="5.82816">
        <ele>276</ele>
        <time>2026-03-11T11:20:09Z</time>
      </trkpt>
      <trkpt lat="47.21216" lon="5.8298">
        <ele>272</ele>
        <time>2026-03-11T11:20:31Z</time>
      </trkpt>
      <trkpt lat="47.21215" lon="5.83014">
        <ele>272</ele>
        <time>2026-03-11T11:20:35Z</time>
      </trkpt>
      <trkpt lat="47.21215" lon="5.83054">
        <ele>273</ele>
        <time>2026-03-11T11:20:40Z</time>
      </trkpt>
      <trkpt lat="47.21217" lon="5.83123">
        <ele>277</ele>
        <time>2026-03-11T11:20:48Z</time>
      </trkpt>
      <trkpt lat="47.21215" lon="5.8313">
        <ele>278</ele>
        <time>2026-03-11T11:20:49Z</time>
      </trkpt>
      <trkpt lat="47.21184" lon="5.83195">
        <ele>277</ele>
        <time>2026-03-11T11:20:59Z</time>
      </trkpt>
      <trkpt lat="47.21175" lon="5.83221">
        <ele>277</ele>
        <time>2026-03-11T11:21:02Z</time>
      </trkpt>
      <trkpt lat="47.2116" lon="5.83284">
        <ele>275</ele>
        <time>2026-03-11T11:21:10Z</time>
      </trkpt>
      <trkpt lat="47.21154" lon="5.833">
        <ele>274</ele>
        <time>2026-03-11T11:21:13Z</time>
      </trkpt>
      <trkpt lat="47.21136" lon="5.8334">
        <ele>272</ele>
        <time>2026-03-11T11:21:18Z</time>
      </trkpt>
      <trkpt lat="47.21078" lon="5.83481">
        <ele>267</ele>
        <time>2026-03-11T11:21:38Z</time>
      </trkpt>
      <trkpt lat="47.21066" lon="5.83504">
        <ele>267</ele>
        <time>2026-03-11T11:21:42Z</time>
      </trkpt>
      <trkpt lat="47.21052" lon="5.83527">
        <ele>267</ele>
        <time>2026-03-11T11:21:46Z</time>
      </trkpt>
      <trkpt lat="47.21026" lon="5.83566">
        <ele>266</ele>
        <time>2026-03-11T11:21:52Z</time>
      </trkpt>
      <trkpt lat="47.21009" lon="5.83591">
        <ele>264</ele>
        <time>2026-03-11T11:21:56Z</time>
      </trkpt>
      <trkpt lat="47.20982" lon="5.83631">
        <ele>263</ele>
        <time>2026-03-11T11:22:03Z</time>
      </trkpt>
      <trkpt lat="47.20965" lon="5.83657">
        <ele>261</ele>
        <time>2026-03-11T11:22:08Z</time>
      </trkpt>
      <trkpt lat="47.2096" lon="5.83665">
        <ele>261</ele>
        <time>2026-03-11T11:22:09Z</time>
      </trkpt>
      <trkpt lat="47.20955" lon="5.83678">
        <ele>260</ele>
        <time>2026-03-11T11:22:11Z</time>
      </trkpt>
      <trkpt lat="47.20952" lon="5.83689">
        <ele>260</ele>
        <time>2026-03-11T11:22:12Z</time>
      </trkpt>
      <trkpt lat="47.20951" lon="5.83697">
        <ele>260</ele>
        <time>2026-03-11T11:22:13Z</time>
      </trkpt>
      <trkpt lat="47.2095" lon="5.83708">
        <ele>259</ele>
        <time>2026-03-11T11:22:14Z</time>
      </trkpt>
      <trkpt lat="47.20951" lon="5.83718">
        <ele>259</ele>
        <time>2026-03-11T11:22:16Z</time>
      </trkpt>
      <trkpt lat="47.20956" lon="5.83737">
        <ele>259</ele>
        <time>2026-03-11T11:22:18Z</time>
      </trkpt>
      <trkpt lat="47.20959" lon="5.83745">
        <ele>259</ele>
        <time>2026-03-11T11:22:19Z</time>
      </trkpt>
      <trkpt lat="47.21002" lon="5.8382">
        <ele>260</ele>
        <time>2026-03-11T11:22:31Z</time>
      </trkpt>
      <trkpt lat="47.21007" lon="5.83832">
        <ele>260</ele>
        <time>2026-03-11T11:22:33Z</time>
      </trkpt>
      <trkpt lat="47.21011" lon="5.8384">
        <ele>260</ele>
        <time>2026-03-11T11:22:34Z</time>
      </trkpt>
      <trkpt lat="47.21013" lon="5.8385">
        <ele>260</ele>
        <time>2026-03-11T11:22:35Z</time>
      </trkpt>
      <trkpt lat="47.21014" lon="5.83863">
        <ele>259</ele>
        <time>2026-03-11T11:22:37Z</time>
      </trkpt>
      <trkpt lat="47.21015" lon="5.83872">
        <ele>259</ele>
        <time>2026-03-11T11:22:38Z</time>
      </trkpt>
      <trkpt lat="47.2101" lon="5.83894">
        <ele>258</ele>
        <time>2026-03-11T11:22:41Z</time>
      </trkpt>
      <trkpt lat="47.21002" lon="5.83912">
        <ele>257</ele>
        <time>2026-03-11T11:22:43Z</time>
      </trkpt>
      <trkpt lat="47.20949" lon="5.84027">
        <ele>254</ele>
        <time>2026-03-11T11:23:00Z</time>
      </trkpt>
      <trkpt lat="47.2094" lon="5.84047">
        <ele>254</ele>
        <time>2026-03-11T11:23:03Z</time>
      </trkpt>
      <trkpt lat="47.20929" lon="5.84064">
        <ele>254</ele>
        <time>2026-03-11T11:23:06Z</time>
      </trkpt>
      <trkpt lat="47.20891" lon="5.8411">
        <ele>254</ele>
        <time>2026-03-11T11:23:15Z</time>
      </trkpt>
      <trkpt lat="47.20883" lon="5.84121">
        <ele>255</ele>
        <time>2026-03-11T11:23:17Z</time>
      </trkpt>
      <trkpt lat="47.20879" lon="5.84131">
        <ele>255</ele>
        <time>2026-03-11T11:23:18Z</time>
      </trkpt>
      <trkpt lat="47.20872" lon="5.84149">
        <ele>256</ele>
        <time>2026-03-11T11:23:21Z</time>
      </trkpt>
      <trkpt lat="47.20856" lon="5.84212">
        <ele>257</ele>
        <time>2026-03-11T11:23:29Z</time>
      </trkpt>
      <trkpt lat="47.20845" lon="5.84268">
        <ele>257</ele>
        <time>2026-03-11T11:23:36Z</time>
      </trkpt>
      <trkpt lat="47.20841" lon="5.84283">
        <ele>257</ele>
        <time>2026-03-11T11:23:38Z</time>
      </trkpt>
      <trkpt lat="47.2084" lon="5.843">
        <ele>256</ele>
        <time>2026-03-11T11:23:40Z</time>
      </trkpt>
      <trkpt lat="47.20837" lon="5.84323">
        <ele>256</ele>
        <time>2026-03-11T11:23:43Z</time>
      </trkpt>
      <trkpt lat="47.20837" lon="5.84332">
        <ele>255</ele>
        <time>2026-03-11T11:23:44Z</time>
      </trkpt>
      <trkpt lat="47.2083" lon="5.84342">
        <ele>255</ele>
        <time>2026-03-11T11:23:45Z</time>
      </trkpt>
      <trkpt lat="47.20827" lon="5.84348">
        <ele>254</ele>
        <time>2026-03-11T11:23:46Z</time>
      </trkpt>
      <trkpt lat="47.20817" lon="5.84369">
        <ele>254</ele>
        <time>2026-03-11T11:23:49Z</time>
      </trkpt>
      <trkpt lat="47.2081" lon="5.84381">
        <ele>253</ele>
        <time>2026-03-11T11:23:51Z</time>
      </trkpt>
      <trkpt lat="47.20808" lon="5.84387">
        <ele>253</ele>
        <time>2026-03-11T11:23:52Z</time>
      </trkpt>
      <trkpt lat="47.20805" lon="5.84392">
        <ele>253</ele>
        <time>2026-03-11T11:23:53Z</time>
      </trkpt>
      <trkpt lat="47.20801" lon="5.84398">
        <ele>253</ele>
        <time>2026-03-11T11:23:54Z</time>
      </trkpt>
      <trkpt lat="47.20783" lon="5.8442">
        <ele>253</ele>
        <time>2026-03-11T11:23:58Z</time>
      </trkpt>
      <trkpt lat="47.20767" lon="5.84439">
        <ele>254</ele>
        <time>2026-03-11T11:24:02Z</time>
      </trkpt>
      <trkpt lat="47.20754" lon="5.84462">
        <ele>255</ele>
        <time>2026-03-11T11:24:05Z</time>
      </trkpt>
      <trkpt lat="47.20738" lon="5.84495">
        <ele>257</ele>
        <time>2026-03-11T11:24:10Z</time>
      </trkpt>
      <trkpt lat="47.20727" lon="5.84521">
        <ele>258</ele>
        <time>2026-03-11T11:24:14Z</time>
      </trkpt>
      <trkpt lat="47.20717" lon="5.84534">
        <ele>258</ele>
        <time>2026-03-11T11:24:16Z</time>
      </trkpt>
      <trkpt lat="47.2071" lon="5.8454">
        <ele>259</ele>
        <time>2026-03-11T11:24:18Z</time>
      </trkpt>
      <trkpt lat="47.20701" lon="5.84547">
        <ele>259</ele>
        <time>2026-03-11T11:24:20Z</time>
      </trkpt>
      <trkpt lat="47.20692" lon="5.84549">
        <ele>259</ele>
        <time>2026-03-11T11:24:21Z</time>
      </trkpt>
      <trkpt lat="47.20689" lon="5.84557">
        <ele>260</ele>
        <time>2026-03-11T11:24:22Z</time>
      </trkpt>
      <trkpt lat="47.20708" lon="5.8458">
        <ele>259</ele>
        <time>2026-03-11T11:24:27Z</time>
      </trkpt>
      <trkpt lat="47.20705" lon="5.84586">
        <ele>260</ele>
        <time>2026-03-11T11:24:28Z</time>
      </trkpt>
      <trkpt lat="47.207" lon="5.84606">
        <ele>260</ele>
        <time>2026-03-11T11:24:30Z</time>
      </trkpt>
      <trkpt lat="47.20698" lon="5.84619">
        <ele>261</ele>
        <time>2026-03-11T11:24:32Z</time>
      </trkpt>
      <trkpt lat="47.20698" lon="5.84628">
        <ele>261</ele>
        <time>2026-03-11T11:24:33Z</time>
      </trkpt>
      <trkpt lat="47.20709" lon="5.84676">
        <ele>262</ele>
        <time>2026-03-11T11:24:39Z</time>
      </trkpt>
      <trkpt lat="47.2071" lon="5.84682">
        <ele>262</ele>
        <time>2026-03-11T11:24:40Z</time>
      </trkpt>
      <trkpt lat="47.20713" lon="5.84705">
        <ele>262</ele>
        <time>2026-03-11T11:24:43Z</time>
      </trkpt>
      <trkpt lat="47.20707" lon="5.84757">
        <ele>264</ele>
        <time>2026-03-11T11:24:49Z</time>
      </trkpt>
      <trkpt lat="47.20708" lon="5.84768">
        <ele>264</ele>
        <time>2026-03-11T11:24:50Z</time>
      </trkpt>
      <trkpt lat="47.2071" lon="5.84794">
        <ele>265</ele>
        <time>2026-03-11T11:24:53Z</time>
      </trkpt>
      <trkpt lat="47.20716" lon="5.84822">
        <ele>265</ele>
        <time>2026-03-11T11:24:57Z</time>
      </trkpt>
      <trkpt lat="47.20738" lon="5.84892">
        <ele>266</ele>
        <time>2026-03-11T11:25:06Z</time>
      </trkpt>
      <trkpt lat="47.20743" lon="5.84908">
        <ele>266</ele>
        <time>2026-03-11T11:25:08Z</time>
      </trkpt>
      <trkpt lat="47.20773" lon="5.84986">
        <ele>265</ele>
        <time>2026-03-11T11:25:19Z</time>
      </trkpt>
      <trkpt lat="47.20831" lon="5.85157">
        <ele>266</ele>
        <time>2026-03-11T11:25:42Z</time>
      </trkpt>
      <trkpt lat="47.2086" lon="5.85232">
        <ele>267</ele>
        <time>2026-03-11T11:25:53Z</time>
      </trkpt>
      <trkpt lat="47.20873" lon="5.85304">
        <ele>265</ele>
        <time>2026-03-11T11:26:02Z</time>
      </trkpt>
      <trkpt lat="47.20881" lon="5.8536">
        <ele>263</ele>
        <time>2026-03-11T11:26:09Z</time>
      </trkpt>
      <trkpt lat="47.20888" lon="5.85396">
        <ele>261</ele>
        <time>2026-03-11T11:26:13Z</time>
      </trkpt>
      <trkpt lat="47.20896" lon="5.85415">
        <ele>260</ele>
        <time>2026-03-11T11:26:16Z</time>
      </trkpt>
      <trkpt lat="47.20934" lon="5.8548">
        <ele>260</ele>
        <time>2026-03-11T11:26:26Z</time>
      </trkpt>
      <trkpt lat="47.20971" lon="5.85526">
        <ele>258</ele>
        <time>2026-03-11T11:26:35Z</time>
      </trkpt>
      <trkpt lat="47.21007" lon="5.85558">
        <ele>257</ele>
        <time>2026-03-11T11:26:42Z</time>
      </trkpt>
      <trkpt lat="47.21018" lon="5.85573">
        <ele>257</ele>
        <time>2026-03-11T11:26:45Z</time>
      </trkpt>
      <trkpt lat="47.21022" lon="5.85584">
        <ele>256</ele>
        <time>2026-03-11T11:26:47Z</time>
      </trkpt>
      <trkpt lat="47.21024" lon="5.85597">
        <ele>256</ele>
        <time>2026-03-11T11:26:48Z</time>
      </trkpt>
      <trkpt lat="47.21024" lon="5.8562">
        <ele>256</ele>
        <time>2026-03-11T11:26:51Z</time>
      </trkpt>
      <trkpt lat="47.21011" lon="5.85663">
        <ele>257</ele>
        <time>2026-03-11T11:26:57Z</time>
      </trkpt>
      <trkpt lat="47.20969" lon="5.85742">
        <ele>256</ele>
        <time>2026-03-11T11:27:09Z</time>
      </trkpt>
      <trkpt lat="47.20934" lon="5.85786">
        <ele>256</ele>
        <time>2026-03-11T11:27:17Z</time>
      </trkpt>
      <trkpt lat="47.20921" lon="5.8581">
        <ele>257</ele>
        <time>2026-03-11T11:27:21Z</time>
      </trkpt>
      <trkpt lat="47.20906" lon="5.85846">
        <ele>259</ele>
        <time>2026-03-11T11:27:26Z</time>
      </trkpt>
      <trkpt lat="47.20902" lon="5.85882">
        <ele>261</ele>
        <time>2026-03-11T11:27:30Z</time>
      </trkpt>
      <trkpt lat="47.20903" lon="5.85892">
        <ele>262</ele>
        <time>2026-03-11T11:27:31Z</time>
      </trkpt>
      <trkpt lat="47.20906" lon="5.85909">
        <ele>263</ele>
        <time>2026-03-11T11:27:34Z</time>
      </trkpt>
      <trkpt lat="47.20914" lon="5.85923">
        <ele>264</ele>
        <time>2026-03-11T11:27:36Z</time>
      </trkpt>
      <trkpt lat="47.20926" lon="5.85939">
        <ele>264</ele>
        <time>2026-03-11T11:27:39Z</time>
      </trkpt>
      <trkpt lat="47.2095" lon="5.85964">
        <ele>265</ele>
        <time>2026-03-11T11:27:44Z</time>
      </trkpt>
      <trkpt lat="47.20953" lon="5.8597">
        <ele>265</ele>
        <time>2026-03-11T11:27:45Z</time>
      </trkpt>
      <trkpt lat="47.20953" lon="5.85983">
        <ele>266</ele>
        <time>2026-03-11T11:27:46Z</time>
      </trkpt>
      <trkpt lat="47.2095" lon="5.85993">
        <ele>267</ele>
        <time>2026-03-11T11:27:48Z</time>
      </trkpt>
      <trkpt lat="47.20944" lon="5.86002">
        <ele>268</ele>
        <time>2026-03-11T11:27:49Z</time>
      </trkpt>
      <trkpt lat="47.20935" lon="5.86005">
        <ele>269</ele>
        <time>2026-03-11T11:27:51Z</time>
      </trkpt>
      <trkpt lat="47.20919" lon="5.86">
        <ele>269</ele>
        <time>2026-03-11T11:27:54Z</time>
      </trkpt>
      <trkpt lat="47.20898" lon="5.85993">
        <ele>270</ele>
        <time>2026-03-11T11:27:58Z</time>
      </trkpt>
      <trkpt lat="47.20864" lon="5.85983">
        <ele>271</ele>
        <time>2026-03-11T11:28:04Z</time>
      </trkpt>
      <trkpt lat="47.20847" lon="5.85984">
        <ele>272</ele>
        <time>2026-03-11T11:28:07Z</time>
      </trkpt>
      <trkpt lat="47.20842" lon="5.85986">
        <ele>272</ele>
        <time>2026-03-11T11:28:08Z</time>
      </trkpt>
      <trkpt lat="47.20834" lon="5.85992">
        <ele>273</ele>
        <time>2026-03-11T11:28:09Z</time>
      </trkpt>
      <trkpt lat="47.20822" lon="5.86005">
        <ele>275</ele>
        <time>2026-03-11T11:28:12Z</time>
      </trkpt>
      <trkpt lat="47.20818" lon="5.86014">
        <ele>275</ele>
        <time>2026-03-11T11:28:13Z</time>
      </trkpt>
      <trkpt lat="47.20812" lon="5.86033">
        <ele>276</ele>
        <time>2026-03-11T11:28:16Z</time>
      </trkpt>
      <trkpt lat="47.20812" lon="5.8606">
        <ele>277</ele>
        <time>2026-03-11T11:28:19Z</time>
      </trkpt>
      <trkpt lat="47.20826" lon="5.861">
        <ele>277</ele>
        <time>2026-03-11T11:28:24Z</time>
      </trkpt>
      <trkpt lat="47.20828" lon="5.86114">
        <ele>278</ele>
        <time>2026-03-11T11:28:26Z</time>
      </trkpt>
      <trkpt lat="47.20828" lon="5.86116">
        <ele>278</ele>
        <time>2026-03-11T11:28:26Z</time>
      </trkpt>
      <trkpt lat="47.20826" lon="5.86174">
        <ele>279</ele>
        <time>2026-03-11T11:28:33Z</time>
      </trkpt>
      <trkpt lat="47.20823" lon="5.86214">
        <ele>282</ele>
        <time>2026-03-11T11:28:38Z</time>
      </trkpt>
      <trkpt lat="47.20822" lon="5.86235">
        <ele>283</ele>
        <time>2026-03-11T11:28:41Z</time>
      </trkpt>
      <trkpt lat="47.20814" lon="5.86267">
        <ele>285</ele>
        <time>2026-03-11T11:28:45Z</time>
      </trkpt>
      <trkpt lat="47.20792" lon="5.86306">
        <ele>288</ele>
        <time>2026-03-11T11:28:51Z</time>
      </trkpt>
      <trkpt lat="47.20773" lon="5.86324">
        <ele>291</ele>
        <time>2026-03-11T11:28:55Z</time>
      </trkpt>
      <trkpt lat="47.20753" lon="5.86333">
        <ele>293</ele>
        <time>2026-03-11T11:28:59Z</time>
      </trkpt>
      <trkpt lat="47.20745" lon="5.86335">
        <ele>293</ele>
        <time>2026-03-11T11:29:00Z</time>
      </trkpt>
      <trkpt lat="47.2073" lon="5.86334">
        <ele>293</ele>
        <time>2026-03-11T11:29:03Z</time>
      </trkpt>
      <trkpt lat="47.20726" lon="5.86334">
        <ele>293</ele>
        <time>2026-03-11T11:29:04Z</time>
      </trkpt>
      <trkpt lat="47.20712" lon="5.86332">
        <ele>293</ele>
        <time>2026-03-11T11:29:06Z</time>
      </trkpt>
      <trkpt lat="47.20698" lon="5.86327">
        <ele>293</ele>
        <time>2026-03-11T11:29:09Z</time>
      </trkpt>
      <trkpt lat="47.20686" lon="5.86352">
        <ele>293</ele>
        <time>2026-03-11T11:29:12Z</time>
      </trkpt>
      <trkpt lat="47.20682" lon="5.8637">
        <ele>293</ele>
        <time>2026-03-11T11:29:15Z</time>
      </trkpt>
      <trkpt lat="47.20681" lon="5.86383">
        <ele>292</ele>
        <time>2026-03-11T11:29:16Z</time>
      </trkpt>
      <trkpt lat="47.20693" lon="5.86427">
        <ele>292</ele>
        <time>2026-03-11T11:29:22Z</time>
      </trkpt>
      <trkpt lat="47.20691" lon="5.86438">
        <ele>291</ele>
        <time>2026-03-11T11:29:23Z</time>
      </trkpt>
      <trkpt lat="47.20679" lon="5.8646">
        <ele>290</ele>
        <time>2026-03-11T11:29:27Z</time>
      </trkpt>
      <trkpt lat="47.20655" lon="5.86492">
        <ele>287</ele>
        <time>2026-03-11T11:29:33Z</time>
      </trkpt>
      <trkpt lat="47.20621" lon="5.86526">
        <ele>285</ele>
        <time>2026-03-11T11:29:40Z</time>
      </trkpt>
      <trkpt lat="47.2061" lon="5.86529">
        <ele>284</ele>
        <time>2026-03-11T11:29:42Z</time>
      </trkpt>
      <trkpt lat="47.20593" lon="5.86528">
        <ele>284</ele>
        <time>2026-03-11T11:29:45Z</time>
      </trkpt>
      <trkpt lat="47.20586" lon="5.86539">
        <ele>283</ele>
        <time>2026-03-11T11:29:47Z</time>
      </trkpt>
      <trkpt lat="47.20565" lon="5.86599">
        <ele>280</ele>
        <time>2026-03-11T11:29:55Z</time>
      </trkpt>
      <trkpt lat="47.20553" lon="5.8664">
        <ele>277</ele>
        <time>2026-03-11T11:30:00Z</time>
      </trkpt>
      <trkpt lat="47.2055" lon="5.86654">
        <ele>276</ele>
        <time>2026-03-11T11:30:02Z</time>
      </trkpt>
      <trkpt lat="47.2055" lon="5.86669">
        <ele>275</ele>
        <time>2026-03-11T11:30:04Z</time>
      </trkpt>
      <trkpt lat="47.20559" lon="5.86751">
        <ele>271</ele>
        <time>2026-03-11T11:30:14Z</time>
      </trkpt>
      <trkpt lat="47.2056" lon="5.86763">
        <ele>271</ele>
        <time>2026-03-11T11:30:15Z</time>
      </trkpt>
      <trkpt lat="47.20558" lon="5.86773">
        <ele>270</ele>
        <time>2026-03-11T11:30:17Z</time>
      </trkpt>
      <trkpt lat="47.20554" lon="5.86794">
        <ele>268</ele>
        <time>2026-03-11T11:30:19Z</time>
      </trkpt>
      <trkpt lat="47.20517" lon="5.86872">
        <ele>263</ele>
        <time>2026-03-11T11:30:31Z</time>
      </trkpt>
      <trkpt lat="47.20502" lon="5.86898">
        <ele>262</ele>
        <time>2026-03-11T11:30:35Z</time>
      </trkpt>
      <trkpt lat="47.20484" lon="5.86927">
        <ele>260</ele>
        <time>2026-03-11T11:30:40Z</time>
      </trkpt>
      <trkpt lat="47.20481" lon="5.86932">
        <ele>260</ele>
        <time>2026-03-11T11:30:40Z</time>
      </trkpt>
      <trkpt lat="47.20476" lon="5.86942">
        <ele>260</ele>
        <time>2026-03-11T11:30:42Z</time>
      </trkpt>
      <trkpt lat="47.20473" lon="5.8695">
        <ele>259</ele>
        <time>2026-03-11T11:30:43Z</time>
      </trkpt>
      <trkpt lat="47.20471" lon="5.86958">
        <ele>259</ele>
        <time>2026-03-11T11:30:44Z</time>
      </trkpt>
      <trkpt lat="47.2047" lon="5.86967">
        <ele>259</ele>
        <time>2026-03-11T11:30:45Z</time>
      </trkpt>
      <trkpt lat="47.20471" lon="5.86976">
        <ele>259</ele>
        <time>2026-03-11T11:30:46Z</time>
      </trkpt>
      <trkpt lat="47.20474" lon="5.87002">
        <ele>259</ele>
        <time>2026-03-11T11:30:49Z</time>
      </trkpt>
      <trkpt lat="47.2047" lon="5.87009">
        <ele>259</ele>
        <time>2026-03-11T11:30:51Z</time>
      </trkpt>
      <trkpt lat="47.20475" lon="5.8706">
        <ele>259</ele>
        <time>2026-03-11T11:30:57Z</time>
      </trkpt>
      <trkpt lat="47.20475" lon="5.87088">
        <ele>259</ele>
        <time>2026-03-11T11:31:00Z</time>
      </trkpt>
      <trkpt lat="47.20471" lon="5.8713">
        <ele>259</ele>
        <time>2026-03-11T11:31:05Z</time>
      </trkpt>
      <trkpt lat="47.20464" lon="5.87167">
        <ele>259</ele>
        <time>2026-03-11T11:31:10Z</time>
      </trkpt>
      <trkpt lat="47.20458" lon="5.87189">
        <ele>260</ele>
        <time>2026-03-11T11:31:13Z</time>
      </trkpt>
      <trkpt lat="47.20456" lon="5.87195">
        <ele>260</ele>
        <time>2026-03-11T11:31:14Z</time>
      </trkpt>
      <trkpt lat="47.20462" lon="5.872">
        <ele>260</ele>
        <time>2026-03-11T11:31:15Z</time>
      </trkpt>
      <trkpt lat="47.20454" lon="5.87226">
        <ele>260</ele>
        <time>2026-03-11T11:31:18Z</time>
      </trkpt>
      <trkpt lat="47.20442" lon="5.87246">
        <ele>261</ele>
        <time>2026-03-11T11:31:22Z</time>
      </trkpt>
      <trkpt lat="47.20436" lon="5.87255">
        <ele>260</ele>
        <time>2026-03-11T11:31:23Z</time>
      </trkpt>
      <trkpt lat="47.2042" lon="5.87272">
        <ele>260</ele>
        <time>2026-03-11T11:31:27Z</time>
      </trkpt>
      <trkpt lat="47.20413" lon="5.87279">
        <ele>260</ele>
        <time>2026-03-11T11:31:28Z</time>
      </trkpt>
      <trkpt lat="47.20381" lon="5.87306">
        <ele>261</ele>
        <time>2026-03-11T11:31:35Z</time>
      </trkpt>
      <trkpt lat="47.20331" lon="5.87349">
        <ele>263</ele>
        <time>2026-03-11T11:31:45Z</time>
      </trkpt>
      <trkpt lat="47.20313" lon="5.87367">
        <ele>264</ele>
        <time>2026-03-11T11:31:49Z</time>
      </trkpt>
      <trkpt lat="47.2027" lon="5.87395">
        <ele>265</ele>
        <time>2026-03-11T11:31:57Z</time>
      </trkpt>
      <trkpt lat="47.20262" lon="5.87399">
        <ele>265</ele>
        <time>2026-03-11T11:31:59Z</time>
      </trkpt>
      <trkpt lat="47.20253" lon="5.87402">
        <ele>266</ele>
        <time>2026-03-11T11:32:00Z</time>
      </trkpt>
      <trkpt lat="47.20239" lon="5.87403">
        <ele>266</ele>
        <time>2026-03-11T11:32:03Z</time>
      </trkpt>
      <trkpt lat="47.20225" lon="5.87402">
        <ele>266</ele>
        <time>2026-03-11T11:32:05Z</time>
      </trkpt>
      <trkpt lat="47.2021" lon="5.87399">
        <ele>266</ele>
        <time>2026-03-11T11:32:08Z</time>
      </trkpt>
      <trkpt lat="47.20186" lon="5.87392">
        <ele>267</ele>
        <time>2026-03-11T11:32:12Z</time>
      </trkpt>
      <trkpt lat="47.20171" lon="5.87388">
        <ele>267</ele>
        <time>2026-03-11T11:32:15Z</time>
      </trkpt>
      <trkpt lat="47.20151" lon="5.87387">
        <ele>267</ele>
        <time>2026-03-11T11:32:19Z</time>
      </trkpt>
      <trkpt lat="47.20146" lon="5.87387">
        <ele>267</ele>
        <time>2026-03-11T11:32:20Z</time>
      </trkpt>
      <trkpt lat="47.20139" lon="5.87388">
        <ele>267</ele>
        <time>2026-03-11T11:32:21Z</time>
      </trkpt>
      <trkpt lat="47.2013" lon="5.8739">
        <ele>267</ele>
        <time>2026-03-11T11:32:22Z</time>
      </trkpt>
      <trkpt lat="47.20112" lon="5.87397">
        <ele>268</ele>
        <time>2026-03-11T11:32:26Z</time>
      </trkpt>
      <trkpt lat="47.20086" lon="5.87413">
        <ele>268</ele>
        <time>2026-03-11T11:32:31Z</time>
      </trkpt>
      <trkpt lat="47.20049" lon="5.87437">
        <ele>268</ele>
        <time>2026-03-11T11:32:38Z</time>
      </trkpt>
      <trkpt lat="47.20008" lon="5.87464">
        <ele>269</ele>
        <time>2026-03-11T11:32:46Z</time>
      </trkpt>
      <trkpt lat="47.1994" lon="5.87507">
        <ele>271</ele>
        <time>2026-03-11T11:32:59Z</time>
      </trkpt>
      <trkpt lat="47.19835" lon="5.87569">
        <ele>274</ele>
        <time>2026-03-11T11:33:19Z</time>
      </trkpt>
      <trkpt lat="47.19804" lon="5.87584">
        <ele>273</ele>
        <time>2026-03-11T11:33:25Z</time>
      </trkpt>
      <trkpt lat="47.1978" lon="5.87596">
        <ele>273</ele>
        <time>2026-03-11T11:33:30Z</time>
      </trkpt>
      <trkpt lat="47.19736" lon="5.87615">
        <ele>272</ele>
        <time>2026-03-11T11:33:38Z</time>
      </trkpt>
      <trkpt lat="47.19676" lon="5.87665">
        <ele>275</ele>
        <time>2026-03-11T11:33:50Z</time>
      </trkpt>
      <trkpt lat="47.19653" lon="5.87673">
        <ele>277</ele>
        <time>2026-03-11T11:33:54Z</time>
      </trkpt>
      <trkpt lat="47.19632" lon="5.87674">
        <ele>279</ele>
        <time>2026-03-11T11:33:58Z</time>
      </trkpt>
      <trkpt lat="47.19604" lon="5.87669">
        <ele>280</ele>
        <time>2026-03-11T11:34:03Z</time>
      </trkpt>
      <trkpt lat="47.19586" lon="5.8767">
        <ele>281</ele>
        <time>2026-03-11T11:34:06Z</time>
      </trkpt>
      <trkpt lat="47.19543" lon="5.87674">
        <ele>286</ele>
        <time>2026-03-11T11:34:14Z</time>
      </trkpt>
      <trkpt lat="47.19533" lon="5.87673">
        <ele>286</ele>
        <time>2026-03-11T11:34:16Z</time>
      </trkpt>
      <trkpt lat="47.1952" lon="5.87669">
        <ele>287</ele>
        <time>2026-03-11T11:34:18Z</time>
      </trkpt>
      <trkpt lat="47.19485" lon="5.87645">
        <ele>285</ele>
        <time>2026-03-11T11:34:25Z</time>
      </trkpt>
      <trkpt lat="47.19453" lon="5.87623">
        <ele>282</ele>
        <time>2026-03-11T11:34:31Z</time>
      </trkpt>
      <trkpt lat="47.19413" lon="5.87601">
        <ele>282</ele>
        <time>2026-03-11T11:34:39Z</time>
      </trkpt>
      <trkpt lat="47.19389" lon="5.87591">
        <ele>282</ele>
        <time>2026-03-11T11:34:43Z</time>
      </trkpt>
      <trkpt lat="47.1936" lon="5.87587">
        <ele>283</ele>
        <time>2026-03-11T11:34:48Z</time>
      </trkpt>
      <trkpt lat="47.19333" lon="5.87587">
        <ele>285</ele>
        <time>2026-03-11T11:34:53Z</time>
      </trkpt>
      <trkpt lat="47.19303" lon="5.8759">
        <ele>284</ele>
        <time>2026-03-11T11:34:58Z</time>
      </trkpt>
      <trkpt lat="47.19294" lon="5.87595">
        <ele>284</ele>
        <time>2026-03-11T11:35:00Z</time>
      </trkpt>
      <trkpt lat="47.19273" lon="5.8762">
        <ele>282</ele>
        <time>2026-03-11T11:35:05Z</time>
      </trkpt>
      <trkpt lat="47.1925" lon="5.87638">
        <ele>280</ele>
        <time>2026-03-11T11:35:10Z</time>
      </trkpt>
      <trkpt lat="47.19229" lon="5.87646">
        <ele>279</ele>
        <time>2026-03-11T11:35:13Z</time>
      </trkpt>
      <trkpt lat="47.19217" lon="5.87647">
        <ele>278</ele>
        <time>2026-03-11T11:35:16Z</time>
      </trkpt>
      <trkpt lat="47.19208" lon="5.87643">
        <ele>278</ele>
        <time>2026-03-11T11:35:17Z</time>
      </trkpt>
      <trkpt lat="47.19199" lon="5.87635">
        <ele>278</ele>
        <time>2026-03-11T11:35:19Z</time>
      </trkpt>
      <trkpt lat="47.19171" lon="5.87578">
        <ele>279</ele>
        <time>2026-03-11T11:35:28Z</time>
      </trkpt>
      <trkpt lat="47.19142" lon="5.87525">
        <ele>277</ele>
        <time>2026-03-11T11:35:36Z</time>
      </trkpt>
      <trkpt lat="47.19127" lon="5.87498">
        <ele>276</ele>
        <time>2026-03-11T11:35:40Z</time>
      </trkpt>
      <trkpt lat="47.19106" lon="5.87461">
        <ele>274</ele>
        <time>2026-03-11T11:35:46Z</time>
      </trkpt>
      <trkpt lat="47.19091" lon="5.87477">
        <ele>273</ele>
        <time>2026-03-11T11:35:49Z</time>
      </trkpt>
      <trkpt lat="47.1908" lon="5.87495">
        <ele>272</ele>
        <time>2026-03-11T11:35:52Z</time>
      </trkpt>
      <trkpt lat="47.1907" lon="5.87512">
        <ele>271</ele>
        <time>2026-03-11T11:35:55Z</time>
      </trkpt>
      <trkpt lat="47.19062" lon="5.87538">
        <ele>270</ele>
        <time>2026-03-11T11:35:58Z</time>
      </trkpt>
      <trkpt lat="47.19056" lon="5.87783">
        <ele>264</ele>
        <time>2026-03-11T11:36:28Z</time>
      </trkpt>
      <trkpt lat="47.1901" lon="5.87973">
        <ele>262</ele>
        <time>2026-03-11T11:36:52Z</time>
      </trkpt>
      <trkpt lat="47.19001" lon="5.88032">
        <ele>262</ele>
        <time>2026-03-11T11:37:00Z</time>
      </trkpt>
      <trkpt lat="47.1895" lon="5.88209">
        <ele>262</ele>
        <time>2026-03-11T11:37:23Z</time>
      </trkpt>
      <trkpt lat="47.18843" lon="5.88495">
        <ele>257</ele>
        <time>2026-03-11T11:38:02Z</time>
      </trkpt>
      <trkpt lat="47.18833" lon="5.88515">
        <ele>256</ele>
        <time>2026-03-11T11:38:05Z</time>
      </trkpt>
      <trkpt lat="47.18751" lon="5.88634">
        <ele>257</ele>
        <time>2026-03-11T11:38:26Z</time>
      </trkpt>
      <trkpt lat="47.18782" lon="5.88735">
        <ele>259</ele>
        <time>2026-03-11T11:38:39Z</time>
      </trkpt>
      <trkpt lat="47.18788" lon="5.88755">
        <ele>259</ele>
        <time>2026-03-11T11:38:42Z</time>
      </trkpt>
      <trkpt lat="47.1882" lon="5.88848">
        <ele>259</ele>
        <time>2026-03-11T11:38:55Z</time>
      </trkpt>
      <trkpt lat="47.18839" lon="5.88896">
        <ele>259</ele>
        <time>2026-03-11T11:39:01Z</time>
      </trkpt>
      <trkpt lat="47.18855" lon="5.88925">
        <ele>259</ele>
        <time>2026-03-11T11:39:06Z</time>
      </trkpt>
      <trkpt lat="47.18887" lon="5.88967">
        <ele>259</ele>
        <time>2026-03-11T11:39:13Z</time>
      </trkpt>
      <trkpt lat="47.19068" lon="5.89145">
        <ele>256</ele>
        <time>2026-03-11T11:39:52Z</time>
      </trkpt>
      <trkpt lat="47.19077" lon="5.89155">
        <ele>256</ele>
        <time>2026-03-11T11:39:54Z</time>
      </trkpt>
      <trkpt lat="47.19094" lon="5.89167">
        <ele>256</ele>
        <time>2026-03-11T11:39:58Z</time>
      </trkpt>
      <trkpt lat="47.19148" lon="5.89199">
        <ele>256</ele>
        <time>2026-03-11T11:40:08Z</time>
      </trkpt>
      <trkpt lat="47.19275" lon="5.89231">
        <ele>258</ele>
        <time>2026-03-11T11:40:31Z</time>
      </trkpt>
      <trkpt lat="47.19304" lon="5.89241">
        <ele>258</ele>
        <time>2026-03-11T11:40:36Z</time>
      </trkpt>
      <trkpt lat="47.19346" lon="5.89267">
        <ele>258</ele>
        <time>2026-03-11T11:40:44Z</time>
      </trkpt>
      <trkpt lat="47.19366" lon="5.89284">
        <ele>258</ele>
        <time>2026-03-11T11:40:48Z</time>
      </trkpt>
      <trkpt lat="47.19392" lon="5.89314">
        <ele>257</ele>
        <time>2026-03-11T11:40:54Z</time>
      </trkpt>
      <trkpt lat="47.19416" lon="5.89351">
        <ele>257</ele>
        <time>2026-03-11T11:41:00Z</time>
      </trkpt>
      <trkpt lat="47.19433" lon="5.89381">
        <ele>257</ele>
        <time>2026-03-11T11:41:05Z</time>
      </trkpt>
      <trkpt lat="47.19548" lon="5.896">
        <ele>253</ele>
        <time>2026-03-11T11:41:39Z</time>
      </trkpt>
      <trkpt lat="47.19566" lon="5.89627">
        <ele>251</ele>
        <time>2026-03-11T11:41:43Z</time>
      </trkpt>
      <trkpt lat="47.1959" lon="5.89645">
        <ele>250</ele>
        <time>2026-03-11T11:41:48Z</time>
      </trkpt>
      <trkpt lat="47.19638" lon="5.8966">
        <ele>251</ele>
        <time>2026-03-11T11:41:57Z</time>
      </trkpt>
      <trkpt lat="47.19636" lon="5.89679">
        <ele>251</ele>
        <time>2026-03-11T11:41:59Z</time>
      </trkpt>
      <trkpt lat="47.19642" lon="5.89712">
        <ele>250</ele>
        <time>2026-03-11T11:42:03Z</time>
      </trkpt>
      <trkpt lat="47.19646" lon="5.89823">
        <ele>248</ele>
        <time>2026-03-11T11:42:17Z</time>
      </trkpt>
      <trkpt lat="47.1965" lon="5.89854">
        <ele>249</ele>
        <time>2026-03-11T11:42:20Z</time>
      </trkpt>
      <trkpt lat="47.19683" lon="5.89933">
        <ele>251</ele>
        <time>2026-03-11T11:42:32Z</time>
      </trkpt>
      <trkpt lat="47.19689" lon="5.89958">
        <ele>251</ele>
        <time>2026-03-11T11:42:35Z</time>
      </trkpt>
      <trkpt lat="47.19689" lon="5.89998">
        <ele>251</ele>
        <time>2026-03-11T11:42:40Z</time>
      </trkpt>
      <trkpt lat="47.19693" lon="5.90025">
        <ele>250</ele>
        <time>2026-03-11T11:42:43Z</time>
      </trkpt>
      <trkpt lat="47.19697" lon="5.90067">
        <ele>249</ele>
        <time>2026-03-11T11:42:48Z</time>
      </trkpt>
      <trkpt lat="47.197" lon="5.90073">
        <ele>249</ele>
        <time>2026-03-11T11:42:49Z</time>
      </trkpt>
      <trkpt lat="47.19705" lon="5.90094">
        <ele>248</ele>
        <time>2026-03-11T11:42:52Z</time>
      </trkpt>
      <trkpt lat="47.19704" lon="5.90109">
        <ele>247</ele>
        <time>2026-03-11T11:42:54Z</time>
      </trkpt>
      <trkpt lat="47.19706" lon="5.90121">
        <ele>246</ele>
        <time>2026-03-11T11:42:55Z</time>
      </trkpt>
      <trkpt lat="47.19717" lon="5.90155">
        <ele>244</ele>
        <time>2026-03-11T11:43:00Z</time>
      </trkpt>
      <trkpt lat="47.1973" lon="5.9019">
        <ele>243</ele>
        <time>2026-03-11T11:43:04Z</time>
      </trkpt>
      <trkpt lat="47.19745" lon="5.90223">
        <ele>240</ele>
        <time>2026-03-11T11:43:09Z</time>
      </trkpt>
      <trkpt lat="47.19749" lon="5.90238">
        <ele>239</ele>
        <time>2026-03-11T11:43:11Z</time>
      </trkpt>
      <trkpt lat="47.19751" lon="5.90257">
        <ele>238</ele>
        <time>2026-03-11T11:43:13Z</time>
      </trkpt>
      <trkpt lat="47.19748" lon="5.90275">
        <ele>237</ele>
        <time>2026-03-11T11:43:16Z</time>
      </trkpt>
      <trkpt lat="47.19739" lon="5.90299">
        <ele>236</ele>
        <time>2026-03-11T11:43:19Z</time>
      </trkpt>
      <trkpt lat="47.19736" lon="5.90315">
        <ele>235</ele>
        <time>2026-03-11T11:43:21Z</time>
      </trkpt>
      <trkpt lat="47.19734" lon="5.90345">
        <ele>236</ele>
        <time>2026-03-11T11:43:25Z</time>
      </trkpt>
      <trkpt lat="47.19736" lon="5.90368">
        <ele>238</ele>
        <time>2026-03-11T11:43:27Z</time>
      </trkpt>
      <trkpt lat="47.19741" lon="5.90387">
        <ele>239</ele>
        <time>2026-03-11T11:43:30Z</time>
      </trkpt>
      <trkpt lat="47.1975" lon="5.90401">
        <ele>241</ele>
        <time>2026-03-11T11:43:32Z</time>
      </trkpt>
      <trkpt lat="47.19759" lon="5.90407">
        <ele>241</ele>
        <time>2026-03-11T11:43:34Z</time>
      </trkpt>
      <trkpt lat="47.19768" lon="5.90409">
        <ele>242</ele>
        <time>2026-03-11T11:43:36Z</time>
      </trkpt>
      <trkpt lat="47.19818" lon="5.90398">
        <ele>243</ele>
        <time>2026-03-11T11:43:45Z</time>
      </trkpt>
      <trkpt lat="47.19822" lon="5.90399">
        <ele>243</ele>
        <time>2026-03-11T11:43:45Z</time>
      </trkpt>
      <trkpt lat="47.19826" lon="5.90402">
        <ele>243</ele>
        <time>2026-03-11T11:43:46Z</time>
      </trkpt>
      <trkpt lat="47.19832" lon="5.90411">
        <ele>244</ele>
        <time>2026-03-11T11:43:48Z</time>
      </trkpt>
      <trkpt lat="47.19835" lon="5.90417">
        <ele>245</ele>
        <time>2026-03-11T11:43:49Z</time>
      </trkpt>
      <trkpt lat="47.19836" lon="5.90425">
        <ele>246</ele>
        <time>2026-03-11T11:43:50Z</time>
      </trkpt>
      <trkpt lat="47.19836" lon="5.90431">
        <ele>246</ele>
        <time>2026-03-11T11:43:50Z</time>
      </trkpt>
      <trkpt lat="47.19832" lon="5.90454">
        <ele>248</ele>
        <time>2026-03-11T11:43:53Z</time>
      </trkpt>
      <trkpt lat="47.19825" lon="5.90481">
        <ele>249</ele>
        <time>2026-03-11T11:43:57Z</time>
      </trkpt>
      <trkpt lat="47.19825" lon="5.9049">
        <ele>250</ele>
        <time>2026-03-11T11:43:58Z</time>
      </trkpt>
      <trkpt lat="47.19835" lon="5.90518">
        <ele>251</ele>
        <time>2026-03-11T11:44:02Z</time>
      </trkpt>
      <trkpt lat="47.19836" lon="5.90527">
        <ele>251</ele>
        <time>2026-03-11T11:44:03Z</time>
      </trkpt>
      <trkpt lat="47.19831" lon="5.90532">
        <ele>251</ele>
        <time>2026-03-11T11:44:04Z</time>
      </trkpt>
      <trkpt lat="47.19829" lon="5.9054">
        <ele>250</ele>
        <time>2026-03-11T11:44:05Z</time>
      </trkpt>
      <trkpt lat="47.19829" lon="5.90544">
        <ele>250</ele>
        <time>2026-03-11T11:44:05Z</time>
      </trkpt>
      <trkpt lat="47.19801" lon="5.90553">
        <ele>250</ele>
        <time>2026-03-11T11:44:10Z</time>
      </trkpt>
      <trkpt lat="47.19794" lon="5.90559">
        <ele>250</ele>
        <time>2026-03-11T11:44:12Z</time>
      </trkpt>
      <trkpt lat="47.19788" lon="5.90568">
        <ele>251</ele>
        <time>2026-03-11T11:44:13Z</time>
      </trkpt>
      <trkpt lat="47.19788" lon="5.9057">
        <ele>251</ele>
        <time>2026-03-11T11:44:14Z</time>
      </trkpt>
      <trkpt lat="47.19781" lon="5.90588">
        <ele>252</ele>
        <time>2026-03-11T11:44:16Z</time>
      </trkpt>
      <trkpt lat="47.19775" lon="5.90595">
        <ele>253</ele>
        <time>2026-03-11T11:44:17Z</time>
      </trkpt>
      <trkpt lat="47.19772" lon="5.90597">
        <ele>254</ele>
        <time>2026-03-11T11:44:18Z</time>
      </trkpt>
      <trkpt lat="47.1974" lon="5.90602">
        <ele>255</ele>
        <time>2026-03-11T11:44:24Z</time>
      </trkpt>
      <trkpt lat="47.1973" lon="5.90609">
        <ele>256</ele>
        <time>2026-03-11T11:44:26Z</time>
      </trkpt>
      <trkpt lat="47.19688" lon="5.90677">
        <ele>260</ele>
        <time>2026-03-11T11:44:37Z</time>
      </trkpt>
      <trkpt lat="47.19684" lon="5.90686">
        <ele>260</ele>
        <time>2026-03-11T11:44:38Z</time>
      </trkpt>
      <trkpt lat="47.19664" lon="5.90738">
        <ele>260</ele>
        <time>2026-03-11T11:44:45Z</time>
      </trkpt>
      <trkpt lat="47.19659" lon="5.90751">
        <ele>260</ele>
        <time>2026-03-11T11:44:47Z</time>
      </trkpt>
      <trkpt lat="47.19651" lon="5.90778">
        <ele>257</ele>
        <time>2026-03-11T11:44:51Z</time>
      </trkpt>
      <trkpt lat="47.19642" lon="5.90805">
        <ele>255</ele>
        <time>2026-03-11T11:44:54Z</time>
      </trkpt>
      <trkpt lat="47.19632" lon="5.90843">
        <ele>252</ele>
        <time>2026-03-11T11:44:59Z</time>
      </trkpt>
      <trkpt lat="47.19631" lon="5.90869">
        <ele>250</ele>
        <time>2026-03-11T11:45:02Z</time>
      </trkpt>
      <trkpt lat="47.19633" lon="5.90891">
        <ele>249</ele>
        <time>2026-03-11T11:45:05Z</time>
      </trkpt>
      <trkpt lat="47.19642" lon="5.90924">
        <ele>248</ele>
        <time>2026-03-11T11:45:09Z</time>
      </trkpt>
      <trkpt lat="47.1968" lon="5.91063">
        <ele>244</ele>
        <time>2026-03-11T11:45:28Z</time>
      </trkpt>
      <trkpt lat="47.19695" lon="5.91133">
        <ele>244</ele>
        <time>2026-03-11T11:45:36Z</time>
      </trkpt>
      <trkpt lat="47.19699" lon="5.91165">
        <ele>244</ele>
        <time>2026-03-11T11:45:40Z</time>
      </trkpt>
      <trkpt lat="47.19699" lon="5.91204">
        <ele>244</ele>
        <time>2026-03-11T11:45:45Z</time>
      </trkpt>
      <trkpt lat="47.19691" lon="5.9129">
        <ele>242</ele>
        <time>2026-03-11T11:45:56Z</time>
      </trkpt>
      <trkpt lat="47.19684" lon="5.91318">
        <ele>241</ele>
        <time>2026-03-11T11:45:59Z</time>
      </trkpt>
      <trkpt lat="47.19663" lon="5.91381">
        <ele>242</ele>
        <time>2026-03-11T11:46:08Z</time>
      </trkpt>
      <trkpt lat="47.19645" lon="5.91433">
        <ele>243</ele>
        <time>2026-03-11T11:46:15Z</time>
      </trkpt>
      <trkpt lat="47.19629" lon="5.91462">
        <ele>242</ele>
        <time>2026-03-11T11:46:19Z</time>
      </trkpt>
      <trkpt lat="47.19591" lon="5.91515">
        <ele>241</ele>
        <time>2026-03-11T11:46:29Z</time>
      </trkpt>
      <trkpt lat="47.19572" lon="5.91543">
        <ele>240</ele>
        <time>2026-03-11T11:46:33Z</time>
      </trkpt>
      <trkpt lat="47.19551" lon="5.91576">
        <ele>238</ele>
        <time>2026-03-11T11:46:39Z</time>
      </trkpt>
      <trkpt lat="47.19534" lon="5.91604">
        <ele>238</ele>
        <time>2026-03-11T11:46:43Z</time>
      </trkpt>
      <trkpt lat="47.19532" lon="5.91609">
        <ele>237</ele>
        <time>2026-03-11T11:46:44Z</time>
      </trkpt>
      <trkpt lat="47.19513" lon="5.91649">
        <ele>237</ele>
        <time>2026-03-11T11:46:50Z</time>
      </trkpt>
      <trkpt lat="47.1951" lon="5.91655">
        <ele>236</ele>
        <time>2026-03-11T11:46:51Z</time>
      </trkpt>
      <trkpt lat="47.19508" lon="5.91662">
        <ele>236</ele>
        <time>2026-03-11T11:46:52Z</time>
      </trkpt>
      <trkpt lat="47.19498" lon="5.91683">
        <ele>236</ele>
        <time>2026-03-11T11:46:55Z</time>
      </trkpt>
      <trkpt lat="47.19493" lon="5.91693">
        <ele>237</ele>
        <time>2026-03-11T11:46:56Z</time>
      </trkpt>
      <trkpt lat="47.19486" lon="5.91699">
        <ele>238</ele>
        <time>2026-03-11T11:46:58Z</time>
      </trkpt>
      <trkpt lat="47.1948" lon="5.91703">
        <ele>238</ele>
        <time>2026-03-11T11:46:59Z</time>
      </trkpt>
      <trkpt lat="47.19475" lon="5.91703">
        <ele>238</ele>
        <time>2026-03-11T11:47:00Z</time>
      </trkpt>
      <trkpt lat="47.19465" lon="5.91701">
        <ele>239</ele>
        <time>2026-03-11T11:47:02Z</time>
      </trkpt>
      <trkpt lat="47.19444" lon="5.91689">
        <ele>239</ele>
        <time>2026-03-11T11:47:06Z</time>
      </trkpt>
      <trkpt lat="47.19415" lon="5.91669">
        <ele>240</ele>
        <time>2026-03-11T11:47:11Z</time>
      </trkpt>
      <trkpt lat="47.19404" lon="5.91666">
        <ele>241</ele>
        <time>2026-03-11T11:47:13Z</time>
      </trkpt>
      <trkpt lat="47.19392" lon="5.91666">
        <ele>241</ele>
        <time>2026-03-11T11:47:15Z</time>
      </trkpt>
      <trkpt lat="47.19378" lon="5.91671">
        <ele>242</ele>
        <time>2026-03-11T11:47:18Z</time>
      </trkpt>
      <trkpt lat="47.19356" lon="5.91685">
        <ele>244</ele>
        <time>2026-03-11T11:47:22Z</time>
      </trkpt>
      <trkpt lat="47.19328" lon="5.91706">
        <ele>246</ele>
        <time>2026-03-11T11:47:28Z</time>
      </trkpt>
      <trkpt lat="47.19308" lon="5.91723">
        <ele>247</ele>
        <time>2026-03-11T11:47:32Z</time>
      </trkpt>
      <trkpt lat="47.19303" lon="5.91732">
        <ele>248</ele>
        <time>2026-03-11T11:47:33Z</time>
      </trkpt>
      <trkpt lat="47.19297" lon="5.91741">
        <ele>248</ele>
        <time>2026-03-11T11:47:35Z</time>
      </trkpt>
      <trkpt lat="47.1929" lon="5.91732">
        <ele>248</ele>
        <time>2026-03-11T11:47:37Z</time>
      </trkpt>
      <trkpt lat="47.19285" lon="5.91739">
        <ele>248</ele>
        <time>2026-03-11T11:47:38Z</time>
      </trkpt>
      <trkpt lat="47.19255" lon="5.91796">
        <ele>251</ele>
        <time>2026-03-11T11:47:47Z</time>
      </trkpt>
      <trkpt lat="47.19235" lon="5.91833">
        <ele>253</ele>
        <time>2026-03-11T11:47:52Z</time>
      </trkpt>
      <trkpt lat="47.19215" lon="5.91873">
        <ele>254</ele>
        <time>2026-03-11T11:47:58Z</time>
      </trkpt>
      <trkpt lat="47.19209" lon="5.91885">
        <ele>254</ele>
        <time>2026-03-11T11:48:00Z</time>
      </trkpt>
      <trkpt lat="47.19206" lon="5.9191">
        <ele>255</ele>
        <time>2026-03-11T11:48:03Z</time>
      </trkpt>
      <trkpt lat="47.19206" lon="5.9192">
        <ele>255</ele>
        <time>2026-03-11T11:48:04Z</time>
      </trkpt>
      <trkpt lat="47.19214" lon="5.92038">
        <ele>258</ele>
        <time>2026-03-11T11:48:19Z</time>
      </trkpt>
      <trkpt lat="47.19215" lon="5.92062">
        <ele>259</ele>
        <time>2026-03-11T11:48:22Z</time>
      </trkpt>
      <trkpt lat="47.19212" lon="5.92095">
        <ele>259</ele>
        <time>2026-03-11T11:48:26Z</time>
      </trkpt>
      <trkpt lat="47.192" lon="5.92131">
        <ele>261</ele>
        <time>2026-03-11T11:48:30Z</time>
      </trkpt>
      <trkpt lat="47.19184" lon="5.9217">
        <ele>262</ele>
        <time>2026-03-11T11:48:36Z</time>
      </trkpt>
      <trkpt lat="47.19156" lon="5.92241">
        <ele>265</ele>
        <time>2026-03-11T11:48:46Z</time>
      </trkpt>
      <trkpt lat="47.19143" lon="5.92284">
        <ele>266</ele>
        <time>2026-03-11T11:48:52Z</time>
      </trkpt>
      <trkpt lat="47.19138" lon="5.92316">
        <ele>267</ele>
        <time>2026-03-11T11:48:56Z</time>
      </trkpt>
      <trkpt lat="47.1914" lon="5.92356">
        <ele>268</ele>
        <time>2026-03-11T11:49:00Z</time>
      </trkpt>
      <trkpt lat="47.19149" lon="5.92449">
        <ele>269</ele>
        <time>2026-03-11T11:49:12Z</time>
      </trkpt>
      <trkpt lat="47.19159" lon="5.9252">
        <ele>270</ele>
        <time>2026-03-11T11:49:20Z</time>
      </trkpt>
      <trkpt lat="47.19166" lon="5.92575">
        <ele>269</ele>
        <time>2026-03-11T11:49:27Z</time>
      </trkpt>
      <trkpt lat="47.19176" lon="5.92606">
        <ele>268</ele>
        <time>2026-03-11T11:49:31Z</time>
      </trkpt>
      <trkpt lat="47.19224" lon="5.92698">
        <ele>264</ele>
        <time>2026-03-11T11:49:45Z</time>
      </trkpt>
      <trkpt lat="47.19234" lon="5.92735">
        <ele>264</ele>
        <time>2026-03-11T11:49:50Z</time>
      </trkpt>
      <trkpt lat="47.19231" lon="5.92777">
        <ele>264</ele>
        <time>2026-03-11T11:49:55Z</time>
      </trkpt>
      <trkpt lat="47.19229" lon="5.92787">
        <ele>264</ele>
        <time>2026-03-11T11:49:57Z</time>
      </trkpt>
      <trkpt lat="47.19208" lon="5.92916">
        <ele>263</ele>
        <time>2026-03-11T11:50:13Z</time>
      </trkpt>
      <trkpt lat="47.1917" lon="5.93148">
        <ele>265</ele>
        <time>2026-03-11T11:50:42Z</time>
      </trkpt>
      <trkpt lat="47.19168" lon="5.93158">
        <ele>266</ele>
        <time>2026-03-11T11:50:43Z</time>
      </trkpt>
      <trkpt lat="47.19146" lon="5.93757">
        <ele>252</ele>
        <time>2026-03-11T11:51:55Z</time>
      </trkpt>
      <trkpt lat="47.19137" lon="5.93935">
        <ele>263</ele>
        <time>2026-03-11T11:52:17Z</time>
      </trkpt>
      <trkpt lat="47.19127" lon="5.9399">
        <ele>264</ele>
        <time>2026-03-11T11:52:24Z</time>
      </trkpt>
      <trkpt lat="47.19118" lon="5.94025">
        <ele>263</ele>
        <time>2026-03-11T11:52:28Z</time>
      </trkpt>
      <trkpt lat="47.19109" lon="5.94049">
        <ele>262</ele>
        <time>2026-03-11T11:52:32Z</time>
      </trkpt>
      <trkpt lat="47.19089" lon="5.94082">
        <ele>259</ele>
        <time>2026-03-11T11:52:37Z</time>
      </trkpt>
      <trkpt lat="47.19058" lon="5.94146">
        <ele>255</ele>
        <time>2026-03-11T11:52:46Z</time>
      </trkpt>
      <trkpt lat="47.19046" lon="5.9418">
        <ele>252</ele>
        <time>2026-03-11T11:52:51Z</time>
      </trkpt>
      <trkpt lat="47.19042" lon="5.94215">
        <ele>251</ele>
        <time>2026-03-11T11:52:55Z</time>
      </trkpt>
      <trkpt lat="47.19038" lon="5.94261">
        <ele>250</ele>
        <time>2026-03-11T11:53:01Z</time>
      </trkpt>
      <trkpt lat="47.19041" lon="5.94311">
        <ele>247</ele>
        <time>2026-03-11T11:53:07Z</time>
      </trkpt>
      <trkpt lat="47.19068" lon="5.94456">
        <ele>243</ele>
        <time>2026-03-11T11:53:25Z</time>
      </trkpt>
      <trkpt lat="47.19077" lon="5.94492">
        <ele>242</ele>
        <time>2026-03-11T11:53:30Z</time>
      </trkpt>
      <trkpt lat="47.191" lon="5.94545">
        <ele>241</ele>
        <time>2026-03-11T11:53:37Z</time>
      </trkpt>
      <trkpt lat="47.1912" lon="5.94578">
        <ele>241</ele>
        <time>2026-03-11T11:53:43Z</time>
      </trkpt>
      <trkpt lat="47.19139" lon="5.94599">
        <ele>240</ele>
        <time>2026-03-11T11:53:47Z</time>
      </trkpt>
      <trkpt lat="47.19156" lon="5.94611">
        <ele>240</ele>
        <time>2026-03-11T11:53:50Z</time>
      </trkpt>
      <trkpt lat="47.19176" lon="5.94617">
        <ele>240</ele>
        <time>2026-03-11T11:53:54Z</time>
      </trkpt>
      <trkpt lat="47.19236" lon="5.94625">
        <ele>240</ele>
        <time>2026-03-11T11:54:05Z</time>
      </trkpt>
      <trkpt lat="47.19278" lon="5.94619">
        <ele>242</ele>
        <time>2026-03-11T11:54:12Z</time>
      </trkpt>
      <trkpt lat="47.19371" lon="5.94613">
        <ele>246</ele>
        <time>2026-03-11T11:54:29Z</time>
      </trkpt>
      <trkpt lat="47.19447" lon="5.94631">
        <ele>245</ele>
        <time>2026-03-11T11:54:43Z</time>
      </trkpt>
      <trkpt lat="47.1954" lon="5.94689">
        <ele>242</ele>
        <time>2026-03-11T11:55:00Z</time>
      </trkpt>
      <trkpt lat="47.19633" lon="5.94773">
        <ele>233</ele>
        <time>2026-03-11T11:55:20Z</time>
      </trkpt>
      <trkpt lat="47.19719" lon="5.94861">
        <ele>232</ele>
        <time>2026-03-11T11:55:39Z</time>
      </trkpt>
      <trkpt lat="47.19757" lon="5.94926">
        <ele>232</ele>
        <time>2026-03-11T11:55:49Z</time>
      </trkpt>
      <trkpt lat="47.1993" lon="5.95278">
        <ele>231</ele>
        <time>2026-03-11T11:56:41Z</time>
      </trkpt>
      <trkpt lat="47.19941" lon="5.95304">
        <ele>231</ele>
        <time>2026-03-11T11:56:45Z</time>
      </trkpt>
      <trkpt lat="47.19985" lon="5.95429">
        <ele>232</ele>
        <time>2026-03-11T11:57:02Z</time>
      </trkpt>
      <trkpt lat="47.20031" lon="5.95613">
        <ele>231</ele>
        <time>2026-03-11T11:57:26Z</time>
      </trkpt>
      <trkpt lat="47.20039" lon="5.95631">
        <ele>231</ele>
        <time>2026-03-11T11:57:28Z</time>
      </trkpt>
      <trkpt lat="47.20052" lon="5.95653">
        <ele>230</ele>
        <time>2026-03-11T11:57:32Z</time>
      </trkpt>
      <trkpt lat="47.20075" lon="5.95671">
        <ele>231</ele>
        <time>2026-03-11T11:57:37Z</time>
      </trkpt>
      <trkpt lat="47.20133" lon="5.95699">
        <ele>232</ele>
        <time>2026-03-11T11:57:47Z</time>
      </trkpt>
      <trkpt lat="47.20154" lon="5.95719">
        <ele>232</ele>
        <time>2026-03-11T11:57:52Z</time>
      </trkpt>
      <trkpt lat="47.20168" lon="5.95741">
        <ele>232</ele>
        <time>2026-03-11T11:57:56Z</time>
      </trkpt>
      <trkpt lat="47.20174" lon="5.95755">
        <ele>232</ele>
        <time>2026-03-11T11:57:58Z</time>
      </trkpt>
      <trkpt lat="47.2018" lon="5.9577">
        <ele>232</ele>
        <time>2026-03-11T11:58:00Z</time>
      </trkpt>
      <trkpt lat="47.20184" lon="5.9579">
        <ele>232</ele>
        <time>2026-03-11T11:58:02Z</time>
      </trkpt>
      <trkpt lat="47.20185" lon="5.95806">
        <ele>232</ele>
        <time>2026-03-11T11:58:04Z</time>
      </trkpt>
      <trkpt lat="47.20186" lon="5.95826">
        <ele>232</ele>
        <time>2026-03-11T11:58:07Z</time>
      </trkpt>
      <trkpt lat="47.20185" lon="5.95859">
        <ele>232</ele>
        <time>2026-03-11T11:58:11Z</time>
      </trkpt>
      <trkpt lat="47.2018" lon="5.9606">
        <ele>234</ele>
        <time>2026-03-11T11:58:35Z</time>
      </trkpt>
      <trkpt lat="47.20178" lon="5.96137">
        <ele>235</ele>
        <time>2026-03-11T11:58:44Z</time>
      </trkpt>
      <trkpt lat="47.20178" lon="5.9619">
        <ele>237</ele>
        <time>2026-03-11T11:58:51Z</time>
      </trkpt>
      <trkpt lat="47.20175" lon="5.9621">
        <ele>237</ele>
        <time>2026-03-11T11:58:53Z</time>
      </trkpt>
      <trkpt lat="47.20172" lon="5.96229">
        <ele>237</ele>
        <time>2026-03-11T11:58:55Z</time>
      </trkpt>
      <trkpt lat="47.20169" lon="5.96237">
        <ele>236</ele>
        <time>2026-03-11T11:58:57Z</time>
      </trkpt>
      <trkpt lat="47.20157" lon="5.9625">
        <ele>236</ele>
        <time>2026-03-11T11:58:59Z</time>
      </trkpt>
      <trkpt lat="47.20153" lon="5.96244">
        <ele>235</ele>
        <time>2026-03-11T11:59:00Z</time>
      </trkpt>
      <trkpt lat="47.20151" lon="5.96243">
        <ele>235</ele>
        <time>2026-03-11T11:59:01Z</time>
      </trkpt>
      <trkpt lat="47.20148" lon="5.96243">
        <ele>235</ele>
        <time>2026-03-11T11:59:01Z</time>
      </trkpt>
      <trkpt lat="47.20146" lon="5.96244">
        <ele>235</ele>
        <time>2026-03-11T11:59:01Z</time>
      </trkpt>
      <trkpt lat="47.20143" lon="5.96247">
        <ele>235</ele>
        <time>2026-03-11T11:59:02Z</time>
      </trkpt>
      <trkpt lat="47.20142" lon="5.96251">
        <ele>235</ele>
        <time>2026-03-11T11:59:03Z</time>
      </trkpt>
      <trkpt lat="47.20141" lon="5.96255">
        <ele>235</ele>
        <time>2026-03-11T11:59:03Z</time>
      </trkpt>
      <trkpt lat="47.20142" lon="5.96259">
        <ele>235</ele>
        <time>2026-03-11T11:59:04Z</time>
      </trkpt>
      <trkpt lat="47.20143" lon="5.96262">
        <ele>235</ele>
        <time>2026-03-11T11:59:04Z</time>
      </trkpt>
      <trkpt lat="47.20147" lon="5.96267">
        <ele>236</ele>
        <time>2026-03-11T11:59:05Z</time>
      </trkpt>
      <trkpt lat="47.20152" lon="5.96268">
        <ele>236</ele>
        <time>2026-03-11T11:59:06Z</time>
      </trkpt>
      <trkpt lat="47.20151" lon="5.96292">
        <ele>237</ele>
        <time>2026-03-11T11:59:09Z</time>
      </trkpt>
      <trkpt lat="47.20149" lon="5.96299">
        <ele>238</ele>
        <time>2026-03-11T11:59:10Z</time>
      </trkpt>
      <trkpt lat="47.20144" lon="5.96326">
        <ele>239</ele>
        <time>2026-03-11T11:59:13Z</time>
      </trkpt>
      <trkpt lat="47.20133" lon="5.96387">
        <ele>240</ele>
        <time>2026-03-11T11:59:21Z</time>
      </trkpt>
      <trkpt lat="47.20132" lon="5.96396">
        <ele>240</ele>
        <time>2026-03-11T11:59:22Z</time>
      </trkpt>
      <trkpt lat="47.20129" lon="5.96415">
        <ele>240</ele>
        <time>2026-03-11T11:59:24Z</time>
      </trkpt>
      <trkpt lat="47.20129" lon="5.96437">
        <ele>241</ele>
        <time>2026-03-11T11:59:27Z</time>
      </trkpt>
      <trkpt lat="47.20118" lon="5.96443">
        <ele>240</ele>
        <time>2026-03-11T11:59:29Z</time>
      </trkpt>
      <trkpt lat="47.20111" lon="5.96451">
        <ele>240</ele>
        <time>2026-03-11T11:59:31Z</time>
      </trkpt>
      <trkpt lat="47.20104" lon="5.96466">
        <ele>240</ele>
        <time>2026-03-11T11:59:33Z</time>
      </trkpt>
      <trkpt lat="47.20095" lon="5.96495">
        <ele>239</ele>
        <time>2026-03-11T11:59:37Z</time>
      </trkpt>
      <trkpt lat="47.20092" lon="5.96516">
        <ele>239</ele>
        <time>2026-03-11T11:59:39Z</time>
      </trkpt>
      <trkpt lat="47.2009" lon="5.96552">
        <ele>240</ele>
        <time>2026-03-11T11:59:44Z</time>
      </trkpt>
      <trkpt lat="47.20088" lon="5.96577">
        <ele>240</ele>
        <time>2026-03-11T11:59:47Z</time>
      </trkpt>
      <trkpt lat="47.20088" lon="5.96596">
        <ele>240</ele>
        <time>2026-03-11T11:59:49Z</time>
      </trkpt>
      <trkpt lat="47.20087" lon="5.96658">
        <ele>241</ele>
        <time>2026-03-11T11:59:56Z</time>
      </trkpt>
      <trkpt lat="47.20088" lon="5.96684">
        <ele>242</ele>
        <time>2026-03-11T12:00:00Z</time>
      </trkpt>
      <trkpt lat="47.20088" lon="5.96696">
        <ele>242</ele>
        <time>2026-03-11T12:00:01Z</time>
      </trkpt>
      <trkpt lat="47.20088" lon="5.96751">
        <ele>244</ele>
        <time>2026-03-11T12:00:08Z</time>
      </trkpt>
      <trkpt lat="47.20085" lon="5.96804">
        <ele>245</ele>
        <time>2026-03-11T12:00:14Z</time>
      </trkpt>
      <trkpt lat="47.20085" lon="5.96843">
        <ele>246</ele>
        <time>2026-03-11T12:00:19Z</time>
      </trkpt>
      <trkpt lat="47.2009" lon="5.96923">
        <ele>250</ele>
        <time>2026-03-11T12:00:28Z</time>
      </trkpt>
      <trkpt lat="47.20096" lon="5.97005">
        <ele>250</ele>
        <time>2026-03-11T12:00:38Z</time>
      </trkpt>
      <trkpt lat="47.20097" lon="5.97021">
        <ele>250</ele>
        <time>2026-03-11T12:00:40Z</time>
      </trkpt>
      <trkpt lat="47.20096" lon="5.97042">
        <ele>249</ele>
        <time>2026-03-11T12:00:43Z</time>
      </trkpt>
      <trkpt lat="47.20095" lon="5.97053">
        <ele>248</ele>
        <time>2026-03-11T12:00:44Z</time>
      </trkpt>
      <trkpt lat="47.20088" lon="5.97081">
        <ele>244</ele>
        <time>2026-03-11T12:00:48Z</time>
      </trkpt>
      <trkpt lat="47.20077" lon="5.97114">
        <ele>242</ele>
        <time>2026-03-11T12:00:52Z</time>
      </trkpt>
      <trkpt lat="47.20074" lon="5.97133">
        <ele>241</ele>
        <time>2026-03-11T12:00:55Z</time>
      </trkpt>
      <trkpt lat="47.20071" lon="5.97153">
        <ele>241</ele>
        <time>2026-03-11T12:00:57Z</time>
      </trkpt>
      <trkpt lat="47.20061" lon="5.97237">
        <ele>241</ele>
        <time>2026-03-11T12:01:07Z</time>
      </trkpt>
      <trkpt lat="47.20052" lon="5.97292">
        <ele>242</ele>
        <time>2026-03-11T12:01:14Z</time>
      </trkpt>
      <trkpt lat="47.20042" lon="5.97332">
        <ele>242</ele>
        <time>2026-03-11T12:01:19Z</time>
      </trkpt>
      <trkpt lat="47.20038" lon="5.97339">
        <ele>242</ele>
        <time>2026-03-11T12:01:21Z</time>
      </trkpt>
      <trkpt lat="47.20021" lon="5.97364">
        <ele>241</ele>
        <time>2026-03-11T12:01:25Z</time>
      </trkpt>
      <trkpt lat="47.20015" lon="5.97374">
        <ele>241</ele>
        <time>2026-03-11T12:01:26Z</time>
      </trkpt>
      <trkpt lat="47.2001" lon="5.97387">
        <ele>240</ele>
        <time>2026-03-11T12:01:28Z</time>
      </trkpt>
      <trkpt lat="47.2001" lon="5.97391">
        <ele>241</ele>
        <time>2026-03-11T12:01:29Z</time>
      </trkpt>
      <trkpt lat="47.20005" lon="5.9743">
        <ele>241</ele>
        <time>2026-03-11T12:01:34Z</time>
      </trkpt>
      <trkpt lat="47.20001" lon="5.97481">
        <ele>242</ele>
        <time>2026-03-11T12:01:40Z</time>
      </trkpt>
      <trkpt lat="47.20002" lon="5.97527">
        <ele>241</ele>
        <time>2026-03-11T12:01:45Z</time>
      </trkpt>
      <trkpt lat="47.20006" lon="5.97578">
        <ele>239</ele>
        <time>2026-03-11T12:01:52Z</time>
      </trkpt>
      <trkpt lat="47.20012" lon="5.97766">
        <ele>248</ele>
        <time>2026-03-11T12:02:14Z</time>
      </trkpt>
      <trkpt lat="47.20006" lon="5.97834">
        <ele>244</ele>
        <time>2026-03-11T12:02:23Z</time>
      </trkpt>
      <trkpt lat="47.19989" lon="5.98001">
        <ele>238</ele>
        <time>2026-03-11T12:02:43Z</time>
      </trkpt>
      <trkpt lat="47.19988" lon="5.98062">
        <ele>238</ele>
        <time>2026-03-11T12:02:50Z</time>
      </trkpt>
      <trkpt lat="47.19995" lon="5.98202">
        <ele>239</ele>
        <time>2026-03-11T12:03:07Z</time>
      </trkpt>
      <trkpt lat="47.20012" lon="5.98286">
        <ele>237</ele>
        <time>2026-03-11T12:03:18Z</time>
      </trkpt>
      <trkpt lat="47.20114" lon="5.98517">
        <ele>236</ele>
        <time>2026-03-11T12:03:51Z</time>
      </trkpt>
      <trkpt lat="47.20129" lon="5.98579">
        <ele>236</ele>
        <time>2026-03-11T12:03:59Z</time>
      </trkpt>
      <trkpt lat="47.20143" lon="5.98642">
        <ele>235</ele>
        <time>2026-03-11T12:04:07Z</time>
      </trkpt>
      <trkpt lat="47.20159" lon="5.98682">
        <ele>234</ele>
        <time>2026-03-11T12:04:13Z</time>
      </trkpt>
      <trkpt lat="47.20179" lon="5.98711">
        <ele>234</ele>
        <time>2026-03-11T12:04:18Z</time>
      </trkpt>
      <trkpt lat="47.20216" lon="5.9875">
        <ele>234</ele>
        <time>2026-03-11T12:04:26Z</time>
      </trkpt>
      <trkpt lat="47.20223" lon="5.98752">
        <ele>234</ele>
        <time>2026-03-11T12:04:27Z</time>
      </trkpt>
      <trkpt lat="47.20232" lon="5.98759">
        <ele>235</ele>
        <time>2026-03-11T12:04:29Z</time>
      </trkpt>
      <trkpt lat="47.20242" lon="5.98762">
        <ele>235</ele>
        <time>2026-03-11T12:04:31Z</time>
      </trkpt>
      <trkpt lat="47.20251" lon="5.98769">
        <ele>235</ele>
        <time>2026-03-11T12:04:33Z</time>
      </trkpt>
      <trkpt lat="47.20264" lon="5.98788">
        <ele>235</ele>
        <time>2026-03-11T12:04:36Z</time>
      </trkpt>
      <trkpt lat="47.20283" lon="5.98814">
        <ele>235</ele>
        <time>2026-03-11T12:04:40Z</time>
      </trkpt>
      <trkpt lat="47.20367" lon="5.98941">
        <ele>233</ele>
        <time>2026-03-11T12:05:02Z</time>
      </trkpt>
      <trkpt lat="47.20381" lon="5.9896">
        <ele>233</ele>
        <time>2026-03-11T12:05:05Z</time>
      </trkpt>
      <trkpt lat="47.2039" lon="5.98968">
        <ele>233</ele>
        <time>2026-03-11T12:05:07Z</time>
      </trkpt>
      <trkpt lat="47.20402" lon="5.98976">
        <ele>233</ele>
        <time>2026-03-11T12:05:10Z</time>
      </trkpt>
      <trkpt lat="47.20416" lon="5.98982">
        <ele>233</ele>
        <time>2026-03-11T12:05:12Z</time>
      </trkpt>
      <trkpt lat="47.20427" lon="5.98989">
        <ele>233</ele>
        <time>2026-03-11T12:05:14Z</time>
      </trkpt>
      <trkpt lat="47.20439" lon="5.98998">
        <ele>233</ele>
        <time>2026-03-11T12:05:17Z</time>
      </trkpt>
      <trkpt lat="47.20458" lon="5.99017">
        <ele>234</ele>
        <time>2026-03-11T12:05:21Z</time>
      </trkpt>
      <trkpt lat="47.20491" lon="5.99062">
        <ele>235</ele>
        <time>2026-03-11T12:05:29Z</time>
      </trkpt>
      <trkpt lat="47.20511" lon="5.99087">
        <ele>236</ele>
        <time>2026-03-11T12:05:33Z</time>
      </trkpt>
      <trkpt lat="47.20523" lon="5.991">
        <ele>235</ele>
        <time>2026-03-11T12:05:36Z</time>
      </trkpt>
      <trkpt lat="47.20584" lon="5.99158">
        <ele>233</ele>
        <time>2026-03-11T12:05:49Z</time>
      </trkpt>
      <trkpt lat="47.20612" lon="5.99187">
        <ele>234</ele>
        <time>2026-03-11T12:05:55Z</time>
      </trkpt>
      <trkpt lat="47.20631" lon="5.99206">
        <ele>235</ele>
        <time>2026-03-11T12:05:59Z</time>
      </trkpt>
      <trkpt lat="47.20656" lon="5.99236">
        <ele>235</ele>
        <time>2026-03-11T12:06:05Z</time>
      </trkpt>
      <trkpt lat="47.20668" lon="5.99253">
        <ele>235</ele>
        <time>2026-03-11T12:06:08Z</time>
      </trkpt>
      <trkpt lat="47.20695" lon="5.993">
        <ele>234</ele>
        <time>2026-03-11T12:06:15Z</time>
      </trkpt>
      <trkpt lat="47.20716" lon="5.99336">
        <ele>234</ele>
        <time>2026-03-11T12:06:21Z</time>
      </trkpt>
      <trkpt lat="47.20728" lon="5.99355">
        <ele>234</ele>
        <time>2026-03-11T12:06:24Z</time>
      </trkpt>
      <trkpt lat="47.20754" lon="5.99378">
        <ele>235</ele>
        <time>2026-03-11T12:06:30Z</time>
      </trkpt>
      <trkpt lat="47.20793" lon="5.99401">
        <ele>236</ele>
        <time>2026-03-11T12:06:37Z</time>
      </trkpt>
      <trkpt lat="47.20836" lon="5.99429">
        <ele>237</ele>
        <time>2026-03-11T12:06:45Z</time>
      </trkpt>
      <trkpt lat="47.20879" lon="5.99452">
        <ele>237</ele>
        <time>2026-03-11T12:06:54Z</time>
      </trkpt>
      <trkpt lat="47.20943" lon="5.99498">
        <ele>238</ele>
        <time>2026-03-11T12:07:06Z</time>
      </trkpt>
      <trkpt lat="47.20969" lon="5.9952">
        <ele>237</ele>
        <time>2026-03-11T12:07:12Z</time>
      </trkpt>
      <trkpt lat="47.21003" lon="5.99542">
        <ele>235</ele>
        <time>2026-03-11T12:07:18Z</time>
      </trkpt>
      <trkpt lat="47.21025" lon="5.99561">
        <ele>234</ele>
        <time>2026-03-11T12:07:23Z</time>
      </trkpt>
      <trkpt lat="47.21071" lon="5.99605">
        <ele>235</ele>
        <time>2026-03-11T12:07:32Z</time>
      </trkpt>
      <trkpt lat="47.21105" lon="5.99639">
        <ele>235</ele>
        <time>2026-03-11T12:07:40Z</time>
      </trkpt>
      <trkpt lat="47.21157" lon="5.99693">
        <ele>236</ele>
        <time>2026-03-11T12:07:51Z</time>
      </trkpt>
      <trkpt lat="47.21169" lon="5.99704">
        <ele>236</ele>
        <time>2026-03-11T12:07:54Z</time>
      </trkpt>
      <trkpt lat="47.21186" lon="5.99721">
        <ele>237</ele>
        <time>2026-03-11T12:07:57Z</time>
      </trkpt>
      <trkpt lat="47.21219" lon="5.99757">
        <ele>240</ele>
        <time>2026-03-11T12:08:05Z</time>
      </trkpt>
      <trkpt lat="47.21253" lon="5.99797">
        <ele>241</ele>
        <time>2026-03-11T12:08:12Z</time>
      </trkpt>
      <trkpt lat="47.21318" lon="5.99875">
        <ele>246</ele>
        <time>2026-03-11T12:08:27Z</time>
      </trkpt>
      <trkpt lat="47.21383" lon="5.99946">
        <ele>247</ele>
        <time>2026-03-11T12:08:42Z</time>
      </trkpt>
      <trkpt lat="47.21453" lon="6.00022">
        <ele>240</ele>
        <time>2026-03-11T12:08:57Z</time>
      </trkpt>
      <trkpt lat="47.21481" lon="6.00047">
        <ele>238</ele>
        <time>2026-03-11T12:09:03Z</time>
      </trkpt>
      <trkpt lat="47.21514" lon="6.00072">
        <ele>237</ele>
        <time>2026-03-11T12:09:10Z</time>
      </trkpt>
      <trkpt lat="47.21525" lon="6.00085">
        <ele>237</ele>
        <time>2026-03-11T12:09:12Z</time>
      </trkpt>
      <trkpt lat="47.21553" lon="6.00143">
        <ele>237</ele>
        <time>2026-03-11T12:09:21Z</time>
      </trkpt>
      <trkpt lat="47.21579" lon="6.00191">
        <ele>237</ele>
        <time>2026-03-11T12:09:28Z</time>
      </trkpt>
      <trkpt lat="47.21634" lon="6.00269">
        <ele>239</ele>
        <time>2026-03-11T12:09:42Z</time>
      </trkpt>
      <trkpt lat="47.21651" lon="6.00297">
        <ele>240</ele>
        <time>2026-03-11T12:09:46Z</time>
      </trkpt>
      <trkpt lat="47.21689" lon="6.00393">
        <ele>239</ele>
        <time>2026-03-11T12:10:00Z</time>
      </trkpt>
      <trkpt lat="47.21711" lon="6.00441">
        <ele>239</ele>
        <time>2026-03-11T12:10:07Z</time>
      </trkpt>
      <trkpt lat="47.21773" lon="6.00604">
        <ele>237</ele>
        <time>2026-03-11T12:10:29Z</time>
      </trkpt>
      <trkpt lat="47.21767" lon="6.0061">
        <ele>235</ele>
        <time>2026-03-11T12:10:31Z</time>
      </trkpt>
      <trkpt lat="47.21764" lon="6.00619">
        <ele>234</ele>
        <time>2026-03-11T12:10:32Z</time>
      </trkpt>
      <trkpt lat="47.21763" lon="6.0063">
        <ele>234</ele>
        <time>2026-03-11T12:10:33Z</time>
      </trkpt>
      <trkpt lat="47.21761" lon="6.00764">
        <ele>236</ele>
        <time>2026-03-11T12:10:49Z</time>
      </trkpt>
      <trkpt lat="47.2176" lon="6.00812">
        <ele>237</ele>
        <time>2026-03-11T12:10:55Z</time>
      </trkpt>
      <trkpt lat="47.2176" lon="6.00876">
        <ele>238</ele>
        <time>2026-03-11T12:11:03Z</time>
      </trkpt>
      <trkpt lat="47.21765" lon="6.01126">
        <ele>236</ele>
        <time>2026-03-11T12:11:33Z</time>
      </trkpt>
      <trkpt lat="47.21764" lon="6.01179">
        <ele>235</ele>
        <time>2026-03-11T12:11:39Z</time>
      </trkpt>
      <trkpt lat="47.21766" lon="6.01209">
        <ele>235</ele>
        <time>2026-03-11T12:11:43Z</time>
      </trkpt>
      <trkpt lat="47.21767" lon="6.0122">
        <ele>235</ele>
        <time>2026-03-11T12:11:44Z</time>
      </trkpt>
      <trkpt lat="47.21765" lon="6.01246">
        <ele>234</ele>
        <time>2026-03-11T12:11:48Z</time>
      </trkpt>
      <trkpt lat="47.21765" lon="6.01246">
        <ele>234</ele>
        <time>2026-03-11T12:11:48Z</time>
      </trkpt>
      <trkpt lat="47.21765" lon="6.01293">
        <ele>234</ele>
        <time>2026-03-11T12:11:53Z</time>
      </trkpt>
      <trkpt lat="47.21771" lon="6.01371">
        <ele>235</ele>
        <time>2026-03-11T12:12:03Z</time>
      </trkpt>
      <trkpt lat="47.21774" lon="6.01421">
        <ele>235</ele>
        <time>2026-03-11T12:12:09Z</time>
      </trkpt>
      <trkpt lat="47.21777" lon="6.01516">
        <ele>237</ele>
        <time>2026-03-11T12:12:20Z</time>
      </trkpt>
      <trkpt lat="47.21781" lon="6.01586">
        <ele>238</ele>
        <time>2026-03-11T12:12:29Z</time>
      </trkpt>
      <trkpt lat="47.21781" lon="6.01586">
        <ele>238</ele>
        <time>2026-03-11T12:12:29Z</time>
      </trkpt>
      <trkpt lat="47.2182" lon="6.01784">
        <ele>237</ele>
        <time>2026-03-11T12:12:54Z</time>
      </trkpt>
      <trkpt lat="47.2183" lon="6.01832">
        <ele>238</ele>
        <time>2026-03-11T12:13:00Z</time>
      </trkpt>
      <trkpt lat="47.21833" lon="6.01855">
        <ele>238</ele>
        <time>2026-03-11T12:13:03Z</time>
      </trkpt>
      <trkpt lat="47.21842" lon="6.01885">
        <ele>238</ele>
        <time>2026-03-11T12:13:07Z</time>
      </trkpt>
      <trkpt lat="47.21876" lon="6.0198">
        <ele>238</ele>
        <time>2026-03-11T12:13:20Z</time>
      </trkpt>
      <trkpt lat="47.21893" lon="6.02022">
        <ele>238</ele>
        <time>2026-03-11T12:13:25Z</time>
      </trkpt>
      <trkpt lat="47.21908" lon="6.02037">
        <ele>238</ele>
        <time>2026-03-11T12:13:29Z</time>
      </trkpt>
      <trkpt lat="47.21911" lon="6.02042">
        <ele>238</ele>
        <time>2026-03-11T12:13:29Z</time>
      </trkpt>
      <trkpt lat="47.21931" lon="6.02067">
        <ele>241</ele>
        <time>2026-03-11T12:13:34Z</time>
      </trkpt>
      <trkpt lat="47.21931" lon="6.02067">
        <ele>241</ele>
        <time>2026-03-11T12:13:34Z</time>
      </trkpt>
      <trkpt lat="47.21935" lon="6.02072">
        <ele>241</ele>
        <time>2026-03-11T12:13:35Z</time>
      </trkpt>
      <trkpt lat="47.21946" lon="6.02107">
        <ele>242</ele>
        <time>2026-03-11T12:13:40Z</time>
      </trkpt>
      <trkpt lat="47.21967" lon="6.02152">
        <ele>243</ele>
        <time>2026-03-11T12:13:46Z</time>
      </trkpt>
      <trkpt lat="47.21987" lon="6.02186">
        <ele>244</ele>
        <time>2026-03-11T12:13:52Z</time>
      </trkpt>
      <trkpt lat="47.22021" lon="6.02241">
        <ele>249</ele>
        <time>2026-03-11T12:14:01Z</time>
      </trkpt>
      <trkpt lat="47.22034" lon="6.02277">
        <ele>249</ele>
        <time>2026-03-11T12:14:06Z</time>
      </trkpt>
      <trkpt lat="47.22072" lon="6.02373">
        <ele>246</ele>
        <time>2026-03-11T12:14:19Z</time>
      </trkpt>
      <trkpt lat="47.22125" lon="6.02539">
        <ele>243</ele>
        <time>2026-03-11T12:14:41Z</time>
      </trkpt>
      <trkpt lat="47.22182" lon="6.02668">
        <ele>242</ele>
        <time>2026-03-11T12:15:00Z</time>
      </trkpt>
      <trkpt lat="47.22233" lon="6.02763">
        <ele>242</ele>
        <time>2026-03-11T12:15:15Z</time>
      </trkpt>
      <trkpt lat="47.22253" lon="6.02789">
        <ele>243</ele>
        <time>2026-03-11T12:15:19Z</time>
      </trkpt>
      <trkpt lat="47.223" lon="6.02828">
        <ele>245</ele>
        <time>2026-03-11T12:15:29Z</time>
      </trkpt>
      <trkpt lat="47.22348" lon="6.02871">
        <ele>246</ele>
        <time>2026-03-11T12:15:39Z</time>
      </trkpt>
      <trkpt lat="47.22381" lon="6.02911">
        <ele>243</ele>
        <time>2026-03-11T12:15:46Z</time>
      </trkpt>
      <trkpt lat="47.22384" lon="6.02915">
        <ele>242</ele>
        <time>2026-03-11T12:15:47Z</time>
      </trkpt>
      <trkpt lat="47.22392" lon="6.02929">
        <ele>242</ele>
        <time>2026-03-11T12:15:49Z</time>
      </trkpt>
      <trkpt lat="47.22416" lon="6.02994">
        <ele>239</ele>
        <time>2026-03-11T12:15:58Z</time>
      </trkpt>
      <trkpt lat="47.22423" lon="6.03009">
        <ele>239</ele>
        <time>2026-03-11T12:16:01Z</time>
      </trkpt>
      <trkpt lat="47.22439" lon="6.03029">
        <ele>240</ele>
        <time>2026-03-11T12:16:04Z</time>
      </trkpt>
      <trkpt lat="47.22448" lon="6.0304">
        <ele>240</ele>
        <time>2026-03-11T12:16:06Z</time>
      </trkpt>
      <trkpt lat="47.22465" lon="6.03051">
        <ele>241</ele>
        <time>2026-03-11T12:16:10Z</time>
      </trkpt>
      <trkpt lat="47.22468" lon="6.03052">
        <ele>241</ele>
        <time>2026-03-11T12:16:10Z</time>
      </trkpt>
      <trkpt lat="47.22493" lon="6.03066">
        <ele>242</ele>
        <time>2026-03-11T12:16:15Z</time>
      </trkpt>
      <trkpt lat="47.22509" lon="6.03076">
        <ele>242</ele>
        <time>2026-03-11T12:16:18Z</time>
      </trkpt>
      <trkpt lat="47.22519" lon="6.03084">
        <ele>242</ele>
        <time>2026-03-11T12:16:20Z</time>
      </trkpt>
      <trkpt lat="47.22535" lon="6.03097">
        <ele>243</ele>
        <time>2026-03-11T12:16:23Z</time>
      </trkpt>
      <trkpt lat="47.22562" lon="6.03119">
        <ele>244</ele>
        <time>2026-03-11T12:16:29Z</time>
      </trkpt>
      <trkpt lat="47.22584" lon="6.03134">
        <ele>245</ele>
        <time>2026-03-11T12:16:33Z</time>
      </trkpt>
      <trkpt lat="47.22604" lon="6.03143">
        <ele>245</ele>
        <time>2026-03-11T12:16:37Z</time>
      </trkpt>
      <trkpt lat="47.22611" lon="6.03145">
        <ele>244</ele>
        <time>2026-03-11T12:16:38Z</time>
      </trkpt>
      <trkpt lat="47.22622" lon="6.03147">
        <ele>244</ele>
        <time>2026-03-11T12:16:40Z</time>
      </trkpt>
      <trkpt lat="47.22629" lon="6.03146">
        <ele>244</ele>
        <time>2026-03-11T12:16:41Z</time>
      </trkpt>
      <trkpt lat="47.22632" lon="6.03152">
        <ele>244</ele>
        <time>2026-03-11T12:16:42Z</time>
      </trkpt>
      <trkpt lat="47.22641" lon="6.03155">
        <ele>243</ele>
        <time>2026-03-11T12:16:44Z</time>
      </trkpt>
      <trkpt lat="47.22653" lon="6.03152">
        <ele>243</ele>
        <time>2026-03-11T12:16:46Z</time>
      </trkpt>
      <trkpt lat="47.22685" lon="6.03144">
        <ele>241</ele>
        <time>2026-03-11T12:16:52Z</time>
      </trkpt>
      <trkpt lat="47.22698" lon="6.03138">
        <ele>241</ele>
        <time>2026-03-11T12:16:54Z</time>
      </trkpt>
      <trkpt lat="47.22723" lon="6.03121">
        <ele>240</ele>
        <time>2026-03-11T12:16:59Z</time>
      </trkpt>
      <trkpt lat="47.22746" lon="6.03093">
        <ele>240</ele>
        <time>2026-03-11T12:17:04Z</time>
      </trkpt>
      <trkpt lat="47.22746" lon="6.03093">
        <ele>240</ele>
        <time>2026-03-11T12:17:04Z</time>
      </trkpt>
      <trkpt lat="47.22751" lon="6.03081">
        <ele>240</ele>
        <time>2026-03-11T12:17:06Z</time>
      </trkpt>
      <trkpt lat="47.22758" lon="6.03073">
        <ele>241</ele>
        <time>2026-03-11T12:17:08Z</time>
      </trkpt>
      <trkpt lat="47.22765" lon="6.03066">
        <ele>242</ele>
        <time>2026-03-11T12:17:09Z</time>
      </trkpt>
      <trkpt lat="47.22804" lon="6.03013">
        <ele>244</ele>
        <time>2026-03-11T12:17:19Z</time>
      </trkpt>
      <trkpt lat="47.22804" lon="6.03013">
        <ele>244</ele>
        <time>2026-03-11T12:17:19Z</time>
      </trkpt>
      <trkpt lat="47.22844" lon="6.02947">
        <ele>247</ele>
        <time>2026-03-11T12:17:29Z</time>
      </trkpt>
      <trkpt lat="47.22851" lon="6.02929">
        <ele>247</ele>
        <time>2026-03-11T12:17:32Z</time>
      </trkpt>
      <trkpt lat="47.22855" lon="6.02913">
        <ele>248</ele>
        <time>2026-03-11T12:17:34Z</time>
      </trkpt>
      <trkpt lat="47.22886" lon="6.02812">
        <ele>250</ele>
        <time>2026-03-11T12:17:47Z</time>
      </trkpt>
      <trkpt lat="47.22904" lon="6.02742">
        <ele>255</ele>
        <time>2026-03-11T12:17:56Z</time>
      </trkpt>
      <trkpt lat="47.22928" lon="6.02663">
        <ele>265</ele>
        <time>2026-03-11T12:18:07Z</time>
      </trkpt>
      <trkpt lat="47.2295" lon="6.02581">
        <ele>263</ele>
        <time>2026-03-11T12:18:17Z</time>
      </trkpt>
      <trkpt lat="47.2296" lon="6.02538">
        <ele>262</ele>
        <time>2026-03-11T12:18:23Z</time>
      </trkpt>
      <trkpt lat="47.22966" lon="6.025">
        <ele>261</ele>
        <time>2026-03-11T12:18:28Z</time>
      </trkpt>
      <trkpt lat="47.22968" lon="6.02465">
        <ele>265</ele>
        <time>2026-03-11T12:18:32Z</time>
      </trkpt>
      <trkpt lat="47.2297" lon="6.02448">
        <ele>267</ele>
        <time>2026-03-11T12:18:34Z</time>
      </trkpt>
      <trkpt lat="47.22972" lon="6.02431">
        <ele>268</ele>
        <time>2026-03-11T12:18:36Z</time>
      </trkpt>
      <trkpt lat="47.22983" lon="6.02395">
        <ele>264</ele>
        <time>2026-03-11T12:18:41Z</time>
      </trkpt>
      <trkpt lat="47.2299" lon="6.02353">
        <ele>263</ele>
        <time>2026-03-11T12:18:46Z</time>
      </trkpt>
      <trkpt lat="47.22998" lon="6.02234">
        <ele>264</ele>
        <time>2026-03-11T12:19:01Z</time>
      </trkpt>
      <trkpt lat="47.22999" lon="6.02206">
        <ele>260</ele>
        <time>2026-03-11T12:19:04Z</time>
      </trkpt>
      <trkpt lat="47.22998" lon="6.02136">
        <ele>256</ele>
        <time>2026-03-11T12:19:12Z</time>
      </trkpt>
      <trkpt lat="47.22998" lon="6.02084">
        <ele>253</ele>
        <time>2026-03-11T12:19:19Z</time>
      </trkpt>
      <trkpt lat="47.22995" lon="6.02001">
        <ele>256</ele>
        <time>2026-03-11T12:19:29Z</time>
      </trkpt>
      <trkpt lat="47.22984" lon="6.01933">
        <ele>265</ele>
        <time>2026-03-11T12:19:37Z</time>
      </trkpt>
      <trkpt lat="47.22982" lon="6.01898">
        <ele>267</ele>
        <time>2026-03-11T12:19:41Z</time>
      </trkpt>
      <trkpt lat="47.22982" lon="6.01841">
        <ele>272</ele>
        <time>2026-03-11T12:19:48Z</time>
      </trkpt>
      <trkpt lat="47.22984" lon="6.01814">
        <ele>271</ele>
        <time>2026-03-11T12:19:52Z</time>
      </trkpt>
      <trkpt lat="47.2299" lon="6.01794">
        <ele>267</ele>
        <time>2026-03-11T12:19:54Z</time>
      </trkpt>
      <trkpt lat="47.23003" lon="6.01755">
        <ele>260</ele>
        <time>2026-03-11T12:19:59Z</time>
      </trkpt>
      <trkpt lat="47.23037" lon="6.01709">
        <ele>254</ele>
        <time>2026-03-11T12:20:08Z</time>
      </trkpt>
      <trkpt lat="47.23041" lon="6.01706">
        <ele>253</ele>
        <time>2026-03-11T12:20:08Z</time>
      </trkpt>
      <trkpt lat="47.23051" lon="6.01698">
        <ele>251</ele>
        <time>2026-03-11T12:20:11Z</time>
      </trkpt>
      <trkpt lat="47.23083" lon="6.01668">
        <ele>246</ele>
        <time>2026-03-11T12:20:17Z</time>
      </trkpt>
      <trkpt lat="47.23088" lon="6.01663">
        <ele>246</ele>
        <time>2026-03-11T12:20:18Z</time>
      </trkpt>
      <trkpt lat="47.23091" lon="6.0166">
        <ele>246</ele>
        <time>2026-03-11T12:20:19Z</time>
      </trkpt>
      <trkpt lat="47.23114" lon="6.01644">
        <ele>246</ele>
        <time>2026-03-11T12:20:24Z</time>
      </trkpt>
      <trkpt lat="47.23138" lon="6.01628">
        <ele>246</ele>
        <time>2026-03-11T12:20:28Z</time>
      </trkpt>
      <trkpt lat="47.23158" lon="6.0162">
        <ele>245</ele>
        <time>2026-03-11T12:20:32Z</time>
      </trkpt>
      <trkpt lat="47.23199" lon="6.01605">
        <ele>247</ele>
        <time>2026-03-11T12:20:39Z</time>
      </trkpt>
      <trkpt lat="47.23221" lon="6.016">
        <ele>247</ele>
        <time>2026-03-11T12:20:43Z</time>
      </trkpt>
      <trkpt lat="47.23228" lon="6.01597">
        <ele>248</ele>
        <time>2026-03-11T12:20:45Z</time>
      </trkpt>
      <trkpt lat="47.23236" lon="6.01595">
        <ele>248</ele>
        <time>2026-03-11T12:20:46Z</time>
      </trkpt>
      <trkpt lat="47.23273" lon="6.01584">
        <ele>249</ele>
        <time>2026-03-11T12:20:53Z</time>
      </trkpt>
      <trkpt lat="47.23315" lon="6.01572">
        <ele>249</ele>
        <time>2026-03-11T12:21:00Z</time>
      </trkpt>
      <trkpt lat="47.23359" lon="6.01564">
        <ele>249</ele>
        <time>2026-03-11T12:21:08Z</time>
      </trkpt>
      <trkpt lat="47.23426" lon="6.01556">
        <ele>248</ele>
        <time>2026-03-11T12:21:20Z</time>
      </trkpt>
      <trkpt lat="47.23437" lon="6.01553">
        <ele>247</ele>
        <time>2026-03-11T12:21:22Z</time>
      </trkpt>
      <trkpt lat="47.23442" lon="6.01554">
        <ele>247</ele>
        <time>2026-03-11T12:21:23Z</time>
      </trkpt>
      <trkpt lat="47.23446" lon="6.01551">
        <ele>247</ele>
        <time>2026-03-11T12:21:24Z</time>
      </trkpt>
      <trkpt lat="47.23451" lon="6.0155">
        <ele>246</ele>
        <time>2026-03-11T12:21:25Z</time>
      </trkpt>
      <trkpt lat="47.23471" lon="6.01546">
        <ele>245</ele>
        <time>2026-03-11T12:21:28Z</time>
      </trkpt>
      <trkpt lat="47.23495" lon="6.01546">
        <ele>244</ele>
        <time>2026-03-11T12:21:33Z</time>
      </trkpt>
      <trkpt lat="47.23534" lon="6.01553">
        <ele>244</ele>
        <time>2026-03-11T12:21:40Z</time>
      </trkpt>
      <trkpt lat="47.23543" lon="6.01558">
        <ele>244</ele>
        <time>2026-03-11T12:21:41Z</time>
      </trkpt>
      <trkpt lat="47.23557" lon="6.0155">
        <ele>245</ele>
        <time>2026-03-11T12:21:44Z</time>
      </trkpt>
      <trkpt lat="47.23567" lon="6.01543">
        <ele>245</ele>
        <time>2026-03-11T12:21:46Z</time>
      </trkpt>
      <trkpt lat="47.23681" lon="6.01516">
        <ele>249</ele>
        <time>2026-03-11T12:22:07Z</time>
      </trkpt>
      <trkpt lat="47.23682" lon="6.01523">
        <ele>249</ele>
        <time>2026-03-11T12:22:07Z</time>
      </trkpt>
      <trkpt lat="47.23675" lon="6.01525">
        <ele>249</ele>
        <time>2026-03-11T12:22:09Z</time>
      </trkpt>
      <trkpt lat="47.23682" lon="6.01523">
        <ele>249</ele>
        <time>2026-03-11T12:22:10Z</time>
      </trkpt>
      <trkpt lat="47.23681" lon="6.01516">
        <ele>249</ele>
        <time>2026-03-11T12:22:11Z</time>
      </trkpt>
      <trkpt lat="47.23702" lon="6.01512">
        <ele>249</ele>
        <time>2026-03-11T12:22:15Z</time>
      </trkpt>
      <trkpt lat="47.23718" lon="6.01506">
        <ele>250</ele>
        <time>2026-03-11T12:22:18Z</time>
      </trkpt>
      <trkpt lat="47.23728" lon="6.01504">
        <ele>250</ele>
        <time>2026-03-11T12:22:19Z</time>
      </trkpt>
      <trkpt lat="47.23755" lon="6.01502">
        <ele>251</ele>
        <time>2026-03-11T12:22:24Z</time>
      </trkpt>
      <trkpt lat="47.23777" lon="6.01498">
        <ele>252</ele>
        <time>2026-03-11T12:22:28Z</time>
      </trkpt>
      <trkpt lat="47.23788" lon="6.01494">
        <ele>253</ele>
        <time>2026-03-11T12:22:30Z</time>
      </trkpt>
      <trkpt lat="47.2381" lon="6.01483">
        <ele>256</ele>
        <time>2026-03-11T12:22:34Z</time>
      </trkpt>
      <trkpt lat="47.23819" lon="6.01481">
        <ele>257</ele>
        <time>2026-03-11T12:22:36Z</time>
      </trkpt>
      <trkpt lat="47.23824" lon="6.01481">
        <ele>257</ele>
        <time>2026-03-11T12:22:37Z</time>
      </trkpt>
      <trkpt lat="47.23981" lon="6.01512">
        <ele>261</ele>
        <time>2026-03-11T12:23:05Z</time>
      </trkpt>
      <trkpt lat="47.24003" lon="6.01515">
        <ele>263</ele>
        <time>2026-03-11T12:23:09Z</time>
      </trkpt>
      <trkpt lat="47.24005" lon="6.01513">
        <ele>263</ele>
        <time>2026-03-11T12:23:09Z</time>
      </trkpt>
      <trkpt lat="47.24007" lon="6.0151">
        <ele>264</ele>
        <time>2026-03-11T12:23:10Z</time>
      </trkpt>
      <trkpt lat="47.24009" lon="6.01499">
        <ele>265</ele>
        <time>2026-03-11T12:23:11Z</time>
      </trkpt>
      <trkpt lat="47.24021" lon="6.01427">
        <ele>272</ele>
        <time>2026-03-11T12:23:20Z</time>
      </trkpt>
      <trkpt lat="47.24022" lon="6.01422">
        <ele>272</ele>
        <time>2026-03-11T12:23:21Z</time>
      </trkpt>
      <trkpt lat="47.24028" lon="6.01383">
        <ele>274</ele>
        <time>2026-03-11T12:23:26Z</time>
      </trkpt>
      <trkpt lat="47.24031" lon="6.01365">
        <ele>275</ele>
        <time>2026-03-11T12:23:28Z</time>
      </trkpt>
      <trkpt lat="47.2403" lon="6.01352">
        <ele>276</ele>
        <time>2026-03-11T12:23:29Z</time>
      </trkpt>
      <trkpt lat="47.24027" lon="6.01343">
        <ele>276</ele>
        <time>2026-03-11T12:23:31Z</time>
      </trkpt>
      <trkpt lat="47.24009" lon="6.01317">
        <ele>276</ele>
        <time>2026-03-11T12:23:35Z</time>
      </trkpt>
      <trkpt lat="47.24001" lon="6.01308">
        <ele>276</ele>
        <time>2026-03-11T12:23:37Z</time>
      </trkpt>
      <trkpt lat="47.23999" lon="6.01305">
        <ele>276</ele>
        <time>2026-03-11T12:23:37Z</time>
      </trkpt>
      <trkpt lat="47.23971" lon="6.01269">
        <ele>277</ele>
        <time>2026-03-11T12:23:44Z</time>
      </trkpt>
      <trkpt lat="47.23965" lon="6.01263">
        <ele>277</ele>
        <time>2026-03-11T12:23:45Z</time>
      </trkpt>
      <trkpt lat="47.23947" lon="6.01241">
        <ele>277</ele>
        <time>2026-03-11T12:23:50Z</time>
      </trkpt>
      <trkpt lat="47.23965" lon="6.01263">
        <ele>277</ele>
        <time>2026-03-11T12:23:54Z</time>
      </trkpt>
      <trkpt lat="47.23971" lon="6.01269">
        <ele>277</ele>
        <time>2026-03-11T12:23:55Z</time>
      </trkpt>
      <trkpt lat="47.24001" lon="6.01308">
        <ele>276</ele>
        <time>2026-03-11T12:24:02Z</time>
      </trkpt>
      <trkpt lat="47.24009" lon="6.01317">
        <ele>276</ele>
        <time>2026-03-11T12:24:04Z</time>
      </trkpt>
      <trkpt lat="47.24027" lon="6.01343">
        <ele>276</ele>
        <time>2026-03-11T12:24:08Z</time>
      </trkpt>
      <trkpt lat="47.2403" lon="6.01352">
        <ele>276</ele>
        <time>2026-03-11T12:24:10Z</time>
      </trkpt>
      <trkpt lat="47.24031" lon="6.01365">
        <ele>275</ele>
        <time>2026-03-11T12:24:11Z</time>
      </trkpt>
      <trkpt lat="47.24034" lon="6.01366">
        <ele>275</ele>
        <time>2026-03-11T12:24:12Z</time>
      </trkpt>
      <trkpt lat="47.2404" lon="6.01369">
        <ele>276</ele>
        <time>2026-03-11T12:24:13Z</time>
      </trkpt>
      <trkpt lat="47.24048" lon="6.01373">
        <ele>276</ele>
        <time>2026-03-11T12:24:14Z</time>
      </trkpt>
      <trkpt lat="47.24071" lon="6.01392">
        <ele>277</ele>
        <time>2026-03-11T12:24:19Z</time>
      </trkpt>
      <trkpt lat="47.24094" lon="6.01406">
        <ele>278</ele>
        <time>2026-03-11T12:24:23Z</time>
      </trkpt>
      <trkpt lat="47.24101" lon="6.0141">
        <ele>278</ele>
        <time>2026-03-11T12:24:25Z</time>
      </trkpt>
      <trkpt lat="47.24132" lon="6.01425">
        <ele>279</ele>
        <time>2026-03-11T12:24:31Z</time>
      </trkpt>
      <trkpt lat="47.24149" lon="6.01433">
        <ele>280</ele>
        <time>2026-03-11T12:24:34Z</time>
      </trkpt>
      <trkpt lat="47.24152" lon="6.01434">
        <ele>280</ele>
        <time>2026-03-11T12:24:34Z</time>
      </trkpt>
      <trkpt lat="47.24182" lon="6.01449">
        <ele>280</ele>
        <time>2026-03-11T12:24:40Z</time>
      </trkpt>
      <trkpt lat="47.24191" lon="6.01456">
        <ele>280</ele>
        <time>2026-03-11T12:24:42Z</time>
      </trkpt>
      <trkpt lat="47.242" lon="6.01463">
        <ele>280</ele>
        <time>2026-03-11T12:24:44Z</time>
      </trkpt>
      <trkpt lat="47.24206" lon="6.01483">
        <ele>278</ele>
        <time>2026-03-11T12:24:46Z</time>
      </trkpt>
      <trkpt lat="47.24214" lon="6.01509">
        <ele>277</ele>
        <time>2026-03-11T12:24:50Z</time>
      </trkpt>
      <trkpt lat="47.24215" lon="6.01517">
        <ele>277</ele>
        <time>2026-03-11T12:24:51Z</time>
      </trkpt>
      <trkpt lat="47.24222" lon="6.01534">
        <ele>277</ele>
        <time>2026-03-11T12:24:53Z</time>
      </trkpt>
      <trkpt lat="47.24232" lon="6.01548">
        <ele>277</ele>
        <time>2026-03-11T12:24:56Z</time>
      </trkpt>
      <trkpt lat="47.2424" lon="6.01549">
        <ele>277</ele>
        <time>2026-03-11T12:24:57Z</time>
      </trkpt>
      <trkpt lat="47.24243" lon="6.01548">
        <ele>278</ele>
        <time>2026-03-11T12:24:57Z</time>
      </trkpt>
      <trkpt lat="47.24247" lon="6.01545">
        <ele>278</ele>
        <time>2026-03-11T12:24:58Z</time>
      </trkpt>
      <trkpt lat="47.2425" lon="6.0154">
        <ele>279</ele>
        <time>2026-03-11T12:24:59Z</time>
      </trkpt>
      <trkpt lat="47.24252" lon="6.01533">
        <ele>279</ele>
        <time>2026-03-11T12:25:00Z</time>
      </trkpt>
      <trkpt lat="47.2424" lon="6.01504">
        <ele>279</ele>
        <time>2026-03-11T12:25:04Z</time>
      </trkpt>
      <trkpt lat="47.24245" lon="6.01492">
        <ele>280</ele>
        <time>2026-03-11T12:25:06Z</time>
      </trkpt>
      <trkpt lat="47.24251" lon="6.01482">
        <ele>281</ele>
        <time>2026-03-11T12:25:07Z</time>
      </trkpt>
      <trkpt lat="47.24278" lon="6.01453">
        <ele>282</ele>
        <time>2026-03-11T12:25:13Z</time>
      </trkpt>
      <trkpt lat="47.24299" lon="6.01426">
        <ele>283</ele>
        <time>2026-03-11T12:25:18Z</time>
      </trkpt>
      <trkpt lat="47.24345" lon="6.01369">
        <ele>283</ele>
        <time>2026-03-11T12:25:29Z</time>
      </trkpt>
      <trkpt lat="47.24375" lon="6.01331">
        <ele>285</ele>
        <time>2026-03-11T12:25:36Z</time>
      </trkpt>
      <trkpt lat="47.24377" lon="6.01327">
        <ele>285</ele>
        <time>2026-03-11T12:25:37Z</time>
      </trkpt>
      <trkpt lat="47.24387" lon="6.01319">
        <ele>285</ele>
        <time>2026-03-11T12:25:39Z</time>
      </trkpt>
      <trkpt lat="47.24395" lon="6.01307">
        <ele>285</ele>
        <time>2026-03-11T12:25:41Z</time>
      </trkpt>
      <trkpt lat="47.24398" lon="6.01297">
        <ele>285</ele>
        <time>2026-03-11T12:25:42Z</time>
      </trkpt>
      <trkpt lat="47.24404" lon="6.01275">
        <ele>285</ele>
        <time>2026-03-11T12:25:45Z</time>
      </trkpt>
      <trkpt lat="47.2441" lon="6.01224">
        <ele>284</ele>
        <time>2026-03-11T12:25:51Z</time>
      </trkpt>
      <trkpt lat="47.24416" lon="6.01207">
        <ele>283</ele>
        <time>2026-03-11T12:25:53Z</time>
      </trkpt>
      <trkpt lat="47.24423" lon="6.01197">
        <ele>283</ele>
        <time>2026-03-11T12:25:55Z</time>
      </trkpt>
      <trkpt lat="47.24432" lon="6.01182">
        <ele>283</ele>
        <time>2026-03-11T12:25:58Z</time>
      </trkpt>
      <trkpt lat="47.24438" lon="6.01168">
        <ele>283</ele>
        <time>2026-03-11T12:26:00Z</time>
      </trkpt>
      <trkpt lat="47.24443" lon="6.01159">
        <ele>283</ele>
        <time>2026-03-11T12:26:01Z</time>
      </trkpt>
      <trkpt lat="47.2445" lon="6.01149">
        <ele>283</ele>
        <time>2026-03-11T12:26:03Z</time>
      </trkpt>
      <trkpt lat="47.24451" lon="6.01147">
        <ele>283</ele>
        <time>2026-03-11T12:26:03Z</time>
      </trkpt>
      <trkpt lat="47.24514" lon="6.0105">
        <ele>283</ele>
        <time>2026-03-11T12:26:19Z</time>
      </trkpt>
      <trkpt lat="47.24519" lon="6.01042">
        <ele>283</ele>
        <time>2026-03-11T12:26:21Z</time>
      </trkpt>
      <trkpt lat="47.24531" lon="6.01024">
        <ele>284</ele>
        <time>2026-03-11T12:26:24Z</time>
      </trkpt>
      <trkpt lat="47.24538" lon="6.01012">
        <ele>285</ele>
        <time>2026-03-11T12:26:26Z</time>
      </trkpt>
      <trkpt lat="47.24549" lon="6.00995">
        <ele>286</ele>
        <time>2026-03-11T12:26:28Z</time>
      </trkpt>
      <trkpt lat="47.24568" lon="6.00966">
        <ele>288</ele>
        <time>2026-03-11T12:26:33Z</time>
      </trkpt>
      <trkpt lat="47.24574" lon="6.00958">
        <ele>288</ele>
        <time>2026-03-11T12:26:35Z</time>
      </trkpt>
      <trkpt lat="47.24604" lon="6.00913">
        <ele>290</ele>
        <time>2026-03-11T12:26:42Z</time>
      </trkpt>
      <trkpt lat="47.24609" lon="6.00905">
        <ele>290</ele>
        <time>2026-03-11T12:26:44Z</time>
      </trkpt>
      <trkpt lat="47.24645" lon="6.00851">
        <ele>290</ele>
        <time>2026-03-11T12:26:53Z</time>
      </trkpt>
      <trkpt lat="47.24647" lon="6.00848">
        <ele>290</ele>
        <time>2026-03-11T12:26:53Z</time>
      </trkpt>
      <trkpt lat="47.24653" lon="6.00839">
        <ele>290</ele>
        <time>2026-03-11T12:26:55Z</time>
      </trkpt>
      <trkpt lat="47.24674" lon="6.00806">
        <ele>290</ele>
        <time>2026-03-11T12:27:00Z</time>
      </trkpt>
      <trkpt lat="47.24712" lon="6.00733">
        <ele>291</ele>
        <time>2026-03-11T12:27:11Z</time>
      </trkpt>
      <trkpt lat="47.24724" lon="6.00702">
        <ele>291</ele>
        <time>2026-03-11T12:27:16Z</time>
      </trkpt>
      <trkpt lat="47.24733" lon="6.00683">
        <ele>291</ele>
        <time>2026-03-11T12:27:18Z</time>
      </trkpt>
      <trkpt lat="47.24764" lon="6.00618">
        <ele>294</ele>
        <time>2026-03-11T12:27:28Z</time>
      </trkpt>
      <trkpt lat="47.24775" lon="6.00592">
        <ele>295</ele>
        <time>2026-03-11T12:27:32Z</time>
      </trkpt>
      <trkpt lat="47.2479" lon="6.0056">
        <ele>297</ele>
        <time>2026-03-11T12:27:36Z</time>
      </trkpt>
      <trkpt lat="47.24804" lon="6.00528">
        <ele>298</ele>
        <time>2026-03-11T12:27:41Z</time>
      </trkpt>
      <trkpt lat="47.24821" lon="6.00492">
        <ele>299</ele>
        <time>2026-03-11T12:27:46Z</time>
      </trkpt>
      <trkpt lat="47.24836" lon="6.00459">
        <ele>301</ele>
        <time>2026-03-11T12:27:51Z</time>
      </trkpt>
      <trkpt lat="47.24841" lon="6.00448">
        <ele>301</ele>
        <time>2026-03-11T12:27:53Z</time>
      </trkpt>
      <trkpt lat="47.24843" lon="6.00444">
        <ele>301</ele>
        <time>2026-03-11T12:27:53Z</time>
      </trkpt>
      <trkpt lat="47.24869" lon="6.00393">
        <ele>303</ele>
        <time>2026-03-11T12:28:01Z</time>
      </trkpt>
      <trkpt lat="47.24885" lon="6.00371">
        <ele>304</ele>
        <time>2026-03-11T12:28:05Z</time>
      </trkpt>
      <trkpt lat="47.24907" lon="6.00328">
        <ele>307</ele>
        <time>2026-03-11T12:28:11Z</time>
      </trkpt>
      <trkpt lat="47.24923" lon="6.00295">
        <ele>308</ele>
        <time>2026-03-11T12:28:16Z</time>
      </trkpt>
      <trkpt lat="47.24929" lon="6.00287">
        <ele>309</ele>
        <time>2026-03-11T12:28:18Z</time>
      </trkpt>
      <trkpt lat="47.24933" lon="6.00275">
        <ele>309</ele>
        <time>2026-03-11T12:28:19Z</time>
      </trkpt>
      <trkpt lat="47.24939" lon="6.00264">
        <ele>309</ele>
        <time>2026-03-11T12:28:21Z</time>
      </trkpt>
      <trkpt lat="47.24943" lon="6.00258">
        <ele>310</ele>
        <time>2026-03-11T12:28:22Z</time>
      </trkpt>
      <trkpt lat="47.25018" lon="6.00126">
        <ele>307</ele>
        <time>2026-03-11T12:28:43Z</time>
      </trkpt>
      <trkpt lat="47.25028" lon="6.00113">
        <ele>307</ele>
        <time>2026-03-11T12:28:45Z</time>
      </trkpt>
      <trkpt lat="47.25099" lon="6.00036">
        <ele>300</ele>
        <time>2026-03-11T12:29:01Z</time>
      </trkpt>
      <trkpt lat="47.25105" lon="6.00028">
        <ele>300</ele>
        <time>2026-03-11T12:29:02Z</time>
      </trkpt>
      <trkpt lat="47.25124" lon="6.00002">
        <ele>297</ele>
        <time>2026-03-11T12:29:07Z</time>
      </trkpt>
      <trkpt lat="47.25122" lon="5.99999">
        <ele>297</ele>
        <time>2026-03-11T12:29:08Z</time>
      </trkpt>
      <trkpt lat="47.2512" lon="5.99996">
        <ele>297</ele>
        <time>2026-03-11T12:29:08Z</time>
      </trkpt>
      <trkpt lat="47.25114" lon="5.99988">
        <ele>297</ele>
        <time>2026-03-11T12:29:10Z</time>
      </trkpt>
      <trkpt lat="47.25104" lon="5.99972">
        <ele>297</ele>
        <time>2026-03-11T12:29:12Z</time>
      </trkpt>
      <trkpt lat="47.25085" lon="5.99942">
        <ele>295</ele>
        <time>2026-03-11T12:29:17Z</time>
      </trkpt>
      <trkpt lat="47.25084" lon="5.99943">
        <ele>296</ele>
        <time>2026-03-11T12:29:17Z</time>
      </trkpt>
    </trkseg>
  </trk>
</gpx>